ftp/pub/palmer/observations_modified/2019/October/original_files/AR191023_BASE.txt
Download
Sample DateTime Unit Id WS Avg 2min WD Avg 2min WGS 10min WGD 10min Air Temp Rel Humidity Dew Point Pyranometer Quantum Air Pressure Snow Level Rainfall PW Current Visibility CBase 1 CBase 2 CBase 3 Vert Vis
2019/10/23 00:00:00 BASE 13.43 350 16.57 348 -0.8 100 -0.8 1 0 989.2 NA 0.0000 UP 9999 2950 0 0 0
2019/10/23 00:01:00 BASE 14.18 345 16.20 352 -0.8 100 -0.8 1 0 989.1 NA 0.0000 9999 790 2950 0 0
2019/10/23 00:02:00 BASE 14.58 346 16.00 352 -0.8 100 -0.8 1 0 989.2 NA 0.0000 9999 2920 0 0 0
2019/10/23 00:03:00 BASE 14.18 347 15.95 346 -0.8 100 -0.8 1 0 989.2 NA 0.0000 9999 2890 0 0 0
2019/10/23 00:04:00 BASE 14.72 348 16.87 352 -0.8 100 -0.8 1 0 989.2 NA 0.0000 9999 850 2850 0 0
2019/10/23 00:05:00 BASE 14.25 351 16.87 352 -0.8 100 -0.8 0 0 989.2 NA 0.0000 9999 790 2720 0 0
2019/10/23 00:06:00 BASE 14.20 349 16.87 352 -0.8 100 -0.8 0 0 989.2 NA 0.0000 9999 790 2760 0 0
2019/10/23 00:07:00 BASE 14.79 347 16.87 352 -0.8 100 -0.8 0 0 989.2 NA 0.0000 9999 720 0 0 0
2019/10/23 00:08:00 BASE 14.91 348 16.87 352 -0.8 100 -0.8 0 0 989.2 NA 0.0000 9999 660 0 0 0
2019/10/23 00:09:00 BASE 14.87 346 16.87 352 -0.8 100 -0.8 0 0 989.2 NA 0.0000 9999 660 0 0 0
2019/10/23 00:10:00 BASE 14.63 344 16.87 352 -0.7 100 -0.7 0 0 989.2 NA 0.0000 9999 660 0 0 0
2019/10/23 00:11:00 BASE 14.54 343 16.87 352 -0.7 100 -0.7 0 0 989.2 NA 0.0000 9999 560 0 0 0
2019/10/23 00:12:00 BASE 14.24 341 16.87 352 -0.7 100 -0.7 0 0 989.2 NA 0.0000 9999 620 0 0 0
2019/10/23 00:13:00 BASE 14.84 342 17.80 354 -0.7 100 -0.7 0 0 989.2 NA 0.0000 9999 460 0 0 0
2019/10/23 00:14:00 BASE 15.30 345 17.80 354 -0.7 100 -0.7 0 0 989.2 NA 0.0000 9999 460 0 0 0
2019/10/23 00:15:00 BASE 14.68 345 17.80 354 -0.8 100 -0.8 0 0 989.2 NA 0.0000 9999 520 0 0 0
2019/10/23 00:16:00 BASE 14.28 344 17.80 354 -0.8 100 -0.8 0 0 989.2 NA 0.0000 9999 560 0 0 0
2019/10/23 00:17:00 BASE 14.73 345 17.80 354 -0.8 100 -0.8 0 0 989.2 NA 0.0000 9999 590 0 0 0
2019/10/23 00:18:00 BASE 16.09 346 19.19 348 -0.8 100 -0.8 0 0 989.1 NA 0.0000 9999 560 0 0 0
2019/10/23 00:19:00 BASE 16.56 345 19.19 348 -0.8 100 -0.8 0 0 989.2 NA 0.0000 9999 520 0 0 0
2019/10/23 00:20:00 BASE 15.73 345 19.19 348 -0.8 100 -0.8 0 0 989.2 NA 0.0000 9999 590 0 0 0
2019/10/23 00:21:00 BASE 15.63 345 19.19 348 -0.8 100 -0.8 0 0 989.2 NA 0.0000 9999 520 0 0 0
2019/10/23 00:22:00 BASE 16.07 345 19.19 348 -0.8 100 -0.8 0 0 989.2 NA 0.0000 9999 520 0 0 0
2019/10/23 00:23:00 BASE 15.94 345 19.19 348 -0.8 100 -0.8 0 0 989.2 NA 0.0000 9999 490 0 0 0
2019/10/23 00:24:00 BASE 16.16 345 19.19 348 -0.8 100 -0.8 0 0 989.2 NA 0.0000 9999 490 0 0 0
2019/10/23 00:25:00 BASE 17.23 345 19.19 348 -0.8 100 -0.8 0 0 989.1 NA 0.0000 9999 490 0 0 0
2019/10/23 00:26:00 BASE 16.98 342 19.19 348 -0.8 100 -0.8 0 0 989.2 NA 0.0000 9999 520 0 0 0
2019/10/23 00:27:00 BASE 15.67 342 19.19 348 -0.8 100 -0.8 0 0 989.2 NA 0.0000 9999 560 0 0 0
2019/10/23 00:28:00 BASE 15.22 343 18.88 343 -0.8 100 -0.8 0 0 989.2 NA 0.0000 9999 520 0 0 0
2019/10/23 00:29:00 BASE 15.77 341 18.88 343 -0.8 100 -0.8 0 0 989.2 NA 0.0000 9999 520 0 0 0
2019/10/23 00:30:00 BASE 15.65 341 18.88 343 -0.8 100 -0.8 0 0 989.3 NA 0.0000 9999 460 0 0 0
2019/10/23 00:31:00 BASE 15.97 341 18.88 343 -0.8 100 -0.8 0 0 989.2 NA 0.0000 9999 460 0 0 0
2019/10/23 00:32:00 BASE 17.46 343 19.60 348 -0.8 100 -0.8 0 0 989.1 NA 0.0000 9999 360 0 0 0
2019/10/23 00:33:00 BASE 17.17 344 19.60 348 -0.8 100 -0.8 0 0 989.2 NA 0.0000 9999 390 0 0 0
2019/10/23 00:34:00 BASE 16.01 343 19.60 348 -0.8 100 -0.8 0 0 989.3 NA 0.0000 9999 330 0 0 0
2019/10/23 00:35:00 BASE 15.42 344 19.60 348 -0.8 100 -0.8 0 0 989.3 NA 0.0000 9999 330 0 0 0
2019/10/23 00:36:00 BASE 15.59 342 19.60 348 -0.8 100 -0.8 0 0 989.3 NA 0.0000 9999 260 0 0 0
2019/10/23 00:37:00 BASE 16.55 343 19.60 348 -0.8 100 -0.8 0 0 989.3 NA 0.0000 9999 260 0 0 0
2019/10/23 00:38:00 BASE 16.70 344 19.60 348 -0.8 100 -0.8 0 0 989.2 NA 0.0000 9999 300 0 0 0
2019/10/23 00:39:00 BASE 15.98 345 19.60 348 -0.8 100 -0.8 0 0 989.3 NA 0.0000 9999 260 0 0 0
2019/10/23 00:40:00 BASE 15.68 346 19.60 348 -0.8 100 -0.8 0 0 989.3 NA 0.0000 9999 260 0 0 0
2019/10/23 00:41:00 BASE 16.40 345 19.60 348 -0.8 100 -0.8 0 0 989.2 NA 0.0000 9999 300 0 0 0
2019/10/23 00:42:00 BASE 16.84 346 18.42 344 -0.8 100 -0.8 0 0 989.2 NA 0.0000 9999 330 0 0 0
2019/10/23 00:43:00 BASE 16.20 348 18.42 344 -0.8 100 -0.8 0 0 989.3 NA 0.0000 9999 330 0 0 0
2019/10/23 00:44:00 BASE 16.28 346 18.88 341 -0.9 100 -0.9 0 0 989.2 NA 0.0000 9999 330 0 0 0
2019/10/23 00:45:00 BASE 17.12 344 19.24 343 -0.9 100 -0.9 0 0 989.2 NA 0.0000 9999 360 0 0 0
2019/10/23 00:46:00 BASE 17.19 345 19.24 343 -0.9 100 -0.9 0 0 989.2 NA 0.0000 9999 330 0 0 0
2019/10/23 00:47:00 BASE 17.72 345 19.55 345 -0.9 100 -0.9 0 0 989.1 NA 0.0000 9999 330 0 0 0
2019/10/23 00:48:00 BASE 18.45 345 19.55 345 -0.9 100 -0.9 0 0 989.1 NA 0.0000 9999 390 1480 0 0
2019/10/23 00:49:00 BASE 18.34 344 19.55 344 -0.9 100 -0.9 0 0 989.1 NA 0.0000 9999 360 0 0 0
2019/10/23 00:50:00 BASE 17.89 348 19.55 344 -0.9 100 -0.9 0 0 989.2 NA 0.0000 9999 390 0 0 0
2019/10/23 00:51:00 BASE 17.09 349 19.55 344 -0.9 100 -0.9 0 0 989.2 NA 0.0000 9999 460 0 0 0
2019/10/23 00:52:00 BASE 16.13 350 19.55 344 -0.9 100 -0.9 0 0 989.3 NA 0.0000 9999 590 0 0 0
2019/10/23 00:53:00 BASE 15.91 353 19.55 344 -0.9 100 -0.9 0 0 989.2 NA 0.0000 9999 560 0 0 0
2019/10/23 00:54:00 BASE 16.43 349 19.55 344 -0.9 100 -0.9 0 0 989.2 NA 0.0000 9999 460 0 0 0
2019/10/23 00:55:00 BASE 17.64 345 19.86 344 -0.9 100 -0.9 0 0 989.1 NA 0.0000 9999 490 0 0 0
2019/10/23 00:56:00 BASE 18.47 345 19.86 344 -0.9 100 -0.9 0 0 989.1 NA 0.0000 9999 590 0 0 0
2019/10/23 00:57:00 BASE 18.20 345 19.86 344 -0.9 100 -0.9 0 0 989.1 NA 0.0000 9999 390 0 0 0
2019/10/23 00:58:00 BASE 17.26 343 19.86 344 -0.9 100 -0.9 0 0 989.2 NA 0.0000 9999 360 0 0 0
2019/10/23 00:59:00 BASE 17.22 343 19.96 344 -0.9 100 -0.9 0 0 989.1 NA 0.0000 9999 360 0 0 0
2019/10/23 01:00:00 BASE 18.30 345 19.96 344 -0.9 100 -0.9 0 0 989.1 NA 0.0000 9999 430 0 0 0
2019/10/23 01:01:00 BASE 18.98 344 20.53 342 -0.9 100 -0.9 0 0 989.0 NA 0.0000 9999 460 0 0 0
2019/10/23 01:02:00 BASE 18.52 343 20.53 342 -0.9 100 -0.9 0 0 989.1 NA 0.0000 9999 390 0 0 0
2019/10/23 01:03:00 BASE 18.19 343 21.14 340 -0.9 100 -0.9 0 0 989.0 NA 0.0000 9999 490 0 0 0
2019/10/23 01:04:00 BASE 19.41 344 22.38 342 -0.9 100 -0.9 0 0 989.0 NA 0.0000 9999 430 0 0 0
2019/10/23 01:05:00 BASE 20.06 345 22.38 342 -0.9 100 -0.9 0 0 989.0 NA 0.0000 9999 430 0 0 0
2019/10/23 01:06:00 BASE 20.33 346 22.38 342 -0.9 100 -0.9 0 0 988.9 NA 0.0000 9999 430 0 0 0
2019/10/23 01:07:00 BASE 20.51 345 22.38 342 -0.9 100 -0.9 0 0 988.9 NA 0.0000 9999 460 0 0 0
2019/10/23 01:08:00 BASE 19.87 345 22.38 342 -0.9 100 -0.9 0 0 989.0 NA 0.0000 9999 430 0 0 0
2019/10/23 01:09:00 BASE 19.31 345 22.38 342 -0.9 100 -0.9 0 0 989.0 NA 0.0000 9999 460 0 0 0
2019/10/23 01:10:00 BASE 19.07 345 22.38 342 -0.9 100 -0.9 0 0 989.1 NA 0.0000 9999 460 0 0 0
2019/10/23 01:11:00 BASE 18.80 345 22.38 342 -0.9 100 -0.9 0 0 989.1 NA 0.0000 9999 460 1350 0 0
2019/10/23 01:12:00 BASE 19.09 346 22.38 342 -0.9 100 -0.9 0 0 989.1 NA 0.0000 9999 460 0 0 0
2019/10/23 01:13:00 BASE 19.10 344 22.38 342 -0.9 100 -0.9 0 0 989.1 NA 0.0000 9999 460 0 0 0
2019/10/23 01:14:00 BASE 18.84 343 21.71 343 -0.9 100 -0.9 0 0 989.1 NA 0.0000 9999 430 0 0 0
2019/10/23 01:15:00 BASE 18.40 343 21.71 343 -0.9 100 -0.9 0 0 989.2 NA 0.0000 9999 430 0 0 0
2019/10/23 01:16:00 BASE 18.01 343 21.56 349 -0.9 100 -0.9 0 0 989.2 NA 0.0000 9999 430 0 0 0
2019/10/23 01:17:00 BASE 18.12 343 21.56 349 -0.8 100 -0.8 0 0 989.2 NA 0.0000 9999 590 0 0 0
2019/10/23 01:18:00 BASE 17.67 344 21.56 349 -0.8 100 -0.8 0 0 989.2 NA 0.0000 9999 660 0 0 0
2019/10/23 01:19:00 BASE 17.47 344 20.99 338 -0.8 100 -0.8 0 0 989.2 NA 0.0000 9999 790 0 0 0
2019/10/23 01:20:00 BASE 17.33 344 20.99 338 -0.8 100 -0.8 0 0 989.3 NA 0.0000 9999 720 0 0 0
2019/10/23 01:21:00 BASE 17.84 345 20.99 338 -0.8 100 -0.8 0 0 989.2 NA 0.0000 9999 660 0 0 0
2019/10/23 01:22:00 BASE 18.66 346 20.99 338 -0.8 100 -0.8 0 0 989.2 NA 0.0000 9999 1020 0 0 0
2019/10/23 01:23:00 BASE 17.91 345 20.99 338 -0.8 100 -0.8 0 0 989.3 NA 0.0000 9999 980 0 0 0
2019/10/23 01:24:00 BASE 17.06 343 20.37 346 -0.8 100 -0.8 0 0 989.3 NA 0.0000 9999 1020 0 0 0
2019/10/23 01:25:00 BASE 16.47 343 20.37 346 -0.8 100 -0.8 0 0 989.3 NA 0.0000 9999 1020 0 0 0
2019/10/23 01:26:00 BASE 16.31 344 19.75 349 -0.8 100 -0.8 0 0 989.3 NA 0.0000 9999 750 0 0 0
2019/10/23 01:27:00 BASE 17.96 345 20.37 341 -0.8 100 -0.8 0 0 989.2 NA 0.0000 9999 590 0 0 0
2019/10/23 01:28:00 BASE 18.90 346 20.37 341 -0.8 100 -0.8 0 0 989.2 NA 0.0000 9999 490 0 0 0
2019/10/23 01:29:00 BASE 17.57 347 20.37 341 -0.8 100 -0.8 0 0 989.2 NA 0.0000 9999 620 0 0 0
2019/10/23 01:30:00 BASE 17.18 346 20.37 341 -0.8 100 -0.8 0 0 989.3 NA 0.0000 9999 1210 0 0 0
2019/10/23 01:31:00 BASE 17.71 346 20.37 341 -0.8 100 -0.8 0 0 989.2 NA 0.0000 9999 980 0 0 0
2019/10/23 01:32:00 BASE 18.05 346 20.37 341 -0.8 100 -0.8 0 0 989.2 NA 0.0000 9999 590 0 0 0
2019/10/23 01:33:00 BASE 17.95 346 20.37 341 -0.8 100 -0.8 0 0 989.3 NA 0.0000 9999 560 0 0 0
2019/10/23 01:34:00 BASE 17.67 345 20.37 341 -0.8 100 -0.8 0 0 989.3 NA 0.0000 9999 560 0 0 0
2019/10/23 01:35:00 BASE 17.82 344 20.37 341 -0.8 100 -0.8 0 0 989.3 NA 0.0000 9999 590 0 0 0
2019/10/23 01:36:00 BASE 18.25 345 20.37 341 -0.8 100 -0.8 0 0 989.2 NA 0.0000 9999 620 0 0 0
2019/10/23 01:37:00 BASE 18.38 349 20.06 347 -0.8 100 -0.8 0 0 989.3 NA 0.0000 9999 620 0 0 0
2019/10/23 01:38:00 BASE 18.18 350 20.06 347 -0.8 100 -0.8 0 0 989.2 NA 0.0000 9999 620 0 0 0
2019/10/23 01:39:00 BASE 18.44 350 20.37 355 -0.8 100 -0.8 0 0 989.2 NA 0.0000 9999 560 0 0 0
2019/10/23 01:40:00 BASE 17.78 352 20.37 355 -0.8 100 -0.8 0 0 989.3 NA 0.0000 9999 590 1640 0 0
2019/10/23 01:41:00 BASE 16.84 350 20.37 355 -0.8 100 -0.8 0 0 989.3 NA 0.0000 9999 620 0 0 0
2019/10/23 01:42:00 BASE 16.60 348 20.37 355 -0.8 100 -0.8 0 0 989.4 NA 0.0000 9999 720 1610 0 0
2019/10/23 01:43:00 BASE 17.30 346 20.37 355 -0.8 100 -0.8 0 0 989.2 NA 0.0000 9999 620 0 0 0
2019/10/23 01:44:00 BASE 17.71 346 20.37 355 -0.8 100 -0.8 0 0 989.3 NA 0.0000 9999 690 0 0 0
2019/10/23 01:45:00 BASE 16.48 348 20.37 355 -0.8 100 -0.8 0 0 989.4 NA 0.0000 9999 590 0 0 0
2019/10/23 01:46:00 BASE 16.13 350 20.37 355 -0.8 100 -0.8 0 0 989.4 NA 0.0000 9999 1540 0 0 0
2019/10/23 01:47:00 BASE 16.42 351 20.37 355 -0.8 100 -0.8 0 0 989.4 NA 0.0000 9999 750 1180 0 0
2019/10/23 01:48:00 BASE 16.13 349 20.37 355 -0.8 100 -0.8 0 0 989.4 NA 0.0000 9999 1080 0 0 0
2019/10/23 01:49:00 BASE 15.41 353 19.81 343 -0.8 100 -0.8 0 0 989.5 NA 0.0000 9999 690 0 0 0
2019/10/23 01:50:00 BASE 14.39 353 19.81 343 -0.8 100 -0.8 0 0 989.5 NA 0.0000 9999 750 1210 0 0
2019/10/23 01:51:00 BASE 14.58 350 19.81 343 -0.8 100 -0.8 0 0 989.5 NA 0.0000 9999 690 0 0 0
2019/10/23 01:52:00 BASE 14.40 351 19.81 343 -0.8 100 -0.8 0 0 989.6 NA 0.0000 9999 920 0 0 0
2019/10/23 01:53:00 BASE 13.86 349 18.73 343 -0.8 100 -0.8 0 0 989.6 NA 0.0000 9999 1150 0 0 0
2019/10/23 01:54:00 BASE 14.33 349 18.67 355 -0.8 100 -0.8 0 0 989.5 NA 0.0000 9999 820 0 0 0
2019/10/23 01:55:00 BASE 14.71 349 18.42 351 -0.8 100 -0.8 0 0 989.5 NA 0.0000 9999 720 0 0 0
2019/10/23 01:56:00 BASE 14.43 349 17.54 343 -0.8 100 -0.8 0 0 989.6 NA 0.0000 9999 720 0 0 0
2019/10/23 01:57:00 BASE 14.19 345 17.39 343 -0.8 100 -0.8 0 0 989.6 NA 0.0000 9999 720 0 0 0
2019/10/23 01:58:00 BASE 15.05 343 17.65 338 -0.8 100 -0.8 0 0 989.5 NA 0.0000 9999 690 0 0 0
2019/10/23 01:59:00 BASE 15.91 344 17.65 338 -0.8 100 -0.8 0 0 989.5 NA 0.0000 9999 750 0 0 0
2019/10/23 02:00:00 BASE 15.93 342 17.65 338 -0.8 100 -0.8 0 0 989.5 NA 0.0000 9999 750 0 0 0
2019/10/23 02:01:00 BASE 15.65 341 17.65 338 -0.8 100 -0.8 0 0 989.5 NA 0.0000 9999 720 0 0 0
2019/10/23 02:02:00 BASE 15.15 344 17.65 338 -0.8 100 -0.8 0 0 989.5 NA 0.0000 9999 720 0 0 0
2019/10/23 02:03:00 BASE 14.46 348 17.65 338 -0.8 100 -0.8 0 0 989.6 NA 0.0000 9999 720 0 0 0
2019/10/23 02:04:00 BASE 15.05 346 17.65 338 -0.8 100 -0.8 0 0 989.6 NA 0.0000 9999 720 0 0 0
2019/10/23 02:05:00 BASE 16.57 346 18.78 347 -0.8 100 -0.8 0 0 989.4 NA 0.0000 9999 720 0 0 0
2019/10/23 02:06:00 BASE 17.19 345 18.78 347 -0.7 100 -0.7 0 0 989.4 NA 0.0000 9999 690 0 0 0
2019/10/23 02:07:00 BASE 16.35 345 18.78 347 -0.7 100 -0.7 0 0 989.5 NA 0.0000 9999 690 0 0 0
2019/10/23 02:08:00 BASE 15.63 349 18.78 347 -0.7 100 -0.7 0 0 989.6 NA 0.0000 9999 690 0 0 0
2019/10/23 02:09:00 BASE 15.48 350 18.78 347 -0.7 100 -0.7 0 0 989.6 NA 0.0000 9999 690 0 0 0
2019/10/23 02:10:00 BASE 14.92 349 18.78 347 -0.7 100 -0.7 0 0 989.6 NA 0.0000 9999 720 0 0 0
2019/10/23 02:11:00 BASE 14.90 347 18.78 347 -0.8 100 -0.8 0 0 989.6 NA 0.0000 9999 690 0 0 0
2019/10/23 02:12:00 BASE 15.51 346 18.78 347 -0.8 100 -0.8 0 0 989.6 NA 0.0000 9999 620 0 0 0
2019/10/23 02:13:00 BASE 16.01 347 18.78 347 -0.7 100 -0.7 0 0 989.6 NA 0.0000 9999 660 0 0 0
2019/10/23 02:14:00 BASE 15.51 348 18.78 347 -0.7 100 -0.7 0 0 989.6 NA 0.0000 9999 660 0 0 0
2019/10/23 02:15:00 BASE 15.05 348 18.73 350 -0.7 100 -0.7 0 0 989.6 NA 0.0000 9999 690 0 0 0
2019/10/23 02:16:00 BASE 15.95 351 18.16 350 -0.7 100 -0.7 0 0 989.6 NA 0.0000 9999 690 0 0 0
2019/10/23 02:17:00 BASE 15.95 351 18.16 350 -0.7 100 -0.7 0 0 989.7 NA 0.0000 9999 690 0 0 0
2019/10/23 02:18:00 BASE 14.72 348 18.16 350 -0.7 100 -0.7 0 0 989.7 NA 0.0000 9999 720 0 0 0
2019/10/23 02:19:00 BASE 14.28 350 18.16 350 -0.7 100 -0.7 0 0 989.7 NA 0.0000 9999 720 0 0 0
2019/10/23 02:20:00 BASE 14.74 351 18.16 350 -0.7 100 -0.7 0 0 989.7 NA 0.0000 9999 720 0 0 0
2019/10/23 02:21:00 BASE 15.92 347 18.47 341 -0.7 100 -0.7 0 0 989.6 NA 0.0000 9999 720 0 0 0
2019/10/23 02:22:00 BASE 16.13 345 18.47 341 -0.7 100 -0.7 0 0 989.7 NA 0.0000 9999 790 0 0 0
2019/10/23 02:23:00 BASE 15.60 346 18.47 341 -0.7 100 -0.7 0 0 989.6 NA 0.0000 9999 1050 0 0 0
2019/10/23 02:24:00 BASE 15.92 346 18.47 341 -0.7 100 -0.7 0 0 989.6 NA 0.0000 9999 820 0 0 0
2019/10/23 02:25:00 BASE 15.45 345 18.47 341 -0.7 100 -0.7 0 0 989.7 NA 0.0000 9999 790 0 0 0
2019/10/23 02:26:00 BASE 14.90 343 18.47 341 -0.7 100 -0.7 0 0 989.7 NA 0.0000 9999 790 0 0 0
2019/10/23 02:27:00 BASE 16.09 343 18.47 341 -0.7 100 -0.7 0 0 989.7 NA 0.0000 9999 820 0 0 0
2019/10/23 02:28:00 BASE 16.86 349 18.47 341 -0.7 100 -0.7 0 0 989.7 NA 0.0000 9999 1020 0 0 0
2019/10/23 02:29:00 BASE 16.60 352 18.47 341 -0.7 100 -0.7 0 0 989.7 NA 0.0000 9999 890 0 0 0
2019/10/23 02:30:00 BASE 17.22 349 19.60 350 -0.7 100 -0.7 0 0 989.7 NA 0.0000 9999 920 0 0 0
2019/10/23 02:31:00 BASE 17.52 346 19.60 350 -0.7 100 -0.7 0 0 989.7 NA 0.0000 9999 950 0 0 0
2019/10/23 02:32:00 BASE 17.09 346 19.60 350 -0.6 100 -0.6 0 0 989.7 NA 0.0000 9999 920 0 0 0
2019/10/23 02:33:00 BASE 16.60 348 19.60 350 -0.6 100 -0.6 0 0 989.7 NA 0.0000 9999 920 0 0 0
2019/10/23 02:34:00 BASE 16.42 348 19.60 350 -0.6 100 -0.6 0 0 989.7 NA 0.0000 9999 850 0 0 0
2019/10/23 02:35:00 BASE 16.11 345 19.60 350 -0.6 100 -0.6 0 0 989.8 NA 0.0000 9999 950 0 0 0
2019/10/23 02:36:00 BASE 15.99 348 19.60 350 -0.6 100 -0.6 0 0 989.8 NA 0.0000 9999 890 0 0 0
2019/10/23 02:37:00 BASE 15.92 354 19.60 350 -0.6 100 -0.6 0 0 989.8 NA 0.0000 9999 890 0 0 0
2019/10/23 02:38:00 BASE 15.37 349 19.60 350 -0.6 100 -0.6 0 0 989.9 NA 0.0000 9999 920 0 0 0
2019/10/23 02:39:00 BASE 14.88 345 19.60 350 -0.6 100 -0.6 0 0 989.9 NA 0.0000 9999 850 0 0 0
2019/10/23 02:40:00 BASE 14.40 346 18.52 341 -0.6 100 -0.6 0 0 989.9 NA 0.0000 9999 820 0 0 0
2019/10/23 02:41:00 BASE 14.41 345 18.52 341 -0.6 100 -0.6 0 0 989.9 NA 0.0000 9999 820 0 0 0
2019/10/23 02:42:00 BASE 14.51 343 18.06 348 -0.7 100 -0.7 0 0 989.9 NA 0.0000 9999 790 0 0 0
2019/10/23 02:43:00 BASE 14.27 343 18.06 348 -0.7 100 -0.7 0 0 989.9 NA 0.0000 9999 790 0 0 0
2019/10/23 02:44:00 BASE 14.32 344 18.06 348 -0.7 100 -0.7 0 0 990.0 NA 0.0000 9999 850 0 0 0
2019/10/23 02:45:00 BASE 14.11 342 18.06 348 -0.7 100 -0.7 0 0 990.0 NA 0.0000 9999 790 0 0 0
2019/10/23 02:46:00 BASE 13.08 340 16.62 346 -0.7 100 -0.7 0 0 990.0 NA 0.0000 9999 820 0 0 0
2019/10/23 02:47:00 BASE 12.31 340 16.62 346 -0.7 100 -0.7 0 0 990.1 NA 0.0000 9999 820 0 0 0
2019/10/23 02:48:00 BASE 11.90 342 16.62 346 -0.7 100 -0.7 0 0 990.1 NA 0.0000 9999 850 0 0 0
2019/10/23 02:49:00 BASE 12.23 344 16.62 346 -0.7 100 -0.7 0 0 990.1 NA 0.0000 9999 850 0 0 0
2019/10/23 02:50:00 BASE 13.27 345 16.62 346 -0.7 100 -0.7 0 0 990.0 NA 0.0000 9999 850 0 0 0
2019/10/23 02:51:00 BASE 14.10 345 16.00 345 -0.7 100 -0.7 0 0 990.0 NA 0.0000 9999 820 0 0 0
2019/10/23 02:52:00 BASE 13.81 343 16.00 345 -0.7 100 -0.7 0 0 990.1 NA 0.0000 9999 820 0 0 0
2019/10/23 02:53:00 BASE 12.99 341 16.00 345 -0.7 100 -0.7 0 0 990.1 NA 0.0000 9999 790 0 0 0
2019/10/23 02:54:00 BASE 13.17 341 15.90 341 -0.7 100 -0.7 0 0 990.0 NA 0.0000 9999 790 0 0 0
2019/10/23 02:55:00 BASE 13.62 343 16.05 349 -0.7 100 -0.7 0 0 990.0 NA 0.0000 9999 790 0 0 0
2019/10/23 02:56:00 BASE 14.21 342 16.05 349 -0.7 100 -0.7 0 0 990.0 NA 0.0000 9999 720 0 0 0
2019/10/23 02:57:00 BASE 14.63 343 16.05 349 -0.7 100 -0.7 0 0 990.0 NA 0.0000 9999 720 0 0 0
2019/10/23 02:58:00 BASE 14.58 343 16.05 349 -0.7 100 -0.7 0 0 990.0 NA 0.0000 9999 750 0 0 0
2019/10/23 02:59:00 BASE 14.47 342 16.05 349 -0.7 100 -0.7 0 0 990.0 NA 0.0000 9999 660 0 0 0
2019/10/23 03:00:00 BASE 13.54 344 16.05 349 -0.7 100 -0.7 0 0 990.1 NA 0.0000 9999 660 0 0 0
2019/10/23 03:01:00 BASE 12.74 344 16.05 349 -0.7 100 -0.7 0 0 990.1 NA 0.0000 9999 690 0 0 0
2019/10/23 03:02:00 BASE 12.56 342 16.05 349 -0.7 100 -0.7 0 0 990.2 NA 0.0000 9999 660 0 0 0
2019/10/23 03:03:00 BASE 12.77 342 16.05 349 -0.7 100 -0.7 0 0 990.2 NA 0.0000 9999 690 0 0 0
2019/10/23 03:04:00 BASE 12.93 342 16.05 349 -0.8 100 -0.8 0 0 990.2 NA 0.0000 9999 660 0 0 0
2019/10/23 03:05:00 BASE 13.50 343 16.05 349 -0.8 100 -0.8 0 0 990.1 NA 0.0000 9999 690 0 0 0
2019/10/23 03:06:00 BASE 13.72 343 15.48 344 -0.8 100 -0.8 0 0 990.1 NA 0.0000 9999 690 0 0 0
2019/10/23 03:07:00 BASE 12.91 341 15.48 344 -0.8 100 -0.8 0 0 990.2 NA 0.0000 9999 690 0 0 0
2019/10/23 03:08:00 BASE 12.06 343 15.43 347 -0.8 100 -0.8 0 0 990.3 NA 0.0000 9999 690 0 0 0
2019/10/23 03:09:00 BASE 11.61 345 15.43 347 -0.8 100 -0.8 0 0 990.2 NA 0.0000 9999 690 0 0 0
2019/10/23 03:10:00 BASE 12.24 344 15.43 347 -0.8 100 -0.8 0 0 990.2 NA 0.0000 9999 720 0 0 0
2019/10/23 03:11:00 BASE 11.97 343 15.43 347 -0.8 100 -0.8 0 0 990.3 NA 0.0000 9999 690 0 0 0
2019/10/23 03:12:00 BASE 12.06 343 15.43 347 -0.8 100 -0.8 0 0 990.2 NA 0.0000 9999 690 0 0 0
2019/10/23 03:13:00 BASE 12.89 343 15.43 347 -0.8 100 -0.8 0 0 990.3 NA 0.0000 9999 690 0 0 0
2019/10/23 03:14:00 BASE 12.73 344 15.43 347 -0.8 100 -0.8 0 0 990.3 NA 0.0000 9999 690 0 0 0
2019/10/23 03:15:00 BASE 12.30 344 14.35 337 -0.8 100 -0.8 0 0 990.3 NA 0.0000 9999 720 0 0 0
2019/10/23 03:16:00 BASE 11.49 345 14.20 341 -0.8 100 -0.8 0 0 990.4 NA 0.0000 9999 690 0 0 0
2019/10/23 03:17:00 BASE 11.63 346 14.20 341 -0.8 100 -0.8 0 0 990.3 NA 0.0000 9999 720 0 0 0
2019/10/23 03:18:00 BASE 12.94 346 14.51 340 -0.8 100 -0.8 0 0 990.3 NA 0.0000 9999 720 0 0 0
2019/10/23 03:19:00 BASE 13.27 346 14.51 340 -0.8 100 -0.8 0 0 990.3 NA 0.0000 9999 690 0 0 0
2019/10/23 03:20:00 BASE 12.68 346 14.51 340 -0.8 100 -0.8 0 0 990.3 NA 0.0000 9999 690 0 0 0
2019/10/23 03:21:00 BASE 13.49 348 16.20 354 -0.8 100 -0.8 0 0 990.2 NA 0.0000 9999 720 0 0 0
2019/10/23 03:22:00 BASE 14.53 347 16.20 354 -0.8 100 -0.8 0 0 990.2 NA 0.0000 9999 790 0 0 0
2019/10/23 03:23:00 BASE 14.26 344 16.20 354 -0.8 100 -0.8 0 0 990.3 NA 0.0000 9999 720 0 0 0
2019/10/23 03:24:00 BASE 13.72 343 16.20 354 -0.8 100 -0.8 0 0 990.3 NA 0.0000 9999 750 0 0 0
2019/10/23 03:25:00 BASE 13.12 341 16.20 354 -0.8 100 -0.8 0 0 990.4 NA 0.0000 9999 720 0 0 0
2019/10/23 03:26:00 BASE 13.01 342 16.20 354 -0.8 100 -0.8 0 0 990.4 NA 0.0000 9999 720 0 0 0
2019/10/23 03:27:00 BASE 13.42 343 16.20 354 -0.8 100 -0.8 0 0 990.3 NA 0.0000 9999 720 0 0 0
2019/10/23 03:28:00 BASE 14.11 344 16.20 354 -0.8 100 -0.8 0 0 990.3 NA 0.0000 9999 750 0 0 0
2019/10/23 03:29:00 BASE 14.63 345 16.20 354 -0.8 100 -0.8 0 0 990.3 NA 0.0000 9999 790 0 0 0
2019/10/23 03:30:00 BASE 14.22 348 16.20 354 -0.8 100 -0.8 0 0 990.3 NA 0.0000 9999 790 0 0 0
2019/10/23 03:31:00 BASE 13.76 349 15.54 344 -0.8 100 -0.8 0 0 990.4 NA 0.0000 9999 750 0 0 0
2019/10/23 03:32:00 BASE 13.58 345 15.54 344 -0.8 100 -0.8 0 0 990.4 NA 0.0000 9999 820 0 0 0
2019/10/23 03:33:00 BASE 14.11 344 15.79 340 -0.8 100 -0.8 0 0 990.3 NA 0.0000 9999 850 0 0 0
2019/10/23 03:34:00 BASE 15.06 343 16.10 344 -0.8 100 -0.8 0 0 990.3 NA 0.0000 9999 820 0 0 0
2019/10/23 03:35:00 BASE 14.48 343 16.10 344 -0.8 100 -0.8 0 0 990.4 NA 0.0000 9999 790 0 0 0
2019/10/23 03:36:00 BASE 14.09 344 16.10 344 -0.7 100 -0.7 0 0 990.3 NA 0.0000 9999 750 0 0 0
2019/10/23 03:37:00 BASE 13.83 344 16.10 344 -0.8 100 -0.8 0 0 990.4 NA 0.0000 9999 790 0 0 0
2019/10/23 03:38:00 BASE 13.58 343 16.10 344 -0.8 100 -0.8 0 0 990.4 NA 0.0000 9999 790 0 0 0
2019/10/23 03:39:00 BASE 13.81 343 16.10 344 -0.8 100 -0.8 0 0 990.4 NA 0.0000 9999 790 0 0 0
2019/10/23 03:40:00 BASE 13.21 342 16.10 344 -0.8 100 -0.8 0 0 990.4 NA 0.0000 9999 820 0 0 0
2019/10/23 03:41:00 BASE 12.65 345 16.10 344 -0.8 100 -0.8 0 0 990.4 NA 0.0000 9999 820 0 0 0
2019/10/23 03:42:00 BASE 12.66 346 16.10 344 -0.8 100 -0.8 0 0 990.4 NA 0.0000 9999 890 0 0 0
2019/10/23 03:43:00 BASE 13.11 345 16.10 344 -0.8 100 -0.8 0 0 990.4 NA 0.0000 9999 850 0 0 0
2019/10/23 03:44:00 BASE 14.73 346 17.08 348 -0.8 100 -0.8 0 0 990.3 NA 0.0000 9999 850 0 0 0
2019/10/23 03:45:00 BASE 16.39 345 18.01 349 -0.8 100 -0.8 0 0 990.3 NA 0.0000 9999 950 0 0 0
2019/10/23 03:46:00 BASE 15.63 344 18.01 349 -0.8 100 -0.8 0 0 990.4 NA 0.0000 9999 890 0 0 0
2019/10/23 03:47:00 BASE 15.32 345 18.01 349 -0.8 100 -0.8 0 0 990.4 NA 0.0000 9999 790 0 0 0
2019/10/23 03:48:00 BASE 15.69 347 18.01 349 -0.8 100 -0.8 0 0 990.4 NA 0.0000 9999 820 0 0 0
2019/10/23 03:49:00 BASE 14.83 348 18.01 349 -0.8 100 -0.8 0 0 990.4 NA 0.0000 9999 890 0 0 0
2019/10/23 03:50:00 BASE 14.53 347 18.01 349 -0.8 100 -0.8 0 0 990.4 NA 0.0000 9999 820 0 0 0
2019/10/23 03:51:00 BASE 14.98 345 18.01 349 -0.8 100 -0.8 0 0 990.4 NA 0.0000 9999 790 0 0 0
2019/10/23 03:52:00 BASE 14.61 347 18.01 349 -0.8 100 -0.8 0 0 990.5 NA 0.0000 9999 820 0 0 0
2019/10/23 03:53:00 BASE 13.59 349 18.01 349 -0.8 100 -0.8 0 0 990.5 NA 0.0000 9999 720 0 0 0
2019/10/23 03:54:00 BASE 14.03 348 18.01 349 -0.8 100 -0.8 0 0 990.4 NA 0.0000 9999 690 0 0 0
2019/10/23 03:55:00 BASE 15.29 348 16.62 352 -0.8 100 -0.8 0 0 990.4 NA 0.0000 9999 720 0 0 0
2019/10/23 03:56:00 BASE 15.20 350 16.62 352 -0.8 100 -0.8 0 0 990.5 NA 0.0000 9999 720 0 0 0
2019/10/23 03:57:00 BASE 14.45 348 16.62 352 -0.8 100 -0.8 0 0 990.5 NA 0.0000 9999 720 0 0 0
2019/10/23 03:58:00 BASE 14.33 347 16.62 352 -0.8 100 -0.8 0 0 990.5 NA 0.0000 9999 720 0 0 0
2019/10/23 03:59:00 BASE 14.30 348 16.62 352 -0.8 100 -0.8 0 0 990.5 NA 0.0000 9999 750 0 0 0
2019/10/23 04:00:00 BASE 14.32 348 16.62 352 -0.8 100 -0.8 0 0 990.5 NA 0.0000 9999 720 0 0 0
2019/10/23 04:02:00 BASE 14.58 351 16.62 352 -0.8 100 -0.8 0 0 990.5 NA 0.0000 9999 720 0 0 0
2019/10/23 04:03:00 BASE 14.69 351 16.62 350 -0.8 100 -0.8 0 0 990.6 NA 0.0000 9999 750 0 0 0
2019/10/23 04:04:00 BASE 13.84 351 16.62 350 -0.7 100 -0.7 0 0 990.6 NA 0.0000 9999 750 0 0 0
2019/10/23 04:05:00 BASE 12.80 352 16.62 350 -0.7 100 -0.7 0 0 990.7 NA 0.0000 9999 750 0 0 0
2019/10/23 04:06:00 BASE 13.17 349 16.62 350 -0.8 100 -0.8 0 0 990.6 NA 0.0000 9999 750 0 0 0
2019/10/23 04:07:00 BASE 13.56 350 16.62 350 -0.7 100 -0.7 0 0 990.7 NA 0.0000 9999 720 0 0 0
2019/10/23 04:08:00 BASE 13.06 355 16.62 350 -0.7 100 -0.7 0 0 990.7 NA 0.0000 9999 820 0 0 0
2019/10/23 04:09:00 BASE 12.62 357 16.62 350 -0.7 100 -0.7 0 0 990.7 NA 0.0000 9999 820 0 0 0
2019/10/23 04:10:00 BASE 13.01 356 16.62 350 -0.7 100 -0.7 0 0 990.6 NA 0.0000 9999 820 0 0 0
2019/10/23 04:11:00 BASE 13.38 354 16.62 350 -0.7 100 -0.7 0 0 990.7 NA 0.0000 9999 820 0 0 0
2019/10/23 04:12:00 BASE 13.68 355 16.62 350 -0.7 100 -0.7 0 0 990.6 NA 0.0000 9999 750 0 0 0
2019/10/23 04:13:00 BASE 13.22 355 15.90 351 -0.7 100 -0.7 0 0 990.7 NA 0.0000 9999 890 3510 0 0
2019/10/23 04:14:00 BASE 12.37 353 15.90 351 -0.8 100 -0.8 0 0 990.7 NA 0.0000 9999 790 0 0 0
2019/10/23 04:15:00 BASE 12.06 354 15.90 351 -0.7 100 -0.7 0 0 990.8 NA 0.0000 9999 750 0 0 0
2019/10/23 04:16:00 BASE 11.99 354 15.90 351 -0.7 100 -0.7 0 0 990.7 NA 0.0000 9999 750 0 0 0
2019/10/23 04:17:00 BASE 12.17 350 15.90 351 -0.7 100 -0.7 0 0 990.7 NA 0.0000 9999 750 0 0 0
2019/10/23 04:18:00 BASE 12.43 349 15.90 351 -0.7 100 -0.7 0 0 990.7 NA 0.0000 9999 790 1540 0 0
2019/10/23 04:19:00 BASE 12.43 348 15.90 351 -0.7 100 -0.7 0 0 990.7 NA 0.0000 9999 790 1640 0 0
2019/10/23 04:20:00 BASE 13.10 349 15.90 351 -0.7 100 -0.7 0 0 990.7 NA 0.0000 9999 820 1640 0 0
2019/10/23 04:21:00 BASE 13.61 350 15.74 348 -0.7 100 -0.7 0 0 990.7 NA 0.0000 9999 790 0 0 0
2019/10/23 04:22:00 BASE 12.62 351 15.74 348 -0.7 100 -0.7 0 0 990.7 NA 0.0000 9999 750 0 0 0
2019/10/23 04:23:00 BASE 11.54 352 15.74 348 -0.7 100 -0.7 0 0 990.8 NA 0.0000 9999 750 0 0 0
2019/10/23 04:24:00 BASE 11.15 351 15.74 348 -0.7 100 -0.7 0 0 990.8 NA 0.0000 9999 750 0 0 0
2019/10/23 04:25:00 BASE 11.61 348 15.74 348 -0.7 100 -0.7 0 0 990.8 NA 0.0000 9999 750 0 0 0
2019/10/23 04:26:00 BASE 11.21 345 15.74 348 -0.7 100 -0.7 0 0 990.8 NA 0.0000 9999 720 1840 0 0
2019/10/23 04:27:00 BASE 11.00 348 15.74 348 -0.7 100 -0.7 0 0 990.8 NA 0.0000 9999 750 1800 0 0
2019/10/23 04:28:00 BASE 11.99 349 15.74 348 -0.7 100 -0.7 0 0 990.8 NA 0.0000 9999 750 1840 0 0
2019/10/23 04:29:00 BASE 12.19 348 15.74 348 -0.7 100 -0.7 0 0 990.8 NA 0.0000 9999 790 0 0 0
2019/10/23 04:30:00 BASE 12.54 351 14.66 348 -0.7 100 -0.7 0 0 990.8 NA 0.0000 9999 790 0 0 0
2019/10/23 04:31:00 BASE 12.86 349 14.66 347 -0.7 100 -0.7 0 0 990.7 NA 0.0000 9999 790 0 0 0
2019/10/23 04:32:00 BASE 12.22 342 14.66 347 -0.7 100 -0.7 0 0 990.8 NA 0.0000 9999 820 0 0 0
2019/10/23 04:33:00 BASE 11.74 343 14.66 347 -0.7 100 -0.7 0 0 990.8 NA 0.0000 9999 820 0 0 0
2019/10/23 04:34:00 BASE 11.21 347 14.66 347 -0.7 100 -0.7 0 0 990.9 NA 0.0000 9999 790 0 0 0
2019/10/23 04:35:00 BASE 10.75 348 14.66 347 -0.7 100 -0.7 0 0 990.9 NA 0.0000 9999 790 0 0 0
2019/10/23 04:36:00 BASE 10.93 353 14.66 347 -0.7 100 -0.7 0 0 990.9 NA 0.0000 9999 790 0 0 0
2019/10/23 04:37:00 BASE 11.33 355 14.66 347 -0.7 100 -0.7 0 0 990.9 NA 0.0000 9999 820 1970 0 0
2019/10/23 04:38:00 BASE 11.90 353 14.66 347 -0.7 100 -0.7 0 0 990.8 NA 0.0000 9999 850 0 0 0
2019/10/23 04:39:00 BASE 11.52 344 14.66 347 -0.7 100 -0.7 0 0 990.9 NA 0.0000 9999 820 0 0 0
2019/10/23 04:40:00 BASE 10.73 347 14.66 347 -0.7 100 -0.7 0 0 990.9 NA 0.0000 9999 820 2130 0 0
2019/10/23 04:41:00 BASE 10.67 354 12.91 360 -0.7 100 -0.7 0 0 990.9 NA 0.0000 9999 820 2130 0 0
2019/10/23 04:42:00 BASE 11.88 352 14.71 344 -0.7 100 -0.7 0 0 990.8 NA 0.0000 9999 790 3510 0 0
2019/10/23 04:43:00 BASE 12.32 352 14.71 344 -0.7 100 -0.7 0 0 990.9 NA 0.0000 9999 850 0 0 0
2019/10/23 04:44:00 BASE 11.33 354 14.71 344 -0.7 100 -0.7 0 0 990.9 NA 0.0000 9999 820 0 0 0
2019/10/23 04:45:00 BASE 10.97 351 14.71 344 -0.7 100 -0.7 0 0 990.9 NA 0.0000 9999 790 0 0 0
2019/10/23 04:46:00 BASE 10.81 345 14.71 344 -0.7 100 -0.7 0 0 990.9 NA 0.0000 9999 820 0 0 0
2019/10/23 04:47:00 BASE 10.88 348 14.71 344 -0.7 100 -0.7 0 0 990.9 NA 0.0000 9999 790 0 0 0
2019/10/23 04:48:00 BASE 11.77 349 14.71 344 -0.8 100 -0.8 0 0 990.9 NA 0.0000 9999 790 0 0 0
2019/10/23 04:49:00 BASE 12.83 348 14.71 344 -0.8 100 -0.8 0 0 990.9 NA 0.0000 9999 790 0 0 0
2019/10/23 04:50:00 BASE 12.60 347 14.71 344 -0.7 100 -0.7 0 0 990.9 NA 0.0000 9999 790 0 0 0
2019/10/23 04:51:00 BASE 12.62 344 14.71 344 -0.7 100 -0.7 0 0 990.9 NA 0.0000 9999 790 0 0 0
2019/10/23 04:52:00 BASE 13.36 344 14.56 348 -0.7 100 -0.7 0 0 990.9 NA 0.0000 9999 820 0 0 0
2019/10/23 04:53:00 BASE 13.73 346 15.07 350 -0.7 100 -0.7 0 0 990.9 NA 0.0000 9999 790 0 0 0
2019/10/23 04:54:00 BASE 14.13 346 15.28 346 -0.7 100 -0.7 0 0 990.8 NA 0.0000 9999 750 0 0 0
2019/10/23 04:55:00 BASE 13.84 344 15.28 346 -0.7 100 -0.7 0 0 990.9 NA 0.0000 9999 790 0 0 0
2019/10/23 04:56:00 BASE 13.27 343 15.28 346 -0.7 100 -0.7 0 0 990.9 NA 0.0000 9999 790 0 0 0
2019/10/23 04:57:00 BASE 13.19 342 15.28 346 -0.7 100 -0.7 0 0 991.0 NA 0.0000 9999 750 0 0 0
2019/10/23 04:58:00 BASE 12.86 344 15.28 346 -0.7 100 -0.7 0 0 991.0 NA 0.0000 9999 790 0 0 0
2019/10/23 04:59:00 BASE 12.64 345 15.28 346 -0.7 100 -0.7 0 0 991.0 NA 0.0000 9999 750 0 0 0
2019/10/23 05:00:00 BASE 12.92 342 15.28 346 -0.7 100 -0.7 0 0 991.0 NA 0.0000 9999 750 0 0 0
2019/10/23 05:01:00 BASE 12.45 337 15.28 346 -0.7 100 -0.7 0 0 991.1 NA 0.0000 9999 720 0 0 0
2019/10/23 05:02:00 BASE 12.13 333 15.28 346 -0.7 100 -0.7 0 0 991.0 NA 0.0000 9999 690 0 0 0
2019/10/23 05:03:00 BASE 13.11 335 15.74 342 -0.7 100 -0.7 0 0 991.0 NA 0.0000 9999 720 0 0 0
2019/10/23 05:04:00 BASE 15.24 338 18.11 340 -0.8 100 -0.8 0 0 990.9 NA 0.0000 9999 720 0 0 0
2019/10/23 05:05:00 BASE 16.40 337 18.11 340 -0.8 100 -0.8 0 0 990.9 NA 0.0000 9999 720 0 0 0
2019/10/23 05:06:00 BASE 15.62 339 18.11 340 -0.8 100 -0.8 0 0 990.9 NA 0.0000 9999 690 0 0 0
2019/10/23 05:07:00 BASE 15.15 342 18.11 340 -0.8 100 -0.8 0 0 990.9 NA 0.0000 9999 720 0 0 0
2019/10/23 05:08:00 BASE 14.89 342 18.11 340 -0.8 100 -0.8 0 0 991.0 NA 0.0000 9999 720 0 0 0
2019/10/23 05:09:00 BASE 14.59 340 18.11 340 -0.8 100 -0.8 0 0 990.9 NA 0.0000 9999 720 0 0 0
2019/10/23 05:10:00 BASE 15.62 339 18.11 340 -0.8 100 -0.8 0 0 990.8 NA 0.0000 9999 720 0 0 0
2019/10/23 05:11:00 BASE 16.30 339 18.11 340 -0.8 100 -0.8 0 0 990.9 NA 0.0000 9999 690 0 0 0
2019/10/23 05:12:00 BASE 15.29 340 18.11 340 -0.8 100 -0.8 0 0 990.9 NA 0.0000 9999 690 0 0 0
2019/10/23 05:13:00 BASE 14.14 342 18.11 340 -0.8 100 -0.8 0 0 991.0 NA 0.0000 9999 720 0 0 0
2019/10/23 05:14:00 BASE 14.06 344 17.70 335 -0.8 100 -0.8 0 0 990.9 NA 0.0000 9999 660 0 0 0
2019/10/23 05:15:00 BASE 14.51 343 17.54 342 -0.8 100 -0.8 0 0 990.9 NA 0.0000 9999 660 0 0 0
2019/10/23 05:16:00 BASE 14.17 340 17.54 342 -0.9 100 -0.9 0 0 991.0 NA 0.0000 9999 690 0 0 0
2019/10/23 05:17:00 BASE 14.14 339 17.54 342 -0.9 100 -0.9 0 0 991.0 NA 0.0000 9999 660 0 0 0
2019/10/23 05:18:00 BASE 14.32 338 17.54 342 -0.9 100 -0.9 0 0 991.0 NA 0.0000 9999 690 0 0 0
2019/10/23 05:19:00 BASE 14.29 338 17.54 342 -0.9 100 -0.9 0 0 990.9 NA 0.0000 9999 720 0 0 0
2019/10/23 05:20:00 BASE 14.54 338 16.98 349 -0.8 100 -0.8 0 0 990.9 NA 0.0000 9999 690 0 0 0
2019/10/23 05:21:00 BASE 14.31 339 16.98 349 -0.8 100 -0.8 0 0 991.0 NA 0.0000 9999 660 0 0 0
2019/10/23 05:22:00 BASE 13.36 342 16.98 349 -0.8 100 -0.8 0 0 991.0 NA 0.0000 9999 660 0 0 0
2019/10/23 05:23:00 BASE 13.04 342 16.98 349 -0.8 100 -0.8 0 0 991.0 NA 0.0000 9999 620 0 0 0
2019/10/23 05:24:00 BASE 13.06 345 16.46 343 -0.8 100 -0.8 0 0 991.0 NA 0.0000 9999 660 0 0 0
2019/10/23 05:25:00 BASE 13.67 349 16.05 336 -0.9 100 -0.9 0 0 991.0 NA 0.0000 9999 690 0 0 0
2019/10/23 05:26:00 BASE 14.22 345 16.05 336 -0.9 100 -0.9 0 0 991.0 NA 0.0000 9999 660 0 0 0
2019/10/23 05:27:00 BASE 13.54 341 16.05 336 -0.9 100 -0.9 0 0 991.0 NA 0.0000 9999 660 0 0 0
2019/10/23 05:28:00 BASE 14.08 343 16.05 336 -0.9 100 -0.9 0 0 990.9 NA 0.0000 9999 660 0 0 0
2019/10/23 05:29:00 BASE 15.06 343 16.20 344 -0.9 100 -0.9 0 0 990.9 NA 0.0000 9999 660 0 0 0
2019/10/23 05:30:00 BASE 14.44 342 16.20 344 -0.9 100 -0.9 0 0 991.0 NA 0.0000 9999 620 0 0 0
2019/10/23 05:31:00 BASE 14.39 342 16.20 344 -0.9 100 -0.9 0 0 991.0 NA 0.0000 9999 620 0 0 0
2019/10/23 05:32:00 BASE 14.00 339 16.20 344 -0.9 100 -0.9 0 0 991.1 NA 0.0000 9999 660 0 0 0
2019/10/23 05:33:00 BASE 12.84 335 16.20 344 -0.9 100 -0.9 0 0 991.1 NA 0.0000 9999 620 0 0 0
2019/10/23 05:34:00 BASE 12.13 333 16.20 344 -0.9 100 -0.9 0 0 991.2 NA 0.0000 9999 620 0 0 0
2019/10/23 05:35:00 BASE 12.61 333 16.20 344 -0.9 100 -0.9 0 0 991.1 NA 0.0000 9999 590 0 0 0
2019/10/23 05:36:00 BASE 13.86 337 16.20 344 -0.9 100 -0.9 0 0 991.1 NA 0.0000 9999 590 0 0 0
2019/10/23 05:37:00 BASE 13.34 339 16.20 344 -0.9 100 -0.9 0 0 991.2 NA 0.0000 9999 590 0 0 0
2019/10/23 05:38:00 BASE 12.61 337 16.20 344 -0.9 100 -0.9 0 0 991.2 NA 0.0000 9999 590 0 0 0
2019/10/23 05:39:00 BASE 12.43 334 15.64 340 -0.9 100 -0.9 0 0 991.2 NA 0.0000 9999 590 0 0 0
2019/10/23 05:40:00 BASE 12.32 334 15.64 340 -1.0 100 -1.0 0 0 991.2 NA 0.0000 9999 620 0 0 0
2019/10/23 05:41:00 BASE 13.13 335 15.28 340 -1.0 100 -1.0 0 0 991.1 NA 0.0000 9999 660 0 0 0
2019/10/23 05:42:00 BASE 13.90 333 15.59 336 -1.0 100 -1.0 0 0 991.1 NA 0.0000 9999 620 0 0 0
2019/10/23 05:43:01 BASE 13.63 332 15.59 336 -1.0 100 -1.0 0 0 991.2 NA 0.0000 9999 620 0 0 0
2019/10/23 05:44:00 BASE 12.69 334 15.59 336 -1.0 100 -1.0 0 0 991.2 NA 0.0000 9999 620 0 0 0
2019/10/23 05:45:00 BASE 13.31 337 15.59 336 -1.0 100 -1.0 0 0 991.1 NA 0.0000 9999 590 0 0 0
2019/10/23 05:46:00 BASE 13.96 337 15.59 336 -1.0 100 -1.0 0 0 991.1 NA 0.0000 9999 590 0 0 0
2019/10/23 05:47:00 BASE 12.88 337 15.59 336 -1.0 100 -1.0 0 0 991.2 NA 0.0000 9999 590 0 0 0
2019/10/23 05:48:00 BASE 12.40 339 15.59 336 -1.0 100 -1.0 0 0 991.2 NA 0.0000 9999 620 0 0 0
2019/10/23 05:49:00 BASE 12.49 338 15.59 336 -1.0 100 -1.0 0 0 991.2 NA 0.0000 9999 590 0 0 0
2019/10/23 05:50:00 BASE 12.76 338 15.59 336 -1.0 100 -1.0 0 0 991.2 NA 0.0000 9999 620 0 0 0
2019/10/23 05:51:00 BASE 12.58 337 15.59 336 -1.0 100 -1.0 0 0 991.2 NA 0.0000 9999 620 0 0 0
2019/10/23 05:52:00 BASE 12.43 337 15.54 335 -1.0 100 -1.0 0 0 991.2 NA 0.0000 9999 620 0 0 0
2019/10/23 05:53:00 BASE 12.33 339 15.54 335 -1.0 100 -1.0 0 0 991.2 NA 0.0000 9999 620 0 0 0
2019/10/23 05:54:00 BASE 12.50 338 15.54 335 -1.0 100 -1.0 0 0 991.2 NA 0.0000 9999 620 0 0 0
2019/10/23 05:55:00 BASE 13.40 337 14.82 338 -1.0 100 -1.0 0 0 991.1 NA 0.0000 9999 620 0 0 0
2019/10/23 05:56:00 BASE 14.08 335 15.02 335 -1.0 100 -1.0 0 0 991.2 NA 0.0000 9999 620 0 0 0
2019/10/23 05:57:00 BASE 13.77 332 15.02 335 -1.0 100 -1.0 0 0 991.3 NA 0.0000 9999 620 0 0 0
2019/10/23 05:58:00 BASE 14.09 329 16.77 332 -1.0 100 -1.0 0 0 991.2 NA 0.0000 9999 590 0 0 0
2019/10/23 05:59:00 BASE 15.19 328 16.77 332 -1.0 100 -1.0 0 0 991.2 NA 0.0000 9999 590 0 0 0
2019/10/23 06:00:00 BASE 14.84 329 16.77 332 -1.0 100 -1.0 0 0 991.3 NA 0.0000 9999 590 0 0 0
2019/10/23 06:01:00 BASE 14.47 331 16.77 332 -1.0 100 -1.0 0 0 991.3 NA 0.0000 9999 590 0 0 0
2019/10/23 06:02:00 BASE 14.74 332 16.77 332 -1.0 100 -1.0 0 0 991.3 NA 0.0000 9999 520 0 0 0
2019/10/23 06:03:00 BASE 15.29 329 16.77 332 -1.1 100 -1.1 0 0 991.3 NA 0.0000 9999 560 0 0 0
2019/10/23 06:04:00 BASE 15.59 326 16.77 332 -1.1 100 -1.1 0 0 991.3 NA 0.0000 9999 560 0 0 0
2019/10/23 06:05:00 BASE 16.67 328 19.34 326 -1.1 100 -1.1 0 0 991.2 NA 0.0000 9999 520 0 0 0
2019/10/23 06:06:00 BASE 18.03 330 19.34 326 -1.1 100 -1.1 0 0 991.2 NA 0.0000 9999 560 0 0 0
2019/10/23 06:07:00 BASE 18.06 329 19.34 326 -1.1 100 -1.1 0 0 991.3 NA 0.0000 9999 520 0 0 0
2019/10/23 06:08:00 BASE 17.43 326 19.34 326 -1.2 100 -1.2 0 0 991.3 NA 0.0000 9999 490 0 0 0
2019/10/23 06:09:00 BASE 16.26 322 19.34 326 -1.2 100 -1.2 0 0 991.4 NA 0.0000 9999 520 0 0 0
2019/10/23 06:10:00 BASE 15.60 322 19.34 326 -1.2 100 -1.2 0 0 991.5 NA 0.0000 9999 490 0 0 0
2019/10/23 06:11:00 BASE 16.37 321 19.34 326 -1.2 100 -1.2 0 0 991.4 NA 0.0000 9999 490 0 0 0
2019/10/23 06:12:00 BASE 16.87 318 19.34 326 -1.2 100 -1.2 0 0 991.5 NA 0.0000 9999 460 0 0 0
2019/10/23 06:13:00 BASE 16.76 316 19.34 326 -1.3 100 -1.3 0 0 991.5 NA 0.0000 9999 430 0 0 0
2019/10/23 06:14:00 BASE 16.46 316 19.34 326 -1.3 100 -1.3 0 0 991.6 NA 0.0000 9999 430 0 0 0
2019/10/23 06:15:00 BASE 16.50 316 19.24 329 -1.3 100 -1.3 0 0 991.5 NA 0.0000 9999 390 0 0 0
2019/10/23 06:16:00 BASE 17.22 313 19.24 329 -1.4 100 -1.4 0 0 991.5 NA 0.0000 9999 360 0 0 0
2019/10/23 06:17:00 BASE 17.12 312 18.88 317 -1.4 100 -1.4 0 0 991.6 NA 0.0000 9999 430 0 0 0
2019/10/23 06:18:00 BASE 16.81 312 18.88 317 -1.5 100 -1.5 0 0 991.6 NA 0.0000 9999 430 0 0 0
2019/10/23 06:19:00 BASE 16.84 312 18.88 317 -1.5 100 -1.5 0 0 991.6 NA 0.0000 9999 390 0 0 0
2019/10/23 06:20:00 BASE 16.91 312 18.88 317 -1.5 100 -1.5 0 0 991.6 NA 0.0000 9999 360 0 0 0
2019/10/23 06:21:00 BASE 16.46 313 18.78 307 -1.5 100 -1.5 0 0 991.7 NA 0.0000 9999 390 0 0 0
2019/10/23 06:22:00 BASE 15.97 315 18.78 307 -1.5 100 -1.5 0 0 991.7 NA 0.0000 9999 390 0 0 0
2019/10/23 06:23:00 BASE 16.18 317 18.78 307 -1.5 100 -1.5 0 0 991.7 NA 0.0000 9999 360 0 0 0
2019/10/23 06:24:00 BASE 16.57 317 18.78 307 -1.5 100 -1.5 0 0 991.7 NA 0.0000 9999 360 0 0 0
2019/10/23 06:25:00 BASE 15.91 317 18.78 307 -1.5 100 -1.5 0 0 991.8 NA 0.0000 9999 360 0 0 0
2019/10/23 06:26:00 BASE 15.34 317 18.78 307 -1.6 100 -1.6 0 0 991.8 NA 0.0000 9999 360 0 0 0
2019/10/23 06:27:00 BASE 14.63 318 18.11 313 -1.6 100 -1.6 0 0 991.9 NA 0.0000 9999 360 0 0 0
2019/10/23 06:28:00 BASE 14.05 321 18.11 313 -1.6 100 -1.6 0 0 991.8 NA 0.0000 9999 360 0 0 0
2019/10/23 06:29:00 BASE 15.06 323 18.06 316 -1.6 100 -1.6 0 0 991.8 NA 0.0000 9999 360 0 0 0
2019/10/23 06:30:00 BASE 15.32 324 18.06 316 -1.6 100 -1.6 0 0 991.9 NA 0.0000 9999 360 0 0 0
2019/10/23 06:31:00 BASE 14.85 323 18.06 316 -1.6 100 -1.6 0 0 991.9 NA 0.0000 9999 360 0 0 0
2019/10/23 06:32:00 BASE 14.20 323 18.06 316 -1.6 100 -1.6 0 0 992.0 NA 0.0000 9999 330 0 0 0
2019/10/23 06:33:00 BASE 13.87 324 18.06 316 -1.6 100 -1.6 0 0 992.0 NA 0.0000 9999 360 0 0 0
2019/10/23 06:34:00 BASE 14.10 325 16.82 327 -1.6 100 -1.6 0 0 992.0 NA 0.0000 9999 360 0 0 0
2019/10/23 06:35:00 BASE 13.65 325 16.82 327 -1.6 100 -1.6 0 0 992.0 NA 0.0000 9999 360 0 0 0
2019/10/23 06:36:00 BASE 13.10 323 16.82 327 -1.6 100 -1.6 0 0 992.1 NA 0.0000 9999 390 0 0 0
2019/10/23 06:37:00 BASE 12.96 322 16.82 327 -1.6 100 -1.6 0 0 992.1 NA 0.0000 9999 390 0 0 0
2019/10/23 06:38:00 BASE 12.73 324 16.82 327 -1.6 100 -1.6 0 0 992.1 NA 0.0000 9999 360 0 0 0
2019/10/23 06:39:00 BASE 12.83 326 15.74 324 -1.6 100 -1.6 0 0 992.1 NA 0.0000 9999 390 0 0 0
2019/10/23 06:40:00 BASE 13.57 326 15.69 322 -1.6 100 -1.6 0 0 992.1 NA 0.0000 9999 360 0 0 0
2019/10/23 06:41:00 BASE 13.29 325 15.59 321 -1.6 100 -1.6 0 0 992.1 NA 0.0000 9999 360 0 0 0
2019/10/23 06:42:00 BASE 12.12 326 15.59 321 -1.6 100 -1.6 0 0 992.2 NA 0.0000 9999 360 0 0 0
2019/10/23 06:43:00 BASE 11.97 325 15.59 321 -1.6 100 -1.6 0 0 992.2 NA 0.0000 9999 390 0 0 0
2019/10/23 06:44:00 BASE 12.18 322 15.07 326 -1.6 100 -1.6 0 0 992.2 NA 0.0000 9999 390 0 0 0
2019/10/23 06:45:00 BASE 12.09 321 15.07 326 -1.6 100 -1.6 0 0 992.2 NA 0.0000 9999 360 0 0 0
2019/10/23 06:46:00 BASE 12.10 322 15.07 326 -1.6 100 -1.6 0 0 992.3 NA 0.0000 9999 390 0 0 0
2019/10/23 06:47:00 BASE 12.34 322 15.07 326 -1.6 100 -1.6 0 0 992.3 NA 0.0000 9999 390 0 0 0
2019/10/23 06:48:00 BASE 11.96 319 15.07 326 -1.6 100 -1.6 0 0 992.3 NA 0.0000 9999 360 0 0 0
2019/10/23 06:49:00 BASE 11.48 315 15.07 326 -1.6 100 -1.6 0 0 992.4 NA 0.0000 9999 390 0 0 0
2019/10/23 06:50:01 BASE 11.63 313 13.38 320 -1.6 100 -1.6 0 0 992.4 NA 0.0000 9999 390 0 0 0
2019/10/23 06:51:00 BASE 11.99 312 13.38 320 -1.6 100 -1.6 0 0 992.4 NA 0.0000 9999 360 0 0 0
2019/10/23 06:52:00 BASE 12.28 312 13.38 320 -1.6 100 -1.6 0 0 992.4 NA 0.0000 9999 430 0 0 0
2019/10/23 06:53:00 BASE 12.56 312 13.94 312 -1.7 100 -1.7 0 0 992.4 NA 0.0000 9999 490 0 0 0
2019/10/23 06:54:01 BASE 12.81 313 13.94 314 -1.7 100 -1.7 0 0 992.4 NA 0.0000 9999 490 0 0 0
2019/10/23 06:55:00 BASE 13.14 313 14.30 308 -1.7 100 -1.7 0 0 992.4 NA 0.0000 9999 490 0 0 0
2019/10/23 06:56:00 BASE 13.35 310 14.30 308 -1.7 100 -1.7 0 0 992.5 NA 0.0000 9999 460 0 0 0
2019/10/23 06:57:00 BASE 12.78 308 14.30 308 -1.7 100 -1.7 0 0 992.5 NA 0.0000 9999 460 0 0 0
2019/10/23 06:58:00 BASE 12.34 307 14.30 308 -1.8 100 -1.8 0 0 992.6 NA 0.0000 9999 520 0 0 0
2019/10/23 06:59:00 BASE 13.02 307 14.51 303 -1.8 100 -1.8 0 0 992.5 NA 0.0000 9999 490 0 0 0
2019/10/23 07:00:00 BASE 13.59 306 14.82 305 -1.8 100 -1.8 0 0 992.6 NA 0.0000 9999 520 0 0 0
2019/10/23 07:01:01 BASE 13.10 305 14.82 305 -1.8 100 -1.8 0 0 992.6 NA 0.0000 9999 560 0 0 0
2019/10/23 07:02:00 BASE 12.12 303 14.82 305 -1.9 100 -1.9 0 0 992.7 NA 0.0000 9999 560 0 0 0
2019/10/23 07:03:00 BASE 11.09 302 14.82 305 -1.9 100 -1.9 0 0 992.7 NA 0.0000 9999 590 0 0 0
2019/10/23 07:04:00 BASE 10.65 300 14.82 305 -1.9 100 -1.9 0 0 992.8 NA 0.0000 9999 620 0 0 0
2019/10/23 07:05:00 BASE 10.92 301 14.82 305 -1.9 100 -1.9 0 0 992.8 NA 0.0000 9999 750 0 0 0
2019/10/23 07:06:00 BASE 11.71 302 14.82 305 -1.9 100 -1.9 0 0 992.8 NA 0.0000 9999 690 0 0 0
2019/10/23 07:07:00 BASE 12.41 306 14.82 305 -2.0 100 -2.0 0 0 992.8 NA 0.0000 9999 750 0 0 0
2019/10/23 07:08:00 BASE 12.42 310 14.82 305 -2.0 100 -2.0 0 0 992.8 NA 0.0000 9999 660 0 0 0
2019/10/23 07:09:01 BASE 11.87 313 14.82 305 -2.0 100 -2.0 0 0 992.8 NA 0.0000 9999 720 0 0 0
2019/10/23 07:10:00 BASE 11.86 315 13.68 309 -2.0 100 -2.0 0 0 992.8 NA 0.0000 9999 660 0 0 0
2019/10/23 07:11:00 BASE 11.75 315 13.68 309 -2.0 100 -2.0 0 0 992.8 NA 0.0000 9999 690 0 0 0
2019/10/23 07:12:00 BASE 11.27 313 13.68 309 -2.0 100 -2.0 0 0 992.9 NA 0.0000 9999 820 0 0 0
2019/10/23 07:13:00 BASE 11.09 312 13.68 309 -2.0 100 -2.0 0 0 992.9 NA 0.0000 9999 820 0 0 0
2019/10/23 07:14:00 BASE 11.26 311 13.68 309 -2.0 100 -2.0 0 0 992.9 NA 0.0000 9999 690 0 0 0
2019/10/23 07:15:00 BASE 11.67 311 13.68 309 -2.0 100 -2.0 0 0 992.9 NA 0.0000 9999 850 0 0 0
2019/10/23 07:16:01 BASE 11.57 315 13.68 309 -2.0 100 -2.0 0 0 992.9 NA 0.0000 9999 850 0 0 0
2019/10/23 07:17:01 BASE 10.92 321 13.38 312 -2.0 100 -2.0 0 0 992.9 NA 0.0000 9999 850 0 0 0
2019/10/23 07:18:01 BASE 10.71 328 12.96 315 -2.0 100 -2.0 0 0 992.9 NA 0.0000 9999 850 0 0 0
2019/10/23 07:19:00 BASE 10.66 331 12.96 315 -2.0 100 -2.0 0 0 992.9 NA 0.0000 9999 920 0 0 0
2019/10/23 07:20:00 BASE 10.77 331 12.60 312 -2.0 100 -2.0 0 0 992.9 NA 0.0000 9999 890 0 0 0
2019/10/23 07:21:00 BASE 11.69 332 12.60 334 -2.0 100 -2.0 0 0 992.9 NA 0.0000 9999 790 0 0 0
2019/10/23 07:22:00 BASE 12.17 332 12.81 334 -2.0 100 -2.0 0 0 992.9 NA 0.0000 9999 850 0 0 0
2019/10/23 07:23:00 BASE 11.62 332 12.81 334 -2.0 100 -2.0 0 0 992.9 NA 0.0000 9999 890 0 0 0
2019/10/23 07:24:01 BASE 11.49 332 12.81 333 -2.0 100 -2.0 0 0 992.9 NA 0.0000 9999 790 0 0 0
2019/10/23 07:25:00 BASE 11.76 331 12.81 333 -2.0 100 -2.0 0 0 993.0 NA 0.0000 9999 660 0 0 0
2019/10/23 07:26:00 BASE 11.34 336 12.81 333 -2.0 100 -2.0 0 0 993.0 NA 0.0000 9999 950 0 0 0
2019/10/23 07:27:00 BASE 11.78 342 13.17 343 -2.0 100 -2.0 0 0 992.9 NA 0.0000 9999 1020 0 0 0
2019/10/23 07:28:00 BASE 12.63 343 13.22 343 -2.0 100 -2.0 0 0 992.9 NA 0.0000 9999 950 0 0 0
2019/10/23 07:29:00 BASE 12.55 345 13.22 343 -2.0 100 -2.0 0 0 992.9 NA 0.0000 9999 950 0 0 0
2019/10/23 07:30:00 BASE 11.61 348 13.22 343 -2.0 100 -2.0 0 0 993.0 NA 0.0000 9999 980 0 0 0
2019/10/23 07:31:00 BASE 11.06 351 13.22 343 -2.1 100 -2.1 0 0 993.0 NA 0.0000 9999 1020 0 0 0
2019/10/23 07:32:00 BASE 11.14 349 13.22 343 -2.1 100 -2.1 0 0 993.0 NA 0.0000 9999 950 0 0 0
2019/10/23 07:33:00 BASE 11.21 347 13.22 343 -2.1 100 -2.1 0 0 993.0 NA 0.0000 9999 920 0 0 0
2019/10/23 07:34:00 BASE 11.29 349 13.22 343 -2.1 100 -2.1 0 0 993.0 NA 0.0000 9999 980 0 0 0
2019/10/23 07:35:00 BASE 10.76 351 13.22 343 -2.1 100 -2.1 0 0 993.1 NA 0.0000 9999 1050 0 0 0
2019/10/23 07:36:00 BASE 10.36 350 13.22 343 -2.1 100 -2.1 0 0 993.2 NA 0.0000 9999 1020 0 0 0
2019/10/23 07:37:01 BASE 10.32 349 13.22 343 -2.1 100 -2.1 0 0 993.2 NA 0.0000 9999 920 0 0 0
2019/10/23 07:38:01 BASE 10.98 348 13.12 341 -2.0 100 -2.0 0 0 993.1 NA 0.0000 9999 890 0 0 0
2019/10/23 07:39:01 BASE 11.30 346 13.12 341 -2.0 100 -2.0 0 0 993.2 NA 0.0000 9999 920 0 0 0
2019/10/23 07:40:00 BASE 10.92 343 13.12 341 -2.0 100 -2.0 0 0 993.2 NA 0.0000 9999 920 0 0 0
2019/10/23 07:41:00 BASE 11.33 342 13.12 350 -2.0 100 -2.0 0 0 993.2 NA 0.0000 9999 890 0 0 0
2019/10/23 07:42:00 BASE 10.98 344 13.12 350 -1.9 100 -1.9 0 0 993.2 NA 0.0000 9999 920 0 0 0
2019/10/23 07:43:00 BASE 10.02 346 13.12 350 -1.9 100 -1.9 0 0 993.3 NA 0.0000 9999 920 0 0 0
2019/10/23 07:44:00 BASE 9.84 350 13.12 350 -1.9 100 -1.9 0 0 993.2 NA 0.0000 9999 850 0 0 0
2019/10/23 07:45:00 BASE 9.96 352 13.12 350 -1.9 100 -1.9 0 0 993.2 NA 0.0000 9999 890 0 0 0
2019/10/23 07:46:00 BASE 10.27 348 13.12 350 -1.9 100 -1.9 0 0 993.2 NA 0.0000 9999 890 0 0 0
2019/10/23 07:47:00 BASE 10.35 347 13.12 350 -1.9 100 -1.9 0 0 993.2 NA 0.0000 9999 920 0 0 0
2019/10/23 07:48:00 BASE 10.56 347 13.12 350 -1.9 100 -1.9 0 0 993.2 NA 0.0000 9999 920 0 0 0
2019/10/23 07:49:00 BASE 11.35 346 13.12 350 -1.8 100 -1.8 0 0 993.2 NA 0.0000 9999 920 0 0 0
2019/10/23 07:50:00 BASE 11.46 345 13.12 350 -1.8 100 -1.8 0 0 993.2 NA 0.0000 9999 920 0 0 0
2019/10/23 07:51:00 BASE 11.50 345 12.81 342 -1.8 100 -1.8 0 0 993.3 NA 0.0000 9999 920 0 0 0
2019/10/23 07:52:00 BASE 11.91 345 12.81 342 -1.8 100 -1.8 0 0 993.3 NA 0.0000 9999 890 0 0 0
2019/10/23 07:53:00 BASE 11.83 338 13.12 334 -1.8 100 -1.8 0 0 993.3 NA 0.0000 9999 890 0 0 0
2019/10/23 07:54:00 BASE 11.09 328 13.12 334 -1.8 100 -1.8 1 0 993.4 NA 0.0000 9999 890 0 0 0
2019/10/23 07:55:00 BASE 10.38 322 13.12 334 -1.8 100 -1.8 1 0 993.4 NA 0.0000 9999 1020 0 0 0
2019/10/23 07:56:00 BASE 9.96 322 13.12 334 -1.8 100 -1.8 1 0 993.5 NA 0.0000 9999 890 0 0 0
2019/10/23 07:57:00 BASE 10.09 327 13.12 334 -1.8 100 -1.8 1 0 993.4 NA 0.0000 9999 920 0 0 0
2019/10/23 07:58:00 BASE 10.80 327 13.12 334 -1.7 100 -1.7 1 0 993.5 NA 0.0000 9999 890 0 0 0
2019/10/23 07:59:00 BASE 11.45 325 13.84 333 -1.7 100 -1.7 1 0 993.4 NA 0.0000 9999 890 0 0 0
2019/10/23 08:00:00 BASE 12.36 329 14.46 320 -1.7 100 -1.7 1 0 993.4 NA 0.0000 9999 920 0 0 0
2019/10/23 08:01:00 BASE 12.38 322 14.46 320 -1.7 100 -1.7 1 0 993.4 NA 0.0000 9999 890 0 0 0
2019/10/23 08:02:00 BASE 11.19 319 14.46 320 -1.7 100 -1.7 1 0 993.5 NA 0.0000 9999 890 0 0 0
2019/10/23 08:03:00 BASE 11.27 325 14.46 320 -1.7 100 -1.7 2 0 993.4 NA 0.0000 9999 920 0 0 0
2019/10/23 08:04:00 BASE 11.68 330 14.46 320 -1.7 100 -1.7 2 0 993.5 NA 0.0000 9999 950 0 0 0
2019/10/23 08:05:00 BASE 11.03 333 14.46 320 -1.7 100 -1.7 2 0 993.5 NA 0.0000 9999 890 0 0 0
2019/10/23 08:06:00 BASE 11.45 335 14.46 320 -1.7 100 -1.7 2 0 993.5 NA 0.0000 9999 920 0 0 0
2019/10/23 08:07:00 BASE 11.78 335 14.46 320 -1.7 100 -1.7 2 0 993.5 NA 0.0000 9999 980 0 0 0
2019/10/23 08:08:00 BASE 11.34 335 14.46 320 -1.7 100 -1.7 2 0 993.5 NA 0.0000 9999 1210 0 0 0
2019/10/23 08:09:00 BASE 11.10 339 14.46 320 -1.8 100 -1.8 2 0 993.5 NA 0.0000 9999 1250 0 0 0
2019/10/23 08:10:00 BASE 10.27 340 13.89 329 -1.8 100 -1.8 2 0 993.5 NA 0.0000 9999 0 0 0 0
2019/10/23 08:11:00 BASE 10.00 338 13.12 335 -1.8 100 -1.8 3 0 993.5 NA 0.0000 9999 0 0 0 660
2019/10/23 08:12:00 BASE 10.24 335 13.12 335 -1.8 100 -1.8 3 0 993.5 NA 0.0000 9999 0 0 0 0
2019/10/23 08:13:00 BASE 10.36 336 13.12 335 -1.8 100 -1.8 3 0 993.5 NA 0.0000 9999 0 0 0 0
2019/10/23 08:14:00 BASE 10.79 336 13.12 335 -1.8 100 -1.8 3 0 993.5 NA 0.0000 9999 1280 0 0 0
2019/10/23 08:15:00 BASE 10.99 334 13.12 335 -1.8 100 -1.8 3 0 993.5 NA 0.0000 9999 0 0 0 0
2019/10/23 08:16:00 BASE 11.11 335 12.35 331 -1.9 100 -1.9 3 0 993.5 NA 0.0000 9999 0 0 0 0
2019/10/23 08:17:00 BASE 11.29 337 12.19 342 -1.9 100 -1.9 4 0 993.6 NA 0.0000 9999 0 0 0 1610
2019/10/23 08:18:01 BASE 11.69 338 12.71 331 -1.9 100 -1.9 4 0 993.6 NA 0.0000 9999 1410 0 0 0
2019/10/23 08:19:01 BASE 11.72 334 13.02 327 -1.9 100 -1.9 4 0 993.6 NA 0.0000 9999 1020 0 0 0
2019/10/23 08:20:00 BASE 11.89 332 13.17 337 -1.9 100 -1.9 4 0 993.6 NA 0.0000 9999 0 0 0 1050
2019/10/23 08:21:00 BASE 11.85 335 13.17 337 -1.9 100 -1.9 4 0 993.6 NA 0.0000 9999 0 0 0 1150
2019/10/23 08:22:00 BASE 11.44 334 13.17 337 -1.9 100 -1.9 4 0 993.6 NA 0.0000 9999 920 0 0 0
2019/10/23 08:23:00 BASE 11.95 332 13.17 337 -1.9 100 -1.9 4 0 993.6 NA 0.0000 9999 1280 0 0 0
2019/10/23 08:24:00 BASE 12.09 331 13.17 337 -1.9 100 -1.9 5 0 993.6 NA 0.0000 9999 980 0 0 0
2019/10/23 08:25:00 BASE 12.30 330 13.27 325 -1.9 100 -1.9 5 0 993.6 NA 0.0000 9999 890 0 0 0
2019/10/23 08:26:00 BASE 12.90 328 14.35 323 -1.9 100 -1.9 5 0 993.6 NA 0.0000 9999 0 0 0 1020
2019/10/23 08:27:00 BASE 12.35 327 14.35 323 -1.9 100 -1.9 6 0 993.7 NA 0.0000 9999 1210 0 0 0
2019/10/23 08:28:00 BASE 12.36 329 14.82 321 -1.9 100 -1.9 5 0 993.7 NA 0.0000 9999 890 0 0 0
2019/10/23 08:29:00 BASE 13.34 325 14.97 321 -1.9 100 -1.9 5 0 993.7 NA 0.0000 9999 850 0 0 0
2019/10/23 08:30:00 BASE 12.80 323 14.97 321 -1.9 100 -1.9 6 0 993.8 NA 0.0000 9999 0 0 0 1120
2019/10/23 08:31:00 BASE 11.48 325 14.97 321 -1.8 100 -1.8 6 0 993.8 NA 0.0000 9999 1480 0 0 0
2019/10/23 08:32:00 BASE 11.11 325 14.97 321 -1.9 100 -1.9 6 0 993.9 NA 0.0000 9999 1210 0 0 0
2019/10/23 08:33:00 BASE 11.02 327 14.97 321 -1.9 100 -1.9 6 0 993.9 NA 0.0000 9999 950 0 0 0
2019/10/23 08:34:00 BASE 11.30 329 14.97 321 -1.9 100 -1.9 6 0 993.8 NA 0.0000 9999 1150 0 0 0
2019/10/23 08:35:00 BASE 10.94 326 14.97 321 -1.9 100 -1.9 6 0 993.9 NA 0.0000 9999 950 0 0 0
2019/10/23 08:36:00 BASE 9.89 324 14.97 321 -1.9 100 -1.9 7 0 994.0 NA 0.0000 9999 1020 0 0 0
2019/10/23 08:37:00 BASE 9.77 329 14.97 321 -1.9 100 -1.9 7 0 993.9 NA 0.0000 9999 1020 0 0 0
2019/10/23 08:38:00 BASE 10.23 331 14.97 321 -1.9 100 -1.9 7 0 994.0 NA 0.0000 9999 0 0 0 0
2019/10/23 08:39:00 BASE 10.35 331 13.02 321 -1.9 100 -1.9 8 0 994.0 NA 0.0000 9999 1120 0 0 0
2019/10/23 08:40:00 BASE 10.30 330 12.35 326 -1.9 100 -1.9 8 0 994.0 NA 0.0000 9999 980 0 0 0
2019/10/23 08:41:00 BASE 10.18 330 12.35 326 -2.0 100 -2.0 8 0 994.0 NA 0.0000 9999 1050 0 0 0
2019/10/23 08:42:00 BASE 10.24 332 12.35 326 -2.0 100 -2.0 8 0 994.0 NA 0.0000 9999 1120 0 0 0
2019/10/23 08:43:00 BASE 10.76 335 12.35 326 -2.0 100 -2.0 8 0 994.0 NA 0.0000 9999 1150 6860 0 0
2019/10/23 08:44:00 BASE 11.95 332 14.04 326 -2.0 100 -2.0 9 0 993.9 NA 0.0000 9999 6820 0 0 0
2019/10/23 08:45:00 BASE 12.86 327 14.04 326 -2.0 100 -2.0 9 0 994.0 NA 0.0000 9999 1280 6990 0 0
2019/10/23 08:46:00 BASE 12.74 325 14.04 326 -2.0 100 -2.0 10 0 994.0 NA 0.0000 9999 6860 0 0 0
2019/10/23 08:47:00 BASE 12.32 326 14.04 326 -2.0 100 -2.0 11 0 994.0 NA 0.0000 9999 6860 0 0 0
2019/10/23 08:48:00 BASE 11.89 328 14.04 326 -1.9 100 -1.9 13 0 994.1 NA 0.0000 9999 6820 0 0 0
2019/10/23 08:49:00 BASE 11.76 329 14.04 326 -1.9 100 -1.9 15 0 994.1 NA 0.0000 9999 6860 0 0 0
2019/10/23 08:50:00 BASE 11.56 327 14.04 326 -1.9 100 -1.9 17 0 994.1 NA 0.0000 9999 1280 6920 0 0
2019/10/23 08:51:00 BASE 11.21 325 14.04 326 -1.9 100 -1.9 20 0 994.2 NA 0.0000 9999 6890 0 0 0
2019/10/23 08:52:00 BASE 11.62 322 14.04 326 -1.9 100 -1.9 23 0 994.2 NA 0.0000 9999 1350 6890 0 0
2019/10/23 08:53:00 BASE 12.08 323 14.04 326 -1.9 100 -1.9 24 0 994.2 NA 0.0000 9999 6860 0 0 0
2019/10/23 08:54:00 BASE 11.31 325 13.84 322 -1.9 100 -1.9 23 0 994.2 NA 0.0000 9999 1210 6890 0 0
2019/10/23 08:55:00 BASE 10.91 325 13.84 322 -1.9 100 -1.9 23 0 994.3 NA 0.0000 9999 6890 0 0 0
2019/10/23 08:56:00 BASE 10.71 325 13.84 322 -1.9 100 -1.9 22 0 994.3 NA 0.0000 9999 1180 6990 0 0
2019/10/23 08:57:00 BASE 11.19 323 13.63 321 -1.9 100 -1.9 22 0 994.3 NA 0.0000 9999 1050 0 0 0
2019/10/23 08:58:01 BASE 11.63 322 13.32 320 -1.9 100 -1.9 26 0 994.3 NA 0.0000 9999 1050 6820 0 0
2019/10/23 08:59:00 BASE 11.08 321 13.32 320 -1.9 100 -1.9 28 0 994.4 NA 0.0000 9999 1180 6920 0 0
2019/10/23 09:00:00 BASE 10.26 320 13.32 320 -1.9 100 -1.9 28 0 994.5 NA 0.0000 9999 1150 6890 0 0
2019/10/23 09:01:00 BASE 10.22 322 13.22 317 -1.9 100 -1.9 28 0 994.4 NA 0.0000 9999 6820 0 0 0
2019/10/23 09:02:00 BASE 11.07 323 13.02 328 -1.9 100 -1.9 29 0 994.4 NA 0.0000 9999 6760 0 0 0
2019/10/23 09:03:00 BASE 11.61 322 13.17 312 -1.9 100 -1.9 30 0 994.4 NA 0.0000 9999 6760 0 0 0
2019/10/23 09:04:00 BASE 11.81 322 13.17 312 -1.9 100 -1.9 29 0 994.5 NA 0.0000 9999 6760 0 0 0
2019/10/23 09:05:00 BASE 11.29 323 13.17 312 -1.9 100 -1.9 29 0 994.5 NA 0.0000 9999 1150 6860 0 0
2019/10/23 09:06:00 BASE 11.29 323 13.17 312 -1.9 100 -1.9 28 0 994.5 NA 0.0000 9999 1080 6730 0 0
2019/10/23 09:07:00 BASE 11.59 319 13.17 312 -1.9 100 -1.9 28 0 994.5 NA 0.0000 9999 6760 7190 0 0
2019/10/23 09:08:00 BASE 10.64 314 13.17 312 -1.9 100 -1.9 28 0 994.6 NA 0.0000 9999 1150 6790 0 0
2019/10/23 09:09:00 BASE 10.47 313 13.17 312 -1.9 100 -1.9 28 0 994.6 NA 0.0000 9999 6660 7120 0 0
2019/10/23 09:10:00 BASE 11.45 314 13.17 312 -1.9 100 -1.9 27 0 994.6 NA 0.0000 9999 1410 6690 0 0
2019/10/23 09:11:00 BASE 11.41 312 13.17 312 -1.9 100 -1.9 26 0 994.7 NA 0.0000 9999 1250 0 0 0
2019/10/23 09:12:00 BASE 10.78 315 13.17 312 -1.9 100 -1.9 26 0 994.7 NA 0.0000 9999 1250 6730 0 0
2019/10/23 09:13:00 BASE 10.66 320 13.17 312 -1.9 100 -1.9 27 0 994.7 NA 0.0000 9999 6660 0 0 0
2019/10/23 09:14:00 BASE 10.57 322 12.71 304 -1.9 100 -1.9 26 0 994.7 NA 0.0000 9999 6370 0 0 0
2019/10/23 09:15:00 BASE 10.43 322 12.71 304 -1.9 100 -1.9 25 0 994.7 NA 0.0000 9999 6230 6960 0 0
2019/10/23 09:16:00 BASE 10.81 321 12.71 304 -1.9 100 -1.9 24 0 994.7 NA 0.0000 9999 7050 0 0 0
2019/10/23 09:17:00 BASE 11.18 321 12.71 304 -2.0 100 -2.0 23 0 994.7 NA 0.0000 9999 0 0 0 750
2019/10/23 09:18:00 BASE 10.85 323 12.71 304 -2.0 100 -2.0 22 0 994.7 NA 0.0000 9999 0 0 0 520
2019/10/23 09:19:00 BASE 10.64 324 12.55 312 -2.0 100 -2.0 21 0 994.7 NA 0.0000 9999 0 0 0 0
2019/10/23 09:20:00 BASE 10.69 323 11.94 312 -2.0 100 -2.0 19 0 994.7 NA 0.0000 9999 0 0 0 520
2019/10/23 09:21:00 BASE 10.27 323 11.83 323 -2.0 100 -2.0 19 0 994.7 NA 0.0000 9999 0 0 0 560
2019/10/23 09:22:00 BASE 9.70 326 11.83 323 -2.0 100 -2.0 19 0 994.8 NA 0.0000 9999 0 0 0 490
2019/10/23 09:23:00 BASE 9.37 327 11.83 323 -2.1 100 -2.1 20 0 994.8 NA 0.0000 9999 0 0 0 490
2019/10/23 09:24:00 BASE 9.40 326 11.83 323 -2.1 100 -2.1 21 0 994.8 NA 0.0000 9999 0 0 0 590
2019/10/23 09:25:00 BASE 9.72 323 11.83 323 -2.1 100 -2.1 22 0 994.8 NA 0.0000 9999 0 0 0 590
2019/10/23 09:26:01 BASE 9.76 323 11.83 323 -2.1 100 -2.1 24 0 994.9 NA 0.0000 9999 0 0 0 620
2019/10/23 09:27:01 BASE 9.66 325 11.83 323 -2.1 100 -2.1 26 0 994.9 NA 0.0000 9999 0 0 0 520
2019/10/23 09:28:01 BASE 9.90 326 11.83 323 -2.1 100 -2.1 28 0 994.9 NA 0.0000 9999 0 0 0 560
2019/10/23 09:29:01 BASE 9.72 326 11.06 316 -2.1 100 -2.1 33 0 994.9 NA 0.0000 9999 0 0 0 560
2019/10/23 09:30:01 BASE 9.86 327 10.91 322 -2.1 100 -2.1 42 0 994.9 NA 0.0000 9999 0 0 0 520
2019/10/23 09:31:01 BASE 10.48 327 11.47 327 -2.1 100 -2.1 57 0 994.9 NA 0.0000 9999 6200 0 0 0
2019/10/23 09:32:01 BASE 10.54 328 11.47 327 -2.1 100 -2.1 72 0 994.9 NA 0.0000 9999 6370 7190 0 0
2019/10/23 09:33:01 BASE 10.34 328 11.47 327 -2.1 100 -2.1 80 0 995.0 NA 0.0000 9999 6430 0 0 0
2019/10/23 09:34:01 BASE 10.40 327 11.47 327 -2.1 100 -2.1 81 0 995.0 NA 0.0000 9999 6400 0 0 0
2019/10/23 09:35:01 BASE 10.38 327 11.47 327 -2.1 100 -2.1 75 0 995.0 NA 0.0000 9999 6430 0 0 0
2019/10/23 09:36:01 BASE 10.40 326 11.47 327 -2.1 100 -2.1 67 0 995.0 NA 0.0000 9999 6460 0 0 0
2019/10/23 09:37:01 BASE 10.73 326 11.68 323 -2.1 100 -2.1 59 0 995.0 NA 0.0000 9999 6430 0 0 0
2019/10/23 09:38:01 BASE 10.49 327 11.68 323 -2.1 100 -2.1 53 0 995.1 NA 0.0000 9999 6530 0 0 0
2019/10/23 09:39:01 BASE 10.47 326 11.68 323 -2.1 100 -2.1 49 0 995.0 NA 0.0000 9999 6500 0 0 0
2019/10/23 09:40:01 BASE 10.43 325 11.68 323 -2.1 100 -2.1 46 0 995.1 NA 0.0000 9999 6690 0 0 0
2019/10/23 09:41:00 BASE 10.12 325 11.68 323 -2.1 100 -2.1 43 0 995.1 NA 0.0000 9999 6630 0 0 0
2019/10/23 09:42:01 BASE 10.28 326 11.68 323 -2.1 100 -2.1 40 0 995.1 NA 0.0000 9999 6590 0 0 0
2019/10/23 09:43:00 BASE 10.31 325 11.68 323 -2.1 100 -2.1 40 0 995.1 NA 0.0000 9999 6560 0 0 0
2019/10/23 09:44:00 BASE 10.33 324 11.68 323 -2.1 100 -2.1 39 0 995.1 NA 0.0000 9999 0 0 0 690
2019/10/23 09:45:00 BASE 10.23 325 11.68 323 -2.2 100 -2.2 40 0 995.1 NA 0.0000 9999 7250 0 0 0
2019/10/23 09:46:00 BASE 10.23 326 11.68 323 -2.2 100 -2.2 40 0 995.1 NA 0.0000 9999 7050 0 0 0
2019/10/23 09:47:00 BASE 10.06 324 11.42 321 -2.2 100 -2.2 39 0 995.2 NA 0.0000 9999 7050 0 0 0
2019/10/23 09:48:00 BASE 9.76 324 11.42 321 -2.2 100 -2.2 40 0 995.2 NA 0.0000 9999 0 0 0 1050
2019/10/23 09:49:00 BASE 9.59 324 11.27 315 -2.2 100 -2.2 40 0 995.2 NA 0.0000 9999 0 0 0 920
2019/10/23 09:50:00 BASE 9.29 322 11.27 315 -2.3 100 -2.3 41 0 995.2 NA 0.0000 9999 0 0 0 920
2019/10/23 09:51:00 BASE 8.98 321 11.27 315 -2.3 100 -2.3 38 0 995.2 NA 0.0000 9999 0 0 0 1050
2019/10/23 09:52:00 BASE 8.86 323 11.27 315 -2.3 100 -2.3 35 0 995.2 NA 0.0000 9999 0 0 0 790
2019/10/23 09:53:00 BASE 8.77 322 11.06 329 -2.3 100 -2.3 33 0 995.2 NA 0.0000 9999 0 0 0 750
2019/10/23 09:54:00 BASE 8.43 320 11.06 329 -2.3 100 -2.3 32 0 995.3 NA 0.0000 9999 0 0 0 850
2019/10/23 09:55:00 BASE 8.20 322 11.01 329 -2.4 100 -2.4 32 0 995.3 NA 0.0000 9999 0 0 0 750
2019/10/23 09:56:00 BASE 8.43 322 10.60 326 -2.4 100 -2.4 32 0 995.3 NA 0.0000 9999 0 0 0 720
2019/10/23 09:57:00 BASE 8.28 323 10.44 315 -2.4 100 -2.4 33 0 995.3 NA 0.0000 9999 0 0 0 520
2019/10/23 09:58:00 BASE 7.98 325 10.44 315 -2.5 100 -2.5 34 0 995.3 NA 0.0000 9999 0 0 0 490
2019/10/23 09:59:01 BASE 8.31 324 10.34 319 -2.5 100 -2.5 34 0 995.3 NA 0.0000 9999 0 0 0 0
2019/10/23 10:00:01 BASE 8.39 326 10.08 315 -2.5 100 -2.5 35 0 995.3 NA 0.0000 9999 0 0 0 430
2019/10/23 10:01:01 BASE 8.51 327 10.08 315 -2.5 100 -2.5 37 0 995.3 NA 0.0000 9999 0 0 0 460
2019/10/23 10:02:01 BASE 8.61 327 10.08 315 -2.5 100 -2.5 40 0 995.3 NA 0.0000 9999 0 0 0 360
2019/10/23 10:03:01 BASE 8.36 327 10.08 315 -2.5 100 -2.5 68 0 995.3 NA 0.0000 9999 0 0 0 360
2019/10/23 10:04:01 BASE 8.60 325 10.13 321 -2.5 100 -2.5 111 0 995.3 NA 0.0000 9999 0 0 0 360
2019/10/23 10:05:00 BASE 8.99 326 10.13 321 -2.5 100 -2.5 154 0 995.3 NA 0.0000 9999 0 0 0 430
2019/10/23 10:06:00 BASE 9.29 327 10.39 329 -2.5 100 -2.5 152 0 995.3 NA 0.0000 9999 0 0 0 460
2019/10/23 10:07:00 BASE 9.58 326 10.39 329 -2.5 100 -2.5 161 0 995.3 NA 0.0000 9999 0 0 0 520
2019/10/23 10:08:01 BASE 9.45 326 10.39 329 -2.5 100 -2.5 164 0 995.4 NA 0.0000 9999 0 0 0 560
2019/10/23 10:09:01 BASE 9.44 325 10.39 329 -2.5 100 -2.5 161 0 995.4 NA 0.0000 9999 0 0 0 690
2019/10/23 10:10:01 BASE 9.48 326 10.39 329 -2.4 100 -2.4 165 0 995.4 NA 0.0000 9999 0 0 0 660
2019/10/23 10:11:01 BASE 9.48 326 10.39 329 -2.4 100 -2.4 164 0 995.4 NA 0.0000 9999 0 0 0 720
2019/10/23 10:12:01 BASE 9.69 325 10.39 329 -2.4 100 -2.4 169 0 995.4 NA 0.0000 9999 0 0 0 790
2019/10/23 10:13:01 BASE 9.78 326 10.39 329 -2.4 100 -2.4 169 0 995.4 NA 0.0000 9999 0 0 0 850
2019/10/23 10:14:01 BASE 9.63 326 10.39 329 -2.4 100 -2.4 168 0 995.4 NA 0.0000 9999 0 0 0 920
2019/10/23 10:15:01 BASE 9.49 327 10.65 325 -2.4 100 -2.4 174 0 995.4 NA 0.0000 9999 0 0 0 980
2019/10/23 10:16:01 BASE 9.52 327 10.65 325 -2.4 100 -2.4 174 0 995.5 NA 0.0000 9999 0 0 0 1020
2019/10/23 10:17:01 BASE 9.61 326 10.65 325 -2.4 100 -2.4 146 0 995.5 NA 0.0000 9999 0 0 0 890
2019/10/23 10:18:01 BASE 9.63 326 10.65 325 -2.4 100 -2.4 163 0 995.5 NA 0.0000 9999 0 0 0 720
2019/10/23 10:19:01 BASE 9.36 325 10.65 325 -2.4 100 -2.4 177 0 995.5 NA 0.0000 9999 0 0 0 820
2019/10/23 10:20:00 BASE 9.10 322 10.65 325 -2.4 100 -2.4 173 0 995.5 NA 0.0000 9999 0 0 0 520
2019/10/23 10:21:00 BASE 9.02 322 10.65 325 -2.4 100 -2.4 177 0 995.6 NA 0.0000 9999 0 0 0 460
2019/10/23 10:22:00 BASE 8.99 324 10.65 325 -2.3 100 -2.3 183 0 995.6 NA 0.0000 9999 0 0 0 390
2019/10/23 10:23:00 BASE 9.13 325 10.65 325 -2.3 100 -2.3 187 0 995.7 NA 0.0000 9999 0 0 0 390
2019/10/23 10:24:00 BASE 9.21 322 10.65 325 -2.3 100 -2.3 189 0 995.7 NA 0.0000 9999 0 0 0 430
2019/10/23 10:25:00 BASE 9.04 320 10.44 324 -2.3 100 -2.3 192 0 995.7 NA 0.0000 9999 0 0 0 0
2019/10/23 10:26:00 BASE 8.79 321 10.44 324 -2.3 100 -2.3 197 0 995.7 NA 0.0000 9999 0 0 0 0
2019/10/23 10:27:00 BASE 8.91 321 10.34 327 -2.3 100 -2.3 202 0 995.8 NA 0.0000 9999 0 0 0 360
2019/10/23 10:28:00 BASE 8.84 319 10.24 317 -2.3 100 -2.3 198 0 995.8 NA 0.0000 9999 0 0 0 0
2019/10/23 10:29:00 BASE 8.55 320 10.24 317 -2.3 100 -2.3 202 0 995.8 NA 0.0000 9999 0 0 0 300
2019/10/23 10:30:00 BASE 8.63 319 10.24 317 -2.3 100 -2.3 199 0 995.9 NA 0.0000 9999 0 0 0 0
2019/10/23 10:31:00 BASE 8.06 319 10.24 317 -2.3 100 -2.3 213 0 995.9 NA 0.0000 9999 0 0 0 0
2019/10/23 10:32:01 BASE 7.96 318 10.24 317 -2.3 100 -2.3 211 0 995.9 NA 0.0000 9999 0 0 0 0
2019/10/23 10:33:01 BASE 8.34 320 10.24 317 -2.3 100 -2.3 212 0 995.9 NA 0.0000 9999 0 0 0 0
2019/10/23 10:34:01 BASE 8.59 321 9.93 320 -2.3 100 -2.3 218 0 995.9 NA 0.0000 9999 0 0 0 0
2019/10/23 10:35:00 BASE 8.81 321 9.93 320 -2.3 100 -2.3 219 0 995.9 NA 0.0000 9999 0 0 0 0
2019/10/23 10:36:00 BASE 8.88 322 10.13 315 -2.3 100 -2.3 224 0 995.9 NA 0.0000 9999 0 0 0 0
2019/10/23 10:37:00 BASE 9.46 322 10.96 324 -2.3 100 -2.3 227 0 995.9 NA 0.0000 9999 0 0 0 0
2019/10/23 10:38:00 BASE 9.41 323 10.96 324 -2.3 100 -2.3 227 0 996.0 NA 0.0000 9999 0 0 0 0
2019/10/23 10:39:00 BASE 9.02 325 10.96 324 -2.3 100 -2.3 229 0 996.0 NA 0.0000 9999 0 0 0 0
2019/10/23 10:40:00 BASE 8.95 324 10.96 324 -2.3 100 -2.3 232 0 996.0 NA 0.0000 9999 0 0 0 0
2019/10/23 10:41:00 BASE 9.35 322 10.96 324 -2.3 100 -2.3 233 0 996.0 NA 0.0000 9999 0 0 0 0
2019/10/23 10:42:00 BASE 9.10 322 10.96 324 -2.3 100 -2.3 232 0 996.0 NA 0.0000 9999 0 0 0 0
2019/10/23 10:43:00 BASE 8.59 322 10.96 324 -2.3 100 -2.3 240 0 996.1 NA 0.0000 9999 0 0 0 0
2019/10/23 10:44:00 BASE 8.73 320 10.96 324 -2.3 100 -2.3 240 0 995.9 NA 0.0000 9999 0 0 0 0
2019/10/23 10:45:00 BASE 8.59 320 10.96 324 -2.3 100 -2.3 240 0 996.1 NA 0.0000 9999 0 0 0 0
2019/10/23 10:46:00 BASE 8.56 323 10.96 324 -2.3 100 -2.3 247 0 996.1 NA 0.0000 9999 0 0 0 0
2019/10/23 10:47:00 BASE 8.66 321 10.55 322 -2.3 100 -2.3 248 0 996.2 NA 0.0000 9999 0 0 0 0
2019/10/23 10:48:00 BASE 8.65 320 10.55 322 -2.3 100 -2.3 252 0 996.2 NA 0.0000 9999 0 0 0 0
2019/10/23 10:49:01 BASE 8.56 319 10.55 322 -2.3 100 -2.3 251 0 996.3 NA 0.0000 9999 0 0 0 0
2019/10/23 10:50:01 BASE 8.40 320 10.55 322 -2.3 100 -2.3 250 0 996.3 NA 0.0000 9999 0 0 0 0
2019/10/23 10:51:01 BASE 8.39 323 9.83 315 -2.2 100 -2.2 255 0 996.3 NA 0.0000 9999 0 0 0 0
2019/10/23 10:52:01 BASE 8.62 323 9.83 315 -2.2 100 -2.2 258 0 996.3 NA 0.0000 9999 0 0 0 0
2019/10/23 10:53:01 BASE 8.72 321 9.83 315 -2.2 100 -2.2 262 0 996.3 NA 0.0000 9999 0 0 0 0
2019/10/23 10:54:01 BASE 8.45 322 9.83 315 -2.2 100 -2.2 262 0 996.3 NA 0.0000 9999 0 0 0 0
2019/10/23 10:55:01 BASE 8.27 324 9.83 315 -2.2 100 -2.2 264 0 996.4 NA 0.0000 9999 0 0 0 0
2019/10/23 10:56:01 BASE 8.42 325 9.83 315 -2.2 100 -2.2 266 0 996.4 NA 0.0000 9999 0 0 0 0
2019/10/23 10:57:01 BASE 8.71 326 9.83 315 -2.2 100 -2.2 267 0 996.4 NA 0.0000 9999 0 0 0 0
2019/10/23 10:58:01 BASE 8.98 328 9.83 315 -2.2 100 -2.2 270 0 996.4 NA 0.0000 9999 0 0 0 0
2019/10/23 10:59:01 BASE 8.71 330 9.83 315 -2.2 100 -2.2 275 0 996.4 NA 0.0000 9999 0 0 0 0
2019/10/23 11:00:01 BASE 8.76 330 9.88 328 -2.2 100 -2.2 276 0 996.4 NA 0.0000 9999 0 0 0 0
2019/10/23 11:01:00 BASE 8.93 327 9.88 328 -2.2 100 -2.2 278 0 996.4 NA 0.0000 9999 0 0 0 330
2019/10/23 11:02:00 BASE 8.69 326 9.88 328 -2.2 100 -2.2 278 0 996.4 NA 0.0000 9999 0 0 0 0
2019/10/23 11:03:00 BASE 8.67 327 9.88 328 -2.2 100 -2.2 280 0 996.5 NA 0.0000 9999 0 0 0 0
2019/10/23 11:04:01 BASE 9.06 327 10.34 331 -2.2 100 -2.2 283 0 996.5 NA 0.0000 9999 0 0 0 0
2019/10/23 11:05:01 BASE 9.15 326 10.34 331 -2.2 100 -2.2 284 0 996.5 NA 0.0000 9999 0 0 0 0
2019/10/23 11:06:01 BASE 8.67 330 10.34 331 -2.2 100 -2.2 288 0 996.5 NA 0.0000 9999 0 0 0 0
2019/10/23 11:07:01 BASE 8.86 331 10.34 331 -2.2 100 -2.2 291 0 996.5 NA 0.0000 9999 0 0 0 0
2019/10/23 11:08:01 BASE 9.05 333 10.34 331 -2.2 100 -2.2 293 0 996.1 NA 0.0000 9999 0 0 0 0
2019/10/23 11:09:00 BASE 9.55 333 11.16 327 -2.2 100 -2.2 295 0 996.5 NA 0.0000 9999 0 0 0 0
2019/10/23 11:10:00 BASE 9.95 331 11.16 327 -2.2 100 -2.2 297 0 996.5 NA 0.0000 9999 0 0 0 0
2019/10/23 11:11:00 BASE 9.57 333 11.16 327 -2.2 100 -2.2 300 0 996.6 NA 0.0000 9999 0 0 0 0
2019/10/23 11:12:00 BASE 9.38 333 11.16 327 -2.2 100 -2.2 303 0 996.6 NA 0.0000 9999 0 0 0 0
2019/10/23 11:13:00 BASE 9.01 334 11.16 327 -2.1 100 -2.1 305 0 996.6 NA 0.0000 9999 0 0 0 0
2019/10/23 11:14:00 BASE 8.73 336 11.16 327 -2.1 100 -2.1 307 0 996.6 NA 0.0000 9999 0 0 0 0
2019/10/23 11:15:00 BASE 9.00 337 11.16 327 -2.1 100 -2.1 309 0 996.6 NA 0.0000 9999 0 0 0 0
2019/10/23 11:16:00 BASE 9.45 336 11.16 327 -2.1 100 -2.1 312 0 996.6 NA 0.0000 9999 0 0 0 0
2019/10/23 11:17:00 BASE 9.34 336 11.16 327 -2.1 100 -2.1 314 0 996.6 NA 0.0000 9999 0 0 0 0
2019/10/23 11:18:00 BASE 9.39 337 11.16 327 -2.1 100 -2.1 317 0 996.2 NA 0.0000 9999 0 0 0 0
2019/10/23 11:19:00 BASE 9.39 338 10.70 333 -2.1 100 -2.1 319 0 996.6 NA 0.0000 9999 0 0 0 0
2019/10/23 11:20:01 BASE 9.07 337 10.70 333 -2.1 100 -2.1 320 0 996.7 NA 0.0000 9999 0 0 0 0
2019/10/23 11:21:01 BASE 9.15 334 10.70 333 -2.1 100 -2.1 321 0 996.7 NA 0.0000 9999 0 0 0 0
2019/10/23 11:22:01 BASE 9.11 333 10.70 333 -2.0 100 -2.0 323 0 996.7 NA 0.0000 9999 0 0 0 0
2019/10/23 11:23:01 BASE 9.28 334 10.70 333 -2.0 100 -2.0 324 0 996.7 NA 0.0000 9999 0 0 0 0
2019/10/23 11:24:01 BASE 9.35 336 10.70 333 -2.0 100 -2.0 327 0 996.7 NA 0.0000 9999 0 0 0 0
2019/10/23 11:25:01 BASE 9.06 336 10.70 333 -2.0 100 -2.0 329 0 996.7 NA 0.0000 9999 0 0 0 0
2019/10/23 11:26:01 BASE 9.03 334 10.70 333 -2.0 100 -2.0 332 0 996.7 NA 0.0000 9999 0 0 0 0
2019/10/23 11:27:01 BASE 9.08 333 10.70 333 -2.0 100 -2.0 332 0 996.8 NA 0.0000 9999 0 0 0 0
2019/10/23 11:28:01 BASE 9.33 333 10.65 332 -2.0 100 -2.0 335 0 996.8 NA 0.0000 9999 0 0 0 0
2019/10/23 11:29:01 BASE 9.31 335 10.65 332 -1.9 100 -1.9 336 0 996.8 NA 0.0000 9999 0 0 0 0
2019/10/23 11:30:01 BASE 8.82 336 10.65 332 -1.9 100 -1.9 338 0 996.8 NA 0.0000 9999 0 0 0 0
2019/10/23 11:31:01 BASE 8.89 334 10.44 331 -1.9 100 -1.9 340 0 996.8 NA 0.0000 9999 0 0 0 0
2019/10/23 11:32:01 BASE 8.83 334 10.44 331 -1.9 100 -1.9 342 0 996.8 NA 0.0000 9999 0 0 0 460
2019/10/23 11:33:01 BASE 8.62 335 10.44 331 -1.9 100 -1.9 342 0 996.8 NA 0.0000 9999 0 0 0 0
2019/10/23 11:34:01 BASE 8.87 334 10.44 331 -1.9 100 -1.9 346 0 996.8 NA 0.0000 9999 0 0 0 0
2019/10/23 11:35:00 BASE 9.14 335 10.44 331 -1.9 100 -1.9 347 0 996.8 NA 0.0000 9999 0 0 0 0
2019/10/23 11:36:00 BASE 9.04 335 10.34 330 -1.9 100 -1.9 350 0 996.8 NA 0.0000 9999 0 0 0 0
2019/10/23 11:37:00 BASE 8.89 336 10.34 330 -1.9 100 -1.9 351 0 996.8 NA 0.0000 9999 0 0 0 0
2019/10/23 11:38:01 BASE 8.78 336 10.34 330 -1.9 100 -1.9 353 0 996.8 NA 0.0000 9999 0 0 0 0
2019/10/23 11:39:00 BASE 8.57 336 10.34 330 -1.9 100 -1.9 354 0 996.7 NA 0.0000 9999 0 0 0 390
2019/10/23 11:40:00 BASE 8.78 336 10.34 330 -1.9 100 -1.9 358 0 996.8 NA 0.0000 9999 0 0 0 0
2019/10/23 11:41:00 BASE 9.03 335 10.65 340 -1.9 100 -1.9 361 0 996.8 NA 0.0000 9999 0 0 0 0
2019/10/23 11:42:00 BASE 9.01 334 10.65 340 -1.9 100 -1.9 362 0 996.8 NA 0.0000 9999 0 0 0 430
2019/10/23 11:43:00 BASE 8.74 333 10.65 340 -1.9 100 -1.9 364 0 996.9 NA 0.0000 9999 0 0 0 0
2019/10/23 11:44:01 BASE 8.88 334 10.65 340 -1.9 100 -1.9 366 0 996.6 NA 0.0000 9999 0 0 0 390
2019/10/23 11:45:00 BASE 9.04 335 10.65 340 -1.8 100 -1.8 368 0 996.9 NA 0.0000 9999 0 0 0 0
2019/10/23 11:46:00 BASE 8.74 334 10.65 340 -1.8 100 -1.8 372 0 996.9 NA 0.0000 9999 0 0 0 0
2019/10/23 11:47:00 BASE 8.75 335 10.65 340 -1.8 100 -1.8 373 0 996.9 NA 0.0000 9999 0 0 0 0
2019/10/23 11:48:00 BASE 8.85 335 10.65 340 -1.8 100 -1.8 376 0 996.9 NA 0.0000 9999 0 0 0 0
2019/10/23 11:49:00 BASE 8.64 334 10.65 340 -1.8 100 -1.8 378 0 997.0 NA 0.0000 9999 0 0 0 0
2019/10/23 11:50:00 BASE 8.66 333 10.65 340 -1.8 100 -1.8 379 0 997.0 NA 0.0000 9999 0 0 0 0
2019/10/23 11:51:00 BASE 8.98 333 10.19 335 -1.8 100 -1.8 381 0 997.0 NA 0.0000 9999 0 0 0 0
2019/10/23 11:52:00 BASE 8.90 334 10.19 335 -1.8 100 -1.8 383 0 997.0 NA 0.0000 9999 0 0 0 0
2019/10/23 11:53:00 BASE 9.37 335 11.11 336 -1.8 100 -1.8 385 0 997.0 NA 0.0000 9999 0 0 0 0
2019/10/23 11:54:00 BASE 9.75 336 11.11 336 -1.8 100 -1.8 387 0 997.0 NA 0.0000 9999 0 0 0 0
2019/10/23 11:55:00 BASE 9.22 335 11.11 336 -1.8 100 -1.8 388 0 997.0 NA 0.0000 9999 0 0 0 0
2019/10/23 11:56:00 BASE 8.59 334 11.11 336 -1.8 100 -1.8 390 0 997.1 NA 0.0000 9999 0 0 0 0
2019/10/23 11:57:00 BASE 8.14 336 11.11 336 -1.8 100 -1.8 392 0 997.0 NA 0.0000 9999 0 0 0 0
2019/10/23 11:58:00 BASE 8.09 337 11.11 336 -1.8 100 -1.8 394 0 997.1 NA 0.0000 9999 0 0 0 0
2019/10/23 11:59:00 BASE 8.64 335 11.11 336 -1.8 100 -1.8 397 0 997.0 NA 0.0000 9999 0 0 0 0
2019/10/23 12:00:00 BASE 8.85 335 11.11 336 -1.8 100 -1.8 399 0 997.1 NA 0.0000 9999 0 0 0 0
2019/10/23 12:01:00 BASE 8.52 336 11.11 336 -1.8 100 -1.8 400 0 997.1 NA 0.0000 9999 0 0 0 0
2019/10/23 12:02:00 BASE 8.57 337 11.11 336 -1.8 100 -1.8 402 0 997.1 NA 0.0000 9999 0 0 0 0
2019/10/23 12:03:00 BASE 8.39 337 10.55 334 -1.8 100 -1.8 405 0 997.1 NA 0.0000 9999 0 0 0 0
2019/10/23 12:04:00 BASE 8.27 336 10.55 334 -1.8 100 -1.8 406 0 997.1 NA 0.0000 9999 0 0 0 0
2019/10/23 12:05:00 BASE 8.52 336 10.55 334 -1.8 100 -1.8 408 0 997.1 NA 0.0000 9999 0 0 0 0
2019/10/23 12:06:00 BASE 8.27 337 10.55 334 -1.7 100 -1.7 410 0 997.2 NA 0.0000 9999 0 0 0 0
2019/10/23 12:07:00 BASE 8.30 339 10.55 334 -1.7 100 -1.7 412 0 997.2 NA 0.0000 9999 0 0 0 0
2019/10/23 12:08:00 BASE 8.54 339 10.55 334 -1.7 100 -1.7 413 0 997.2 NA 0.0000 9999 0 0 0 0
2019/10/23 12:09:00 BASE 8.32 340 10.19 334 -1.7 100 -1.7 413 0 997.2 NA 0.0000 9999 0 0 0 0
2019/10/23 12:10:00 BASE 8.64 341 10.19 334 -1.7 100 -1.7 415 0 997.2 NA 0.0000 9999 0 0 0 520
2019/10/23 12:11:00 BASE 8.62 340 9.62 333 -1.7 100 -1.7 418 0 997.2 NA 0.0000 9999 0 0 0 0
2019/10/23 12:12:00 BASE 8.35 340 9.62 333 -1.7 100 -1.7 419 0 997.2 NA 0.0000 9999 0 0 0 490
2019/10/23 12:13:00 BASE 8.77 338 9.62 333 -1.7 100 -1.7 421 0 997.2 NA 0.0000 9999 0 0 0 490
2019/10/23 12:14:00 BASE 9.04 338 9.88 346 -1.7 100 -1.7 422 0 997.2 NA 0.0000 9999 0 0 0 520
2019/10/23 12:15:00 BASE 8.87 340 9.88 346 -1.6 100 -1.6 425 0 997.2 NA 0.0000 9999 0 0 0 0
2019/10/23 12:16:00 BASE 8.49 340 9.88 346 -1.6 100 -1.6 427 0 997.2 NA 0.0000 9999 0 0 0 490
2019/10/23 12:17:00 BASE 8.30 340 9.88 346 -1.6 100 -1.6 429 0 997.3 NA 0.0000 9999 0 0 0 520
2019/10/23 12:18:00 BASE 8.20 339 9.88 346 -1.6 100 -1.6 432 0 997.3 NA 0.0000 9999 0 0 0 0
2019/10/23 12:19:00 BASE 7.93 340 9.88 346 -1.6 100 -1.6 432 0 997.3 NA 0.0000 9999 0 0 0 0
2019/10/23 12:20:00 BASE 7.93 341 9.88 346 -1.6 100 -1.6 434 0 997.3 NA 0.0000 9999 0 0 0 0
2019/10/23 12:21:00 BASE 8.46 341 9.88 346 -1.6 100 -1.6 437 0 997.3 NA 0.0000 9999 0 0 0 0
2019/10/23 12:22:00 BASE 8.67 341 9.88 346 -1.6 100 -1.6 438 0 997.4 NA 0.0000 9999 0 0 0 0
2019/10/23 12:23:01 BASE 8.77 340 9.88 346 -1.6 100 -1.6 442 0 997.4 NA 0.0000 9999 0 0 0 0
2019/10/23 12:24:00 BASE 8.69 341 9.77 346 -1.6 100 -1.6 445 0 997.5 NA 0.0000 9999 0 0 0 590
2019/10/23 12:25:00 BASE 8.52 341 9.77 346 -1.6 100 -1.6 447 0 997.5 NA 0.0000 9999 0 0 0 660
2019/10/23 12:26:00 BASE 8.59 341 9.77 346 -1.6 100 -1.6 448 0 997.5 NA 0.0000 9999 0 0 0 590
2019/10/23 12:27:00 BASE 8.52 341 9.77 346 -1.5 100 -1.5 450 0 997.5 NA 0.0000 9999 0 0 0 0
2019/10/23 12:28:00 BASE 8.56 342 9.77 346 -1.5 100 -1.5 453 0 997.5 NA 0.0000 9999 0 0 0 560
2019/10/23 12:29:00 BASE 8.35 342 9.77 346 -1.5 100 -1.5 456 0 997.5 NA 0.0000 9999 0 0 0 620
2019/10/23 12:30:00 BASE 8.46 340 9.77 346 -1.5 100 -1.5 457 0 997.5 NA 0.0000 9999 0 0 0 690
2019/10/23 12:31:00 BASE 8.77 340 9.77 346 -1.5 100 -1.5 457 0 997.5 NA 0.0000 9999 0 0 0 590
2019/10/23 12:32:00 BASE 8.35 342 9.77 346 -1.5 100 -1.5 460 0 997.5 NA 0.0000 9999 0 0 0 590
2019/10/23 12:33:00 BASE 7.73 343 9.57 338 -1.5 100 -1.5 463 0 997.6 NA 0.0000 9999 0 0 0 560
2019/10/23 12:34:00 BASE 7.67 340 9.57 338 -1.5 100 -1.5 465 0 997.6 NA 0.0000 9999 0 0 0 690
2019/10/23 12:35:00 BASE 8.10 340 9.57 338 -1.5 100 -1.5 466 0 997.5 NA 0.0000 9999 0 0 0 560
2019/10/23 12:36:00 BASE 8.42 341 9.57 338 -1.5 100 -1.5 469 0 997.6 NA 0.0000 9999 0 0 0 660
2019/10/23 12:37:00 BASE 8.49 340 9.52 343 -1.5 100 -1.5 473 0 997.6 NA 0.0000 9999 0 0 0 660
2019/10/23 12:38:00 BASE 8.58 341 9.52 341 -1.5 100 -1.5 476 0 997.6 NA 0.0000 9999 0 0 0 620
2019/10/23 12:39:00 BASE 9.08 339 10.24 324 -1.5 100 -1.5 478 0 997.6 NA 0.0000 9999 0 0 0 660
2019/10/23 12:40:00 BASE 8.55 338 10.24 324 -1.5 100 -1.5 481 0 997.6 NA 0.0000 9999 0 0 0 490
2019/10/23 12:41:00 BASE 7.54 342 10.24 324 -1.5 100 -1.5 485 0 997.7 NA 0.0000 9999 0 0 0 660
2019/10/23 12:42:00 BASE 7.97 342 10.24 324 -1.4 100 -1.4 487 0 997.7 NA 0.0000 9999 0 0 0 750
2019/10/23 12:43:00 BASE 8.54 339 10.24 324 -1.4 100 -1.4 488 0 997.7 NA 0.0000 9999 0 0 0 720
2019/10/23 12:44:00 BASE 8.65 337 10.24 324 -1.4 100 -1.4 490 0 997.7 NA 0.0000 9999 0 0 0 690
2019/10/23 12:45:00 BASE 8.77 339 10.24 324 -1.4 100 -1.4 495 0 997.7 NA 0.0000 9999 0 0 0 720
2019/10/23 12:46:00 BASE 9.05 338 10.24 324 -1.4 100 -1.4 501 0 997.7 NA 0.0000 9999 0 0 0 690
2019/10/23 12:47:00 BASE 8.98 336 10.24 324 -1.4 100 -1.4 513 0 997.8 NA 0.0000 9999 0 0 0 690
2019/10/23 12:48:00 BASE 8.85 334 10.24 324 -1.4 100 -1.4 529 0 997.8 NA 0.0000 9999 0 0 0 690
2019/10/23 12:49:00 BASE 8.86 334 10.08 336 -1.4 100 -1.4 546 0 997.8 NA 0.0000 9999 0 0 0 660
2019/10/23 12:50:00 BASE 8.82 334 10.08 336 -1.4 100 -1.4 475 0 997.8 NA 0.0000 9999 8070 0 0 0
2019/10/23 12:51:01 BASE 9.00 334 10.08 336 -1.4 100 -1.4 399 0 997.8 NA 0.0000 9999 8040 0 0 0
2019/10/23 12:52:01 BASE 8.83 333 10.08 336 -1.4 100 -1.4 579 0 997.8 NA 0.0000 9999 8040 0 0 0
2019/10/23 12:53:01 BASE 7.96 335 10.08 336 -1.3 100 -1.3 556 0 997.9 NA 0.0000 9999 8040 0 0 0
2019/10/23 12:54:00 BASE 7.20 335 10.08 336 -1.3 100 -1.3 482 0 997.9 NA 0.0000 9999 8040 0 0 0
2019/10/23 12:55:00 BASE 7.39 335 10.08 336 -1.3 100 -1.3 474 0 997.9 NA 0.0000 9999 7970 0 0 0
2019/10/23 12:56:00 BASE 8.21 335 10.08 336 -1.3 100 -1.3 597 0 997.9 NA 0.0000 9999 7970 0 0 0
2019/10/23 12:57:00 BASE 8.61 336 10.08 336 -1.3 100 -1.3 563 0 997.8 NA 0.0000 9999 7970 0 0 0
2019/10/23 12:58:00 BASE 7.91 339 9.98 326 -1.3 100 -1.3 592 0 997.9 NA 0.0000 9999 7970 0 0 0
2019/10/23 12:59:00 BASE 7.68 339 9.98 326 -1.3 100 -1.3 611 0 997.9 NA 0.0000 9999 7910 0 0 0
2019/10/23 13:00:00 BASE 8.26 339 9.88 327 -1.3 100 -1.3 639 0 997.9 NA 0.0000 9999 7940 0 0 0
2019/10/23 13:01:00 BASE 8.69 339 9.88 327 -1.3 100 -1.3 611 0 997.8 NA 0.0000 9999 7870 0 0 0
2019/10/23 13:02:00 BASE 8.32 337 9.67 336 -1.3 100 -1.3 551 0 997.9 NA 0.0000 9999 7840 0 0 0
2019/10/23 13:03:00 BASE 8.10 339 9.88 338 -1.3 100 -1.3 511 0 997.9 NA 0.0000 9999 7910 0 0 0
2019/10/23 13:04:00 BASE 8.35 339 9.88 338 -1.3 100 -1.3 637 0 997.9 NA 0.0000 9999 7910 0 0 0
2019/10/23 13:05:00 BASE 8.64 340 9.88 338 -1.3 100 -1.3 559 0 997.9 NA 0.0000 9999 7780 0 0 0
2019/10/23 13:06:00 BASE 8.65 341 9.88 338 -1.2 100 -1.2 580 0 997.9 NA 0.0000 9999 7710 0 0 0
2019/10/23 13:07:00 BASE 8.21 339 9.88 338 -1.2 100 -1.2 501 0 997.9 NA 0.0000 9999 7740 0 0 0
2019/10/23 13:08:00 BASE 8.32 338 9.88 338 -1.2 100 -1.2 528 0 997.9 NA 0.0000 9999 7740 0 0 0
2019/10/23 13:09:00 BASE 8.57 337 9.88 338 -1.2 100 -1.2 485 0 998.0 NA 0.0000 9999 7840 0 0 0
2019/10/23 13:10:00 BASE 8.27 336 9.88 338 -1.2 100 -1.2 442 0 998.0 NA 0.0000 9999 7680 0 0 0
2019/10/23 13:11:00 BASE 7.70 338 9.88 338 -1.2 100 -1.2 444 0 998.0 NA 0.0000 9999 7710 0 0 0
2019/10/23 13:12:00 BASE 7.73 337 9.88 338 -1.3 100 -1.3 477 0 998.0 NA 0.0000 9999 7740 0 0 0
2019/10/23 13:13:00 BASE 7.96 336 9.77 340 -1.3 100 -1.3 572 0 998.1 NA 0.0000 9999 7780 0 0 0
2019/10/23 13:14:00 BASE 8.00 337 9.77 340 -1.2 100 -1.2 514 0 998.1 NA 0.0000 9999 7710 0 0 0
2019/10/23 13:15:00 BASE 8.49 335 10.08 332 -1.2 100 -1.2 477 0 998.1 NA 0.0000 9999 7780 0 0 0
2019/10/23 13:16:00 BASE 8.85 331 10.08 332 -1.2 100 -1.2 461 0 998.2 NA 0.0000 9999 7810 0 0 0
2019/10/23 13:17:00 BASE 8.09 331 10.08 332 -1.2 100 -1.2 456 0 998.2 NA 0.0000 9999 7780 0 0 0
2019/10/23 13:18:00 BASE 7.73 334 10.08 332 -1.2 100 -1.2 453 0 998.2 NA 0.0000 9999 7740 24180 0 0
2019/10/23 13:19:00 BASE 7.95 335 10.08 332 -1.2 100 -1.2 453 0 998.3 NA 0.0000 9999 7710 0 0 0
2019/10/23 13:20:00 BASE 7.79 335 10.08 332 -1.2 100 -1.2 465 0 998.3 NA 0.0000 9999 7840 0 0 0
2019/10/23 13:21:00 BASE 8.13 336 10.08 332 -1.2 100 -1.2 447 0 998.3 NA 0.0000 9999 7810 0 0 0
2019/10/23 13:22:00 BASE 7.98 336 10.08 332 -1.2 100 -1.2 437 0 998.3 NA 0.0000 9999 7810 0 0 0
2019/10/23 13:23:00 BASE 7.51 333 10.08 332 -1.2 100 -1.2 447 0 998.3 NA 0.0000 9999 7810 0 0 0
2019/10/23 13:24:00 BASE 7.31 332 10.08 332 -1.2 100 -1.2 445 0 998.3 NA 0.0000 9999 920 7710 0 0
2019/10/23 13:25:00 BASE 7.58 330 9.52 327 -1.2 100 -1.2 523 0 998.3 NA 0.0000 9999 890 7780 0 0
2019/10/23 13:26:00 BASE 7.81 333 9.05 338 -1.2 100 -1.2 545 0 998.4 NA 0.0000 9999 7680 0 0 0
2019/10/23 13:27:00 BASE 7.13 336 9.05 338 -1.2 100 -1.2 518 0 998.4 NA 0.0000 9999 1020 7710 0 0
2019/10/23 13:28:00 BASE 6.96 335 9.05 338 -1.1 100 -1.1 481 0 998.4 NA 0.0000 9999 890 7680 0 0
2019/10/23 13:29:00 BASE 7.61 337 9.05 338 -1.1 100 -1.1 470 0 998.4 NA 0.0000 9999 7580 0 0 0
2019/10/23 13:30:00 BASE 8.03 334 9.11 329 -1.1 100 -1.1 448 0 998.4 NA 0.0000 9999 7550 0 0 0
2019/10/23 13:31:01 BASE 8.00 328 9.11 329 -1.1 100 -1.1 448 0 998.4 NA 0.0000 9999 7580 0 0 0
2019/10/23 13:32:01 BASE 7.80 329 9.11 329 -1.1 100 -1.1 427 0 998.4 NA 0.0000 9999 7510 0 0 0
2019/10/23 13:33:01 BASE 7.91 330 9.11 329 -1.2 100 -1.2 416 0 998.4 NA 0.0000 9999 7550 0 0 0
2019/10/23 13:34:01 BASE 8.00 329 9.11 329 -1.2 100 -1.2 410 0 998.3 NA 0.0000 9999 7550 0 0 0
2019/10/23 13:35:01 BASE 7.42 330 9.11 329 -1.2 100 -1.2 412 0 998.5 NA 0.0000 9999 7480 0 0 0
2019/10/23 13:36:01 BASE 7.44 335 9.11 329 -1.2 100 -1.2 407 0 998.5 NA 0.0000 9999 920 7550 0 0
2019/10/23 13:37:01 BASE 8.01 334 9.36 340 -1.2 100 -1.2 401 0 998.5 NA 0.0000 9999 7480 0 0 0
2019/10/23 13:38:01 BASE 7.50 336 9.36 340 -1.2 100 -1.2 397 0 998.5 NA 0.0000 9999 7450 0 0 0
2019/10/23 13:39:01 BASE 6.92 340 9.36 340 -1.2 100 -1.2 401 0 998.5 NA 0.0000 9999 920 7450 0 0
2019/10/23 13:40:01 BASE 6.94 341 9.36 340 -1.2 100 -1.2 428 0 998.5 NA 0.0000 9999 980 7480 0 0
2019/10/23 13:41:01 BASE 7.33 338 9.36 340 -1.2 100 -1.2 409 0 998.5 NA 0.0000 9999 7510 0 0 0
2019/10/23 13:42:01 BASE 7.81 336 9.36 340 -1.2 100 -1.2 406 0 998.6 NA 0.0000 9999 7510 0 0 0
2019/10/23 13:43:01 BASE 8.26 337 9.41 335 -1.2 100 -1.2 405 0 998.6 NA 0.0000 9999 7510 0 0 0
2019/10/23 13:44:01 BASE 9.02 336 9.72 335 -1.2 100 -1.2 413 0 998.6 NA 0.0000 9999 7550 0 0 0
2019/10/23 13:45:01 BASE 8.91 334 9.72 335 -1.2 100 -1.2 413 0 998.6 NA 0.0000 9999 7550 0 0 0
2019/10/23 13:46:01 BASE 8.38 330 9.72 335 -1.1 100 -1.1 404 0 998.7 NA 0.0000 9999 7550 0 0 0
2019/10/23 13:47:01 BASE 8.22 330 9.72 335 -1.1 100 -1.1 399 0 998.7 NA 0.0000 9999 7550 0 0 0
2019/10/23 13:48:01 BASE 8.86 330 10.29 326 -1.1 100 -1.1 395 0 998.7 NA 0.0000 9999 7480 0 0 0
2019/10/23 13:49:01 BASE 9.30 329 10.29 326 -1.2 100 -1.2 392 0 998.7 NA 0.0000 9999 7480 0 0 0
2019/10/23 13:50:01 BASE 8.97 329 10.29 326 -1.2 100 -1.2 390 0 998.7 NA 0.0000 9999 7580 0 0 0
2019/10/23 13:51:01 BASE 8.68 330 10.29 326 -1.2 100 -1.2 389 0 998.8 NA 0.0000 9999 7580 0 0 0
2019/10/23 13:52:01 BASE 9.04 332 10.29 326 -1.2 100 -1.2 385 0 998.8 NA 0.0000 9999 7510 0 0 0
2019/10/23 13:53:01 BASE 9.61 331 10.29 326 -1.2 100 -1.2 384 0 998.8 NA 0.0000 9999 7510 0 0 0
2019/10/23 13:54:01 BASE 9.53 331 10.29 326 -1.2 100 -1.2 389 0 998.8 NA 0.0000 9999 1050 7610 0 0
2019/10/23 13:55:01 BASE 9.23 331 10.29 326 -1.2 100 -1.2 394 0 998.8 NA 0.0000 9999 7550 0 0 0
2019/10/23 13:56:01 BASE 8.82 331 10.29 326 -1.2 100 -1.2 401 0 998.8 NA 0.0000 9999 7550 0 0 0
2019/10/23 13:57:01 BASE 8.77 331 10.29 326 -1.2 100 -1.2 407 0 998.8 NA 0.0000 9999 7580 0 0 0
2019/10/23 13:58:00 BASE 8.77 332 10.24 329 -1.2 100 -1.2 409 0 998.9 NA 0.0000 9999 7510 0 0 0
2019/10/23 13:59:00 BASE 8.42 332 10.24 329 -1.2 100 -1.2 409 0 998.9 NA 0.0000 9999 7510 20830 0 0
2019/10/23 14:00:00 BASE 8.10 333 10.24 329 -1.2 100 -1.2 407 0 998.9 NA 0.0000 9999 7580 0 0 0
2019/10/23 14:01:00 BASE 7.42 333 10.24 329 -1.2 100 -1.2 405 0 998.9 NA 0.0000 9999 7610 0 0 0
2019/10/23 14:02:00 BASE 7.24 330 10.24 329 -1.2 100 -1.2 408 0 999.0 NA 0.0000 9999 7580 0 0 0
2019/10/23 14:03:00 BASE 7.35 333 9.98 333 -1.2 100 -1.2 414 0 999.0 NA 0.0000 9999 7550 0 0 0
2019/10/23 14:04:00 BASE 7.29 334 9.98 333 -1.1 100 -1.1 425 0 999.0 NA 0.0000 9999 7550 0 0 0
2019/10/23 14:05:00 BASE 7.78 334 9.41 334 -1.1 100 -1.1 469 0 999.0 NA 0.0000 9999 7580 0 0 0
2019/10/23 14:06:00 BASE 7.88 334 9.41 334 -1.1 100 -1.1 462 0 999.0 NA 0.0000 9999 7450 19290 20640 0
2019/10/23 14:07:00 BASE 7.76 333 9.41 334 -1.1 100 -1.1 506 0 999.0 NA 0.0000 9999 7610 0 0 0
2019/10/23 14:08:00 BASE 7.96 331 8.80 331 -1.1 100 -1.1 526 0 998.6 NA 0.0000 9999 7640 0 0 0
2019/10/23 14:09:00 BASE 8.16 331 8.95 332 -1.1 100 -1.1 511 0 998.9 NA 0.0000 9999 7910 0 0 0
2019/10/23 14:10:00 BASE 7.97 330 9.05 321 -1.1 100 -1.1 559 0 999.1 NA 0.0000 9999 7810 0 0 0
2019/10/23 14:11:00 BASE 8.19 328 9.05 322 -1.1 100 -1.1 560 0 999.1 NA 0.0000 9999 7740 17820 0 0
2019/10/23 14:12:00 BASE 8.51 327 9.05 322 -1.1 100 -1.1 569 0 999.1 NA 0.0000 9999 8010 0 0 0
2019/10/23 14:13:00 BASE 8.43 325 9.26 323 -1.0 100 -1.0 498 0 999.1 NA 0.0000 9999 8010 0 0 0
2019/10/23 14:14:00 BASE 8.34 326 9.26 323 -1.0 100 -1.0 604 0 999.1 NA 0.0000 9999 7840 0 0 0
2019/10/23 14:15:00 BASE 8.18 327 9.26 323 -1.0 100 -1.0 531 0 999.1 NA 0.0000 9999 7710 0 0 0
2019/10/23 14:16:00 BASE 8.12 326 9.26 323 -1.0 100 -1.0 635 0 999.1 NA 0.0000 9999 8070 0 0 0
2019/10/23 14:17:00 BASE 7.94 325 9.26 323 -1.0 100 -1.0 528 0 999.1 NA 0.0000 9999 7970 0 0 0
2019/10/23 14:18:00 BASE 7.76 326 9.26 323 -1.0 100 -1.0 564 0 999.1 NA 0.0000 9999 8040 0 0 0
2019/10/23 14:19:00 BASE 8.02 328 9.26 323 -1.0 100 -1.0 550 0 999.1 NA 0.0000 9999 8010 0 0 0
2019/10/23 14:20:00 BASE 8.31 329 9.31 331 -1.0 100 -1.0 499 0 999.2 NA 0.0000 9999 8140 0 0 0
2019/10/23 14:21:00 BASE 8.15 330 9.57 328 -1.0 100 -1.0 520 0 999.2 NA 0.0000 9999 8010 0 0 0
2019/10/23 14:22:00 BASE 7.58 328 9.57 328 -1.0 100 -1.0 496 0 999.2 NA 0.0000 9999 8040 0 0 0
2019/10/23 14:23:00 BASE 7.18 327 9.57 328 -1.0 100 -1.0 458 0 999.2 NA 0.0000 9999 8140 0 0 0
2019/10/23 14:24:00 BASE 7.39 326 9.57 328 -1.0 100 -1.0 457 0 999.3 NA 0.0000 9999 8070 0 0 0
2019/10/23 14:25:00 BASE 7.69 327 9.57 328 -0.9 100 -0.9 454 0 999.4 NA 0.0000 9999 8140 0 0 0
2019/10/23 14:26:00 BASE 8.05 328 9.57 328 -0.9 100 -0.9 446 0 999.4 NA 0.0000 9999 8140 0 0 0
2019/10/23 14:27:00 BASE 7.99 328 9.57 328 -0.9 100 -0.9 446 0 998.8 NA 0.0000 9999 8140 0 0 0
2019/10/23 14:28:00 BASE 8.10 328 9.57 328 -1.0 100 -1.0 449 0 999.2 NA 0.0000 9999 8070 0 0 0
2019/10/23 14:29:00 BASE 8.35 326 9.57 328 -1.0 100 -1.0 454 0 999.4 NA 0.0000 9999 8070 0 0 0
2019/10/23 14:30:00 BASE 8.43 330 9.57 328 -1.0 100 -1.0 452 0 999.4 NA 0.0000 9999 1120 8100 0 0
2019/10/23 14:31:01 BASE 8.36 333 9.26 326 -1.0 100 -1.0 489 0 999.4 NA 0.0000 9999 8100 0 0 0
2019/10/23 14:32:01 BASE 7.95 331 9.26 326 -1.0 100 -1.0 444 0 999.4 NA 0.0000 9999 1080 8140 0 0
2019/10/23 14:33:01 BASE 7.79 332 9.26 326 -1.0 100 -1.0 447 0 999.4 NA 0.0000 9999 8100 0 0 0
2019/10/23 14:34:01 BASE 7.49 335 9.26 326 -1.0 100 -1.0 454 0 999.5 NA 0.0000 9999 8100 0 0 0
2019/10/23 14:35:01 BASE 7.03 339 9.26 326 -1.0 100 -1.0 456 0 999.5 NA 0.0000 9999 8140 0 0 0
2019/10/23 14:36:01 BASE 7.13 340 9.26 326 -1.0 100 -1.0 493 0 999.4 NA 0.0000 9999 8070 0 0 0
2019/10/23 14:37:01 BASE 7.31 341 9.16 327 -1.0 100 -1.0 495 0 999.5 NA 0.0000 9999 8170 0 0 0
2019/10/23 14:38:01 BASE 7.64 340 9.05 339 -1.0 100 -1.0 502 0 999.5 NA 0.0000 9999 8270 0 0 0
2019/10/23 14:39:01 BASE 7.77 338 9.05 339 -1.0 100 -1.0 518 0 999.5 NA 0.0000 9999 8300 0 0 0
2019/10/23 14:40:01 BASE 7.73 339 8.85 332 -1.0 100 -1.0 524 0 999.5 NA 0.0000 9999 8300 0 0 0
2019/10/23 14:41:01 BASE 8.62 341 10.08 343 -1.0 100 -1.0 481 0 999.5 NA 0.0000 9999 8240 0 0 0
2019/10/23 14:42:01 BASE 8.72 342 10.08 343 -1.0 100 -1.0 473 0 999.5 NA 0.0000 9999 8200 0 0 0
2019/10/23 14:43:01 BASE 8.06 340 10.08 343 -1.0 100 -1.0 457 0 999.5 NA 0.0000 9999 8170 0 0 0
2019/10/23 14:44:01 BASE 7.84 338 10.08 343 -1.0 100 -1.0 431 0 999.5 NA 0.0000 9999 8140 22870 0 0
2019/10/23 14:45:01 BASE 8.07 338 10.08 343 -1.0 100 -1.0 415 0 999.5 NA 0.0000 9999 8330 0 0 0
2019/10/23 14:46:01 BASE 7.74 338 10.08 343 -1.0 100 -1.0 407 0 999.6 NA 0.0000 9999 8140 0 0 0
2019/10/23 14:47:01 BASE 7.30 341 10.08 343 -1.0 100 -1.0 406 0 999.2 NA 0.0000 9999 8200 0 0 0
2019/10/23 14:48:01 BASE 7.46 343 10.08 343 -1.0 100 -1.0 416 0 999.3 NA 0.0000 9999 8010 0 0 0
2019/10/23 14:49:01 BASE 7.66 340 10.08 343 -1.0 100 -1.0 425 0 999.5 NA 0.0000 9999 7970 0 0 0
2019/10/23 14:50:01 BASE 7.72 338 10.08 343 -1.0 100 -1.0 426 0 999.5 NA 0.0000 9999 7970 0 0 0
2019/10/23 14:51:01 BASE 7.19 341 8.95 341 -1.0 100 -1.0 423 0 999.4 NA 0.0000 9999 7970 0 0 0
2019/10/23 14:52:01 BASE 7.36 344 8.80 336 -1.0 100 -1.0 420 0 999.6 NA 0.0000 9999 8010 0 0 0
2019/10/23 14:53:01 BASE 7.86 346 8.75 349 -1.1 100 -1.1 419 0 999.6 NA 0.0000 9999 8070 0 0 0
2019/10/23 14:54:01 BASE 8.23 346 9.00 345 -1.1 100 -1.1 411 0 999.6 NA 0.0000 9999 8040 0 0 0
2019/10/23 14:55:01 BASE 8.35 344 9.00 345 -1.1 100 -1.1 397 0 999.6 NA 0.0000 9999 7970 0 0 0
2019/10/23 14:56:01 BASE 7.95 341 9.00 345 -1.1 100 -1.1 383 0 999.6 NA 0.0000 9999 1280 7940 0 0
2019/10/23 14:57:00 BASE 7.32 341 9.00 345 -1.1 100 -1.1 373 0 999.6 NA 0.0000 9999 1280 7910 0 0
2019/10/23 14:58:01 BASE 7.33 344 9.00 345 -1.1 100 -1.1 366 0 999.6 NA 0.0000 9999 7810 0 0 0
2019/10/23 14:59:00 BASE 7.83 347 9.00 345 -1.1 100 -1.1 359 0 999.7 NA 0.0000 9999 6530 7810 19690 0
2019/10/23 15:00:00 BASE 7.92 347 9.00 345 -1.1 100 -1.1 357 0 999.6 NA 0.0000 9999 6530 0 0 0
2019/10/23 15:01:00 BASE 7.76 347 9.00 345 -1.1 100 -1.1 360 0 999.7 NA 0.0000 9999 6230 0 0 0
2019/10/23 15:02:01 BASE 7.69 348 9.00 345 -1.1 100 -1.1 361 0 999.7 NA 0.0000 9999 6170 0 0 0
2019/10/23 15:03:00 BASE 7.70 345 9.00 345 -1.1 100 -1.1 355 0 999.7 NA 0.0000 9999 5940 0 0 0
2019/10/23 15:04:01 BASE 7.44 342 8.54 346 -1.1 100 -1.1 351 0 999.7 NA 0.0000 9999 5910 0 0 0
2019/10/23 15:05:01 BASE 7.55 342 8.54 340 -1.1 100 -1.1 345 0 999.7 NA 0.0000 9999 5810 0 0 0
2019/10/23 15:06:01 BASE 7.63 342 8.54 340 -1.1 100 -1.1 341 0 999.7 NA 0.0000 9999 5770 0 0 0
2019/10/23 15:07:01 BASE 7.27 341 8.54 340 -1.1 100 -1.1 343 0 999.7 NA 0.0000 9999 5770 23850 0 0
2019/10/23 15:08:00 BASE 7.26 341 8.54 340 -1.1 100 -1.1 351 0 999.7 NA 0.0000 9999 1350 5810 0 0
2019/10/23 15:09:00 BASE 7.25 341 8.54 340 -1.1 100 -1.1 358 0 999.7 NA 0.0000 9999 5740 0 0 0
2019/10/23 15:10:00 BASE 7.73 338 8.75 335 -1.0 100 -1.0 361 0 999.7 NA 0.0000 9999 5740 0 0 0
2019/10/23 15:11:00 BASE 8.47 337 8.85 337 -1.0 100 -1.0 363 0 999.7 NA 0.0000 9999 5740 0 0 0
2019/10/23 15:12:00 BASE 8.62 336 9.05 336 -1.0 100 -1.0 362 0 999.7 NA 0.0000 9999 5770 8140 0 0
2019/10/23 15:13:00 BASE 8.72 334 9.16 332 -1.0 100 -1.0 357 0 999.8 NA 0.0000 9999 5810 0 0 0
2019/10/23 15:14:00 BASE 8.42 334 9.16 332 -1.1 100 -1.1 354 0 999.8 NA 0.0000 9999 5770 0 0 0
2019/10/23 15:15:00 BASE 7.85 334 9.16 332 -1.1 100 -1.1 353 0 999.8 NA 0.0000 9999 5740 6300 0 0
2019/10/23 15:16:00 BASE 7.86 330 9.16 332 -1.1 100 -1.1 352 0 999.8 NA 0.0000 9999 6270 6960 0 0
2019/10/23 15:17:00 BASE 8.29 328 9.16 332 -1.0 100 -1.0 352 0 999.9 NA 0.0000 9999 6690 0 0 0
2019/10/23 15:18:00 BASE 8.33 330 9.16 332 -1.0 100 -1.0 350 0 999.9 NA 0.0000 9999 5940 0 0 0
2019/10/23 15:19:00 BASE 7.80 330 9.16 332 -1.0 100 -1.0 346 0 999.9 NA 0.0000 9999 1710 5940 6430 0
2019/10/23 15:20:00 BASE 7.44 326 9.16 332 -1.0 100 -1.0 341 0 999.9 NA 0.0000 9999 5910 0 0 0
2019/10/23 15:21:00 BASE 7.27 324 9.16 332 -1.0 100 -1.0 336 0 999.9 NA 0.0000 9999 5910 6270 0 0
2019/10/23 15:22:00 BASE 6.91 321 9.16 332 -1.0 100 -1.0 337 0 999.9 NA 0.0000 9999 6100 6820 0 0
2019/10/23 15:23:00 BASE 6.93 319 9.05 332 -1.1 100 -1.1 345 0 999.9 NA 0.0000 9999 6590 0 0 0
2019/10/23 15:24:00 BASE 7.12 319 9.05 332 -1.0 100 -1.0 356 0 999.9 NA 0.0000 9999 6460 0 0 0
2019/10/23 15:25:00 BASE 7.23 317 9.05 332 -1.0 100 -1.0 365 0 999.9 NA 0.0000 9999 5910 6590 0 0
2019/10/23 15:26:00 BASE 7.17 317 9.05 332 -1.0 100 -1.0 375 0 1000.0 NA 0.0000 9999 6500 0 0 0
2019/10/23 15:27:00 BASE 7.03 316 8.90 336 -1.0 100 -1.0 382 0 1000.0 NA 0.0000 9999 6560 0 0 0
2019/10/23 15:28:00 BASE 7.21 316 8.08 320 -1.0 100 -1.0 372 0 1000.0 NA 0.0000 9999 6500 0 0 0
2019/10/23 15:29:00 BASE 7.16 316 8.08 320 -1.0 100 -1.0 349 0 1000.1 NA 0.0000 9999 6460 0 0 0
2019/10/23 15:30:00 BASE 6.57 317 8.08 320 -1.1 100 -1.1 330 0 1000.1 NA 0.0000 9999 5840 0 0 0
2019/10/23 15:31:01 BASE 6.00 318 8.03 315 -1.1 100 -1.1 317 0 1000.1 NA 0.0000 9999 5940 0 0 0
2019/10/23 15:32:01 BASE 5.81 315 8.03 315 -1.1 100 -1.1 305 0 1000.1 NA 0.0000 9999 5970 0 0 0
2019/10/23 15:33:01 BASE 5.87 315 8.03 315 -1.1 100 -1.1 296 0 1000.1 NA 0.0000 9999 5970 0 0 0
2019/10/23 15:34:01 BASE 5.73 317 7.87 319 -1.0 100 -1.0 288 0 1000.1 NA 0.0000 9999 6200 0 0 0
2019/10/23 15:35:01 BASE 5.44 318 7.87 319 -1.0 100 -1.0 283 0 1000.1 NA 0.0000 9999 6170 0 0 0
2019/10/23 15:36:01 BASE 5.86 314 7.87 319 -1.0 100 -1.0 280 0 1000.2 NA 0.0000 9999 6000 0 0 0
2019/10/23 15:37:01 BASE 5.98 312 7.87 319 -1.1 100 -1.1 281 0 1000.2 NA 0.0000 9999 5910 6690 0 0
2019/10/23 15:38:01 BASE 5.84 312 7.41 320 -1.1 100 -1.1 285 0 1000.2 NA 0.0000 9999 5970 0 0 0
2019/10/23 15:39:01 BASE 5.71 309 7.00 307 -1.1 100 -1.1 291 0 1000.2 NA 0.0000 9999 5940 0 0 0
2019/10/23 15:40:01 BASE 5.87 309 7.00 307 -1.1 100 -1.1 301 0 1000.2 NA 0.0000 9999 5610 0 0 0
2019/10/23 15:41:01 BASE 6.29 310 7.00 307 -1.0 100 -1.0 319 0 1000.2 NA 0.0000 9999 5480 0 0 0
2019/10/23 15:42:01 BASE 6.01 312 7.00 307 -1.0 100 -1.0 343 0 1000.2 NA 0.0000 9999 5350 0 0 0
2019/10/23 15:43:01 BASE 5.90 314 7.00 307 -1.0 100 -1.0 366 0 1000.2 NA 0.0000 9999 5180 5970 0 0
2019/10/23 15:44:01 BASE 6.00 314 7.00 307 -1.0 100 -1.0 389 0 1000.2 NA 0.0000 9999 5840 0 0 0
2019/10/23 15:45:01 BASE 6.04 314 7.00 307 -1.0 100 -1.0 413 0 1000.3 NA 0.0000 9999 5810 0 0 0
2019/10/23 15:46:01 BASE 5.95 315 6.94 313 -1.0 100 -1.0 435 0 1000.3 NA 0.0000 9999 5770 22510 0 0
2019/10/23 15:47:01 BASE 5.83 314 6.94 313 -1.0 100 -1.0 446 0 1000.3 NA 0.0000 9999 5770 0 0 0
2019/10/23 15:48:01 BASE 5.97 317 7.15 315 -1.0 100 -1.0 432 0 1000.3 NA 0.0000 9999 6330 0 0 0
2019/10/23 15:49:01 BASE 6.33 318 7.15 315 -0.9 100 -0.9 425 0 1000.3 NA 0.0000 9999 5680 6630 0 0
2019/10/23 15:50:01 BASE 6.43 315 7.15 315 -0.9 100 -0.9 426 0 1000.3 NA 0.0000 9999 5770 0 0 0
2019/10/23 15:51:01 BASE 6.13 315 7.15 315 -0.9 100 -0.9 423 0 1000.3 NA 0.0000 9999 5740 0 0 0
2019/10/23 15:52:01 BASE 5.97 316 7.15 315 -0.9 100 -0.9 424 0 1000.3 NA 0.0000 9999 5680 7870 0 0
2019/10/23 15:53:01 BASE 6.28 314 7.15 315 -0.9 100 -0.9 429 0 1000.3 NA 0.0000 9999 7740 0 0 0
2019/10/23 15:54:01 BASE 6.20 314 7.15 315 -0.9 100 -0.9 436 0 1000.3 NA 0.0000 9999 5770 7780 20050 0
2019/10/23 15:55:01 BASE 5.99 314 7.15 315 -0.9 100 -0.9 443 0 1000.3 NA 0.0000 9999 5810 0 0 0
2019/10/23 15:56:01 BASE 6.11 314 7.15 315 -0.9 100 -0.9 446 0 1000.3 NA 0.0000 9999 5770 0 0 0
2019/10/23 15:57:01 BASE 6.26 312 7.15 310 -0.9 100 -0.9 448 0 1000.3 NA 0.0000 9999 5740 0 0 0
2019/10/23 15:58:01 BASE 6.63 310 7.72 318 -0.9 100 -0.9 462 0 1000.3 NA 0.0000 9999 5870 0 0 0
2019/10/23 15:59:01 BASE 6.56 310 7.72 318 -0.9 100 -0.9 492 0 1000.4 NA 0.0000 9999 5840 0 0 0
2019/10/23 16:00:00 BASE 6.30 309 7.72 318 -0.9 100 -0.9 563 0 1000.4 NA 0.0000 9999 5840 0 0 0
2019/10/23 16:01:00 BASE 6.45 311 7.72 318 -0.9 100 -0.9 501 0 1000.4 NA 0.0000 9999 5770 8170 0 0
2019/10/23 16:02:01 BASE 6.37 312 7.72 318 -0.9 100 -0.9 473 0 1000.4 NA 0.0000 9999 5710 0 0 0
2019/10/23 16:03:00 BASE 6.19 312 7.72 318 -0.9 100 -0.9 460 0 1000.4 NA 0.0000 9999 8170 22740 0 0
2019/10/23 16:04:00 BASE 6.28 312 7.72 318 -0.8 100 -0.8 458 0 1000.4 NA 0.0000 9999 8270 0 0 0
2019/10/23 16:05:01 BASE 6.26 313 7.72 318 -0.8 100 -0.8 457 0 1000.4 NA 0.0000 9999 5740 8270 0 0
2019/10/23 16:06:00 BASE 6.45 314 7.72 318 -0.8 100 -0.8 456 0 1000.4 NA 0.0000 9999 8300 0 0 0
2019/10/23 16:07:00 BASE 6.74 311 7.72 318 -0.8 100 -0.8 461 0 1000.4 NA 0.0000 9999 8240 0 0 0
2019/10/23 16:08:00 BASE 6.63 310 7.31 307 -0.8 100 -0.8 479 0 1000.4 NA 0.0000 9999 8270 0 0 0
2019/10/23 16:09:00 BASE 6.46 310 7.31 307 -0.8 100 -0.8 494 0 1000.4 NA 0.0000 9999 8170 0 0 0
2019/10/23 16:10:00 BASE 6.15 312 7.31 307 -0.8 100 -0.8 521 0 1000.4 NA 0.0000 9999 8200 0 0 0
2019/10/23 16:11:00 BASE 5.93 314 7.31 307 -0.8 100 -0.8 548 0 1000.4 NA 0.0000 9999 8240 0 0 0
2019/10/23 16:12:01 BASE 5.47 313 7.31 307 -0.8 100 -0.8 615 0 1000.4 NA 0.0000 9999 8140 9320 0 0
2019/10/23 16:13:01 BASE 5.16 309 7.31 307 -0.7 100 -0.7 607 0 1000.4 NA 0.0000 9999 8140 0 0 0
2019/10/23 16:14:01 BASE 5.06 311 7.31 307 -0.7 100 -0.7 605 0 1000.4 NA 0.0000 9999 8040 0 0 0
2019/10/23 16:15:01 BASE 4.85 317 7.31 307 -0.6 100 -0.6 649 0 1000.4 NA 0.0000 9999 8170 0 0 0
2019/10/23 16:16:01 BASE 5.42 331 7.31 307 -0.6 100 -0.6 585 0 1000.4 NA 0.0000 9999 8300 0 0 0
2019/10/23 16:17:01 BASE 6.60 343 7.97 345 -0.6 100 -0.6 556 0 1000.4 NA 0.0000 9999 8040 0 0 0
2019/10/23 16:18:01 BASE 6.90 342 7.97 345 -0.6 100 -0.6 571 0 1000.4 NA 0.0000 9999 8040 0 0 0
2019/10/23 16:19:01 BASE 6.33 341 7.97 345 -0.5 100 -0.6 630 0 1000.4 NA 0.0000 9999 7970 0 0 0
2019/10/23 16:20:01 BASE 6.19 341 7.97 345 -0.5 98 -0.7 594 0 1000.4 NA 0.0000 9999 7870 0 0 0
2019/10/23 16:21:01 BASE 6.61 338 7.97 338 -0.5 97 -0.9 585 0 1000.2 NA 0.0000 9999 7840 0 0 0
2019/10/23 16:22:00 BASE 6.61 334 7.97 338 -0.4 94 -1.2 675 0 1000.4 NA 0.0000 9999 7870 0 0 0
2019/10/23 16:23:00 BASE 6.49 335 7.97 338 -0.3 92 -1.4 604 0 1000.0 NA 0.0000 9999 5320 7840 0 0
2019/10/23 16:24:00 BASE 6.45 337 7.97 338 -0.2 90 -1.7 740 0 1000.5 NA 0.0000 9999 5380 0 0 0
2019/10/23 16:25:00 BASE 6.17 334 7.97 338 -0.2 89 -1.8 575 0 1000.5 NA 0.0000 9999 5410 7780 0 0
2019/10/23 16:26:00 BASE 5.93 332 7.97 338 -0.2 88 -1.9 625 0 1000.5 NA 0.0000 9999 7710 0 0 0
2019/10/23 16:27:00 BASE 5.65 332 7.97 338 -0.2 87 -2.0 571 0 1000.5 NA 0.0000 9999 7610 0 0 0
2019/10/23 16:28:00 BASE 5.80 335 7.97 338 -0.2 87 -2.1 550 0 1000.6 NA 0.0000 9999 7710 0 0 0
2019/10/23 16:29:00 BASE 5.55 335 7.97 338 -0.2 87 -2.1 629 0 1000.6 NA 0.0000 9999 7510 0 0 0
2019/10/23 16:30:00 BASE 5.08 327 7.97 338 -0.2 87 -2.2 483 0 1000.6 NA 0.0000 9999 7640 0 0 0
2019/10/23 16:31:01 BASE 5.30 324 7.51 341 -0.2 87 -2.2 467 0 1000.6 NA 0.0000 9999 7840 0 0 0
2019/10/23 16:32:01 BASE 5.34 324 7.51 341 -0.2 87 -2.2 496 0 1000.6 NA 0.0000 9999 7710 0 0 0
2019/10/23 16:33:01 BASE 5.14 325 7.15 340 -0.2 87 -2.2 476 0 1000.6 NA 0.0000 9999 8040 0 0 0
2019/10/23 16:34:01 BASE 5.20 327 6.69 338 -0.2 87 -2.1 675 0 1000.6 NA 0.0000 9999 9550 0 0 0
2019/10/23 16:35:01 BASE 4.82 329 6.48 335 -0.2 87 -2.1 518 0 1000.7 NA 0.0000 9999 8100 9510 0 0
2019/10/23 16:36:01 BASE 4.66 336 6.84 341 -0.2 88 -2.0 657 0 1000.6 NA 0.0000 9999 7970 0 0 0
2019/10/23 16:37:01 BASE 6.18 339 8.18 339 -0.2 88 -2.0 575 0 1000.5 NA 0.0000 9999 9550 0 0 0
2019/10/23 16:38:01 BASE 7.22 337 8.18 339 -0.2 87 -2.1 596 0 1000.6 NA 0.0000 9999 9480 0 0 0
2019/10/23 16:39:01 BASE 6.54 335 8.18 339 -0.1 85 -2.3 555 0 1000.7 NA 0.0000 9999 9480 0 0 0
2019/10/23 16:40:01 BASE 5.78 339 8.18 339 -0.1 83 -2.7 717 0 1000.7 NA 0.0000 9999 9450 22340 0 0
2019/10/23 16:41:01 BASE 5.51 343 8.18 339 -0.1 81 -3.0 605 0 1000.7 NA 0.0000 9999 9420 20870 0 0
2019/10/23 16:42:01 BASE 5.57 339 8.18 339 -0.0 78 -3.3 644 0 1000.8 NA 0.0000 9999 9420 0 0 0
2019/10/23 16:43:01 BASE 5.63 335 8.18 339 -0.0 76 -3.7 598 0 1000.8 NA 0.0000 9999 9510 21590 0 0
2019/10/23 16:44:01 BASE 5.91 331 8.18 339 -0.0 75 -3.8 605 0 1000.8 NA 0.0000 9999 9550 0 0 0
2019/10/23 16:45:01 BASE 5.42 324 8.18 339 0.0 75 -3.9 567 0 1000.8 NA 0.0000 9999 9550 0 0 0
2019/10/23 16:46:01 BASE 4.79 319 8.18 339 0.0 75 -3.9 902 0 1000.8 NA 0.0000 9999 9380 0 0 0
2019/10/23 16:47:01 BASE 5.13 319 7.31 335 0.0 76 -3.8 591 0 1000.9 NA 0.0000 9999 9450 0 0 0
2019/10/23 16:48:01 BASE 5.72 324 6.84 332 0.0 77 -3.5 720 0 1000.9 NA 0.0000 9999 9380 0 0 0
2019/10/23 16:49:01 BASE 6.01 333 6.74 331 0.0 78 -3.3 596 0 1000.9 NA 0.0000 9999 7050 0 0 0
2019/10/23 16:50:01 BASE 5.35 334 6.74 331 0.0 79 -3.2 478 0 1000.9 NA 0.0000 9999 7020 0 0 0
2019/10/23 16:51:01 BASE 5.00 332 6.74 331 0.0 80 -3.1 797 0 1000.9 NA 0.0000 9999 7020 9550 0 0
2019/10/23 16:52:01 BASE 5.13 329 6.74 331 -0.0 80 -3.0 448 0 1000.9 NA 0.0000 9999 7020 9480 0 0
2019/10/23 16:53:01 BASE 4.52 327 6.74 331 -0.1 81 -3.0 426 0 1000.9 NA 0.0000 9999 9480 0 0 0
2019/10/23 16:54:01 BASE 4.65 330 6.74 331 -0.1 81 -3.0 399 0 1000.9 NA 0.0000 9999 9550 0 0 0
2019/10/23 16:55:01 BASE 5.27 328 6.74 331 -0.1 81 -2.9 384 0 1000.9 NA 0.0000 9999 9650 0 0 0
2019/10/23 16:56:01 BASE 5.22 323 6.74 331 -0.2 82 -2.9 372 0 1000.9 NA 0.0000 9999 9550 0 0 0
2019/10/23 16:57:01 BASE 4.96 322 6.74 331 -0.2 82 -2.9 369 0 1000.9 NA 0.0000 9999 9550 0 0 0
2019/10/23 16:58:01 BASE 4.37 327 6.69 345 -0.2 82 -2.8 375 0 1000.9 NA 0.0000 9999 9580 0 0 0
2019/10/23 16:59:01 BASE 4.17 336 6.28 336 -0.3 83 -2.8 394 0 1000.9 NA 0.0000 9999 7510 9610 0 0
2019/10/23 17:00:01 BASE 4.33 338 6.28 336 -0.3 83 -2.8 416 0 1000.9 NA 0.0000 9999 9510 0 0 0
2019/10/23 17:01:01 BASE 4.02 337 5.92 334 -0.3 83 -2.8 425 0 1000.9 NA 0.0000 9999 9510 0 0 0
2019/10/23 17:02:01 BASE 4.06 336 5.92 334 -0.3 83 -2.8 446 0 1000.9 NA 0.0000 9999 9480 0 0 0
2019/10/23 17:03:01 BASE 4.38 339 5.92 334 -0.3 83 -2.9 479 0 1000.9 NA 0.0000 9999 9450 0 0 0
2019/10/23 17:04:01 BASE 5.00 347 6.74 353 -0.2 82 -3.0 490 0 1000.9 NA 0.0000 9999 9220 0 0 0
2019/10/23 17:05:01 BASE 6.12 352 8.13 347 -0.2 80 -3.2 525 0 1000.9 NA 0.0000 9999 9350 0 0 0
2019/10/23 17:06:01 BASE 6.63 351 8.13 347 -0.1 78 -3.5 506 0 1000.9 NA 0.0000 9999 9320 0 0 0
2019/10/23 17:07:00 BASE 6.92 349 8.28 1 -0.0 75 -3.9 515 0 1000.9 NA 0.0000 9999 7090 0 0 0
2019/10/23 17:08:01 BASE 7.61 354 8.75 354 0.1 72 -4.4 553 0 1000.9 NA 0.0000 9999 7420 9480 0 0
2019/10/23 17:09:00 BASE 7.81 360 8.75 354 0.1 69 -4.9 502 0 1000.9 NA 0.0000 9999 9450 0 0 0
2019/10/23 17:10:00 BASE 7.53 356 8.75 354 0.2 66 -5.5 513 0 1000.9 NA 0.0000 9999 7050 0 0 0
2019/10/23 17:11:00 BASE 7.43 352 8.75 354 0.3 63 -6.0 532 0 1000.9 NA 0.0000 9999 4400 7050 0 0
2019/10/23 17:12:01 BASE 8.07 356 9.67 1 0.3 61 -6.3 718 0 1000.9 NA 0.0000 9999 4330 0 0 0
2019/10/23 17:13:00 BASE 8.81 0 10.03 354 0.4 60 -6.6 520 0 1000.9 NA 0.0000 9999 4330 0 0 0
2019/10/23 17:14:01 BASE 8.84 1 10.03 354 0.4 59 -6.8 493 0 1000.9 NA 0.0000 9999 4230 0 0 0
2019/10/23 17:15:00 BASE 8.82 3 10.03 354 0.4 58 -6.8 483 0 1000.9 NA 0.0000 9999 4230 0 0 0
2019/10/23 17:16:01 BASE 8.97 6 10.03 354 0.4 59 -6.7 502 0 1000.9 NA 0.0000 9999 4200 0 0 0
2019/10/23 17:17:00 BASE 8.86 3 10.03 354 0.4 59 -6.7 548 0 1000.9 NA 0.0000 9999 8920 0 0 0
2019/10/23 17:18:00 BASE 8.89 2 10.03 354 0.4 59 -6.6 458 0 1000.9 NA 0.0000 9999 4270 7220 0 0
2019/10/23 17:19:00 BASE 9.20 5 10.60 1 0.4 60 -6.5 441 0 1000.9 NA 0.0000 9999 0 0 0 0
2019/10/23 17:20:01 BASE 9.24 6 10.60 1 0.4 60 -6.6 423 0 1000.9 NA 0.0000 9999 7120 9120 0 0
2019/10/23 17:21:01 BASE 8.92 4 10.60 1 0.4 59 -6.6 457 0 1001.0 NA 0.0000 9999 7150 0 0 0
2019/10/23 17:22:01 BASE 9.03 3 10.60 1 0.4 60 -6.5 481 0 1001.0 NA 0.0000 9999 6530 7120 0 0
2019/10/23 17:23:01 BASE 9.18 4 10.60 1 0.4 60 -6.5 427 0 1001.0 NA 0.0000 9999 6400 0 0 0
2019/10/23 17:24:01 BASE 8.87 4 10.60 1 0.4 61 -6.4 418 0 1001.0 NA 0.0000 9999 7050 0 0 0
2019/10/23 17:25:01 BASE 8.89 4 10.60 1 0.3 61 -6.2 418 0 1001.0 NA 0.0000 9999 6370 8960 0 0
2019/10/23 17:26:01 BASE 9.10 3 10.60 1 0.3 62 -6.1 394 0 1001.0 NA 0.0000 9999 8430 0 0 0
2019/10/23 17:27:01 BASE 8.71 3 10.60 1 0.3 62 -6.1 387 0 1001.0 NA 0.0000 9999 7840 0 0 0
2019/10/23 17:28:01 BASE 8.46 4 10.60 1 0.3 62 -6.1 377 0 1001.1 NA 0.0000 9999 7780 0 0 0
2019/10/23 17:29:01 BASE 9.09 4 9.98 6 0.3 63 -6.0 369 0 1001.1 NA 0.0000 9999 7710 0 0 0
2019/10/23 17:30:01 BASE 9.52 4 10.03 6 0.3 63 -6.0 364 0 1001.1 NA 0.0000 9999 9480 21790 0 0
2019/10/23 17:31:01 BASE 9.31 4 10.03 6 0.2 63 -5.9 364 0 1001.1 NA 0.0000 9999 9380 0 0 0
2019/10/23 17:32:01 BASE 9.27 6 10.03 6 0.2 64 -5.9 366 0 1001.1 NA 0.0000 9999 8630 0 0 0
2019/10/23 17:33:01 BASE 9.49 6 10.03 6 0.2 63 -5.9 371 0 1001.1 NA 0.0000 9999 8690 0 0 0
2019/10/23 17:34:01 BASE 9.33 6 10.03 6 0.2 63 -6.0 375 0 1001.1 NA 0.0000 9999 7910 22670 0 0
2019/10/23 17:35:01 BASE 8.72 7 10.03 6 0.2 63 -6.0 381 0 1001.1 NA 0.0000 9999 8010 0 0 0
2019/10/23 17:36:01 BASE 8.61 6 10.03 6 0.2 63 -6.0 381 0 1001.1 NA 0.0000 9999 7840 0 0 0
2019/10/23 17:37:01 BASE 8.41 5 10.03 6 0.2 63 -6.1 378 0 1001.1 NA 0.0000 9999 7810 0 0 0
2019/10/23 17:38:01 BASE 8.18 3 10.03 6 0.2 63 -6.0 373 0 1001.1 NA 0.0000 9999 7610 0 0 0
2019/10/23 17:39:01 BASE 8.40 360 10.03 6 0.2 63 -6.0 367 0 1001.1 NA 0.0000 9999 4170 7710 0 0
2019/10/23 17:40:01 BASE 9.01 355 10.24 354 0.2 63 -6.0 360 0 1001.1 NA 0.0000 9999 4490 5580 7510 0
2019/10/23 17:41:01 BASE 9.37 349 10.24 354 0.2 63 -6.1 353 0 1001.1 NA 0.0000 9999 4300 7380 0 0
2019/10/23 17:42:01 BASE 9.31 346 10.34 349 0.2 62 -6.2 346 0 1001.1 NA 0.0000 9999 4230 5280 7280 0
2019/10/23 17:43:01 BASE 8.98 349 10.34 349 0.3 61 -6.4 343 0 1001.1 NA 0.0000 9999 4100 0 0 0
2019/10/23 17:44:01 BASE 9.06 353 10.39 350 0.3 60 -6.6 348 0 1001.1 NA 0.0000 9999 3940 0 0 0
2019/10/23 17:45:01 BASE 9.37 352 10.39 350 0.3 59 -6.8 360 0 1001.2 NA 0.0000 9999 3870 0 0 0
2019/10/23 17:46:01 BASE 8.84 352 10.39 350 0.3 58 -7.0 382 0 1001.2 NA 0.0000 9999 3670 0 0 0
2019/10/23 17:47:01 BASE 8.67 351 10.49 352 0.3 58 -7.1 399 0 1001.2 NA 0.0000 9999 3640 4100 0 0
2019/10/23 17:48:01 BASE 9.00 352 10.55 353 0.3 57 -7.2 416 0 1001.2 NA 0.0000 9999 3580 4400 0 0
2019/10/23 17:49:01 BASE 9.24 352 10.55 353 0.3 57 -7.3 414 0 1001.2 NA 0.0000 9999 3410 0 0 0
2019/10/23 17:50:01 BASE 9.05 345 10.55 353 0.3 56 -7.4 403 0 1001.3 NA 0.0000 9999 3480 4130 0 0
2019/10/23 17:51:01 BASE 9.23 347 10.55 353 0.3 56 -7.4 389 0 1001.3 NA 0.0000 9999 3970 0 0 0
2019/10/23 17:52:01 BASE 8.95 355 10.55 353 0.3 56 -7.5 375 0 1001.3 NA 0.0000 9999 3510 4000 0 0
2019/10/23 17:53:01 BASE 8.02 352 10.55 353 0.3 56 -7.4 368 0 1001.3 NA 0.0000 9999 3380 5380 9320 0
2019/10/23 17:54:01 BASE 7.84 352 10.55 353 0.3 57 -7.3 374 0 1001.3 NA 0.0000 9999 4560 9120 0 0
2019/10/23 17:55:01 BASE 7.89 356 10.55 353 0.3 57 -7.2 379 0 1001.3 NA 0.0000 9999 5320 9090 0 0
2019/10/23 17:56:01 BASE 7.59 358 10.55 353 0.3 57 -7.2 389 0 1001.3 NA 0.0000 9999 4230 9060 0 0
2019/10/23 17:57:01 BASE 7.60 351 10.55 353 0.3 57 -7.2 395 0 1001.3 NA 0.0000 9999 4170 0 0 0
2019/10/23 17:58:01 BASE 8.03 349 10.13 360 0.3 57 -7.2 401 0 1001.3 NA 0.0000 9999 4070 0 0 0
2019/10/23 17:59:01 BASE 8.53 357 10.03 1 0.3 57 -7.3 411 0 1001.2 NA 0.0000 9999 4040 0 0 0
2019/10/23 18:00:01 BASE 8.97 356 10.24 354 0.3 56 -7.4 409 0 1001.2 NA 0.0000 9999 3840 0 0 0
2019/10/23 18:01:01 BASE 9.43 355 10.44 360 0.3 56 -7.4 408 0 1001.2 NA 0.0000 9999 4170 0 0 0
2019/10/23 18:02:01 BASE 9.48 356 10.44 360 0.3 56 -7.5 414 0 1001.3 NA 0.0000 9999 5640 8960 0 0
2019/10/23 18:03:01 BASE 9.80 356 11.21 3 0.3 56 -7.5 415 0 1001.2 NA 0.0000 9999 4070 5810 0 0
2019/10/23 18:04:01 BASE 10.61 356 11.94 355 0.3 56 -7.4 417 0 1001.3 NA 0.0000 9999 4890 9150 0 0
2019/10/23 18:05:01 BASE 10.43 350 11.94 355 0.3 56 -7.5 423 0 1001.1 NA 0.0000 9999 3970 0 0 0
2019/10/23 18:06:01 BASE 9.90 352 11.94 355 0.3 55 -7.6 425 0 1001.3 NA 0.0000 9999 6760 0 0 0
2019/10/23 18:07:01 BASE 9.92 354 11.94 355 0.4 55 -7.5 426 0 1001.3 NA 0.0000 9999 3940 0 0 0
2019/10/23 18:08:01 BASE 9.64 355 11.94 355 0.4 55 -7.6 419 0 1001.3 NA 0.0000 9999 5640 6560 0 0
2019/10/23 18:09:01 BASE 9.38 359 11.94 355 0.4 55 -7.6 421 0 1001.3 NA 0.0000 9999 5350 6790 0 0
2019/10/23 18:10:01 BASE 9.92 1 11.94 355 0.4 56 -7.4 425 0 1001.3 NA 0.0000 9999 5380 9150 0 0
2019/10/23 18:11:01 BASE 10.39 360 11.94 355 0.4 57 -7.3 436 0 1001.3 NA 0.0000 9999 5510 6660 0 0
2019/10/23 18:12:01 BASE 10.20 349 11.94 355 0.3 57 -7.2 459 0 1001.3 NA 0.0000 9999 6500 0 0 0
2019/10/23 18:13:01 BASE 9.72 348 11.94 355 0.3 57 -7.1 430 0 1001.3 NA 0.0000 9999 6560 0 0 0
2019/10/23 18:14:01 BASE 9.54 357 11.47 2 0.3 57 -7.2 420 0 1001.3 NA 0.0000 9999 5510 6590 0 0
2019/10/23 18:15:01 BASE 9.32 5 11.47 2 0.4 57 -7.2 408 0 1001.3 NA 0.0000 9999 5320 6590 0 0
2019/10/23 18:16:01 BASE 9.73 3 11.47 353 0.4 57 -7.1 393 0 1001.3 NA 0.0000 9999 5220 6560 0 0
2019/10/23 18:17:01 BASE 10.35 355 11.47 1 0.4 57 -7.2 381 0 1001.3 NA 0.0000 9999 5280 6630 0 0
2019/10/23 18:18:01 BASE 10.10 355 11.47 1 0.4 57 -7.2 368 0 1001.4 NA 0.0000 9999 3120 3480 0 0
2019/10/23 18:19:01 BASE 9.98 353 11.47 1 0.4 57 -7.3 361 0 1001.3 NA 0.0000 9999 3180 0 0 0
2019/10/23 18:20:01 BASE 9.48 349 11.47 1 0.4 56 -7.4 360 0 1001.3 NA 0.0000 9999 3220 0 0 0
2019/10/23 18:21:01 BASE 8.67 347 11.47 1 0.4 55 -7.7 366 0 1001.4 NA 0.0000 9999 3250 0 0 0
2019/10/23 18:22:01 BASE 8.00 347 11.47 1 0.4 54 -7.8 381 0 1001.4 NA 0.0000 9999 3250 0 0 0
2019/10/23 18:23:00 BASE 7.35 357 11.47 1 0.3 54 -7.9 388 0 1001.4 NA 0.0000 9999 3220 0 0 0
2019/10/23 18:24:00 BASE 7.23 354 11.47 1 0.4 53 -8.0 384 0 1001.4 NA 0.0000 9999 3220 0 0 0
2019/10/23 18:25:00 BASE 7.34 342 11.47 1 0.3 53 -8.0 384 0 1001.4 NA 0.0000 9999 3180 22050 0 0
2019/10/23 18:26:01 BASE 7.43 345 11.47 1 0.3 54 -8.0 386 0 1001.4 NA 0.0000 9999 3220 0 0 0
2019/10/23 18:27:00 BASE 7.45 352 11.06 355 0.3 54 -7.9 374 0 1001.4 NA 0.0000 9999 3180 0 0 0
2019/10/23 18:28:01 BASE 8.40 358 11.06 355 0.3 54 -7.8 355 0 1001.3 NA 0.0000 9999 3180 0 0 0
2019/10/23 18:29:01 BASE 9.54 354 10.70 1 0.3 55 -7.8 339 0 1001.3 NA 0.0000 9999 3120 0 0 0
2019/10/23 18:30:01 BASE 10.17 357 11.88 5 0.3 55 -7.7 333 0 1001.3 NA 0.0000 9999 9420 0 0 0
2019/10/23 18:31:01 BASE 10.56 358 11.88 5 0.3 55 -7.7 336 0 1001.3 NA 0.0000 9999 9220 0 0 0
2019/10/23 18:32:01 BASE 10.98 353 12.60 360 0.3 55 -7.8 346 0 1001.2 NA 0.0000 9999 9190 0 0 0
2019/10/23 18:33:01 BASE 11.15 357 12.71 7 0.3 54 -7.8 357 0 1001.2 NA 0.0000 9999 3450 0 0 0
2019/10/23 18:34:01 BASE 11.33 1 12.71 7 0.3 54 -7.8 378 0 1001.2 NA 0.0000 9999 6500 9350 0 0
2019/10/23 18:35:01 BASE 12.03 4 13.27 5 0.3 54 -7.8 389 0 1001.2 NA 0.0000 9999 6530 9220 0 0
2019/10/23 18:36:01 BASE 12.57 5 13.84 3 0.3 54 -7.8 372 0 1001.1 NA 0.0000 9999 3480 6530 0 0
2019/10/23 18:37:01 BASE 12.79 6 13.84 3 0.3 54 -7.8 357 0 1001.1 NA 0.0000 9999 6500 0 0 0
2019/10/23 18:38:01 BASE 12.64 6 13.84 3 0.3 55 -7.7 353 0 1001.1 NA 0.0000 9999 6560 0 0 0
2019/10/23 18:39:01 BASE 12.95 5 13.84 7 0.3 55 -7.7 355 0 1001.1 NA 0.0000 9999 6460 0 0 0
2019/10/23 18:40:01 BASE 12.74 1 13.84 7 0.3 55 -7.7 362 0 1001.1 NA 0.0000 9999 6370 0 0 0
2019/10/23 18:41:01 BASE 12.35 1 13.84 7 0.3 55 -7.7 371 0 1001.1 NA 0.0000 9999 6330 0 0 0
2019/10/23 18:42:01 BASE 12.17 3 13.84 7 0.3 56 -7.5 375 0 1001.2 NA 0.0000 9999 3220 0 0 0
2019/10/23 18:43:01 BASE 11.74 3 13.84 7 0.3 56 -7.4 373 0 1001.1 NA 0.0000 9999 5970 0 0 0
2019/10/23 18:44:01 BASE 12.03 3 13.84 7 0.3 57 -7.2 374 0 1001.1 NA 0.0000 9999 11120 0 0 0
2019/10/23 18:45:01 BASE 12.17 1 13.84 7 0.3 58 -7.1 373 0 1001.2 NA 0.0000 9999 11060 0 0 0
2019/10/23 18:46:01 BASE 11.91 355 13.84 7 0.3 59 -6.9 373 0 1001.2 NA 0.0000 9999 11120 0 0 0
2019/10/23 18:47:01 BASE 11.77 352 13.84 7 0.3 59 -6.8 379 0 1001.2 NA 0.0000 9999 11120 0 0 0
2019/10/23 18:48:01 BASE 10.98 358 13.84 7 0.3 59 -6.8 387 0 1001.3 NA 0.0000 9999 11020 0 0 0
2019/10/23 18:49:01 BASE 10.67 6 13.38 1 0.2 59 -6.8 407 0 1001.2 NA 0.0000 9999 11090 0 0 0
2019/10/23 18:50:01 BASE 10.86 10 13.38 1 0.2 59 -6.9 401 0 1001.2 NA 0.0000 9999 6560 0 0 0
2019/10/23 18:51:01 BASE 11.01 10 13.38 1 0.3 58 -7.0 396 0 1001.2 NA 0.0000 9999 3220 6560 0 0
2019/10/23 18:52:01 BASE 10.69 11 13.38 1 0.3 57 -7.2 394 0 1001.2 NA 0.0000 9999 10990 0 0 0
2019/10/23 18:53:01 BASE 10.06 10 13.38 1 0.3 57 -7.2 394 0 1001.1 NA 0.0000 9999 3280 11020 0 0
2019/10/23 18:54:01 BASE 10.43 8 13.07 2 0.3 57 -7.3 387 0 1001.1 NA 0.0000 9999 10990 0 0 0
2019/10/23 18:55:01 BASE 11.06 10 12.45 293 0.3 57 -7.3 390 0 1001.1 NA 0.0000 9999 10960 0 0 0
2019/10/23 18:56:01 BASE 10.76 10 12.35 8 0.3 56 -7.4 390 0 1001.1 NA 0.0000 9999 10930 0 0 0
2019/10/23 18:57:01 BASE 10.59 10 12.35 8 0.3 56 -7.4 394 0 1000.8 NA 0.0000 9999 10990 0 0 0
2019/10/23 18:58:01 BASE 11.11 9 12.35 8 0.3 56 -7.4 401 0 1001.1 NA 0.0000 9999 11020 0 0 0
2019/10/23 18:59:01 BASE 11.17 7 12.35 8 0.3 56 -7.5 402 0 1001.1 NA 0.0000 9999 10860 22380 0 0
2019/10/23 19:00:01 BASE 10.65 7 12.35 8 0.3 56 -7.5 408 0 1001.1 NA 0.0000 9999 10760 0 0 0
2019/10/23 19:01:01 BASE 10.38 6 12.35 8 0.3 56 -7.4 414 0 1001.1 NA 0.0000 9999 10990 0 0 0
2019/10/23 19:02:01 BASE 10.74 5 12.35 8 0.3 57 -7.3 417 0 1001.1 NA 0.0000 9999 11120 0 0 0
2019/10/23 19:03:01 BASE 10.89 2 12.35 8 0.3 57 -7.2 387 0 1001.1 NA 0.0000 9999 11020 0 0 0
2019/10/23 19:04:01 BASE 10.77 0 12.35 8 0.3 58 -7.1 380 0 1001.1 NA 0.0000 9999 11090 0 0 0
2019/10/23 19:05:01 BASE 10.45 2 12.04 360 0.3 58 -7.0 409 0 1001.1 NA 0.0000 9999 11060 0 0 0
2019/10/23 19:06:01 BASE 10.59 359 12.04 360 0.2 59 -6.9 392 0 1001.1 NA 0.0000 9999 11120 0 0 0
2019/10/23 19:07:01 BASE 10.40 355 12.04 360 0.2 59 -6.9 388 0 1001.1 NA 0.0000 9999 11060 0 0 0
2019/10/23 19:08:01 BASE 9.98 358 12.04 360 0.2 59 -6.8 440 0 1000.1 NA 0.0000 9999 11020 0 0 0
2019/10/23 19:09:01 BASE 10.23 360 12.04 360 0.2 59 -6.9 389 0 1001.1 NA 0.0000 9999 11160 0 0 0
2019/10/23 19:10:01 BASE 10.61 356 12.04 360 0.3 58 -7.0 334 0 1001.0 NA 0.0000 9999 11120 0 0 0
2019/10/23 19:11:01 BASE 10.74 355 12.04 360 0.3 58 -7.1 328 0 1001.0 NA 0.0000 9999 11090 0 0 0
2019/10/23 19:12:01 BASE 11.17 356 13.12 360 0.3 57 -7.2 392 0 1001.0 NA 0.0000 9999 0 0 0 0
2019/10/23 19:13:01 BASE 10.74 352 13.12 360 0.3 57 -7.3 329 0 1001.0 NA 0.0000 9999 0 0 0 0
2019/10/23 19:14:01 BASE 9.11 350 13.12 360 0.3 56 -7.4 302 0 1001.1 NA 0.0000 9999 0 0 0 0
2019/10/23 19:15:01 BASE 8.28 352 13.12 360 0.3 57 -7.3 321 0 1001.0 NA 0.0000 9999 10960 0 0 0
2019/10/23 19:16:01 BASE 7.92 351 13.12 360 0.3 57 -7.2 347 0 1001.0 NA 0.0000 9999 0 0 0 0
2019/10/23 19:17:01 BASE 7.41 347 13.12 360 0.3 58 -7.1 285 0 1001.0 NA 0.0000 9999 11090 0 0 0
2019/10/23 19:18:01 BASE 7.18 352 13.12 360 0.2 58 -7.0 284 0 1001.0 NA 0.0000 9999 10960 0 0 0
2019/10/23 19:19:01 BASE 7.89 357 13.12 360 0.2 59 -6.9 332 0 1001.0 NA 0.0000 9999 11160 0 0 0
2019/10/23 19:20:01 BASE 10.80 355 14.25 8 0.2 59 -6.9 275 0 1000.9 NA 0.0000 9999 11020 0 0 0
2019/10/23 19:21:01 BASE 13.13 353 14.97 2 0.2 59 -7.0 269 0 1000.9 NA 0.0000 9999 11190 0 0 0
2019/10/23 19:22:01 BASE 13.15 356 14.97 2 0.2 58 -7.0 273 0 1000.9 NA 0.0000 9999 11020 0 0 0
2019/10/23 19:23:01 BASE 13.24 2 15.28 3 0.2 59 -7.0 276 0 1000.9 NA 0.0000 9999 0 0 0 0
2019/10/23 19:24:01 BASE 13.79 5 15.38 2 0.1 59 -7.0 280 0 1000.9 NA 0.0000 9999 11160 0 0 0
2019/10/23 19:25:01 BASE 13.68 6 15.38 2 0.1 59 -7.0 278 0 1000.9 NA 0.0000 9999 0 0 0 0
2019/10/23 19:26:01 BASE 13.23 5 15.38 2 0.1 60 -6.9 281 0 1000.9 NA 0.0000 9999 11160 0 0 0
2019/10/23 19:27:01 BASE 13.68 5 16.05 1 0.1 60 -6.8 286 0 1000.9 NA 0.0000 9999 11090 0 0 0
2019/10/23 19:28:01 BASE 14.05 3 16.05 1 0.1 60 -6.8 295 0 1000.9 NA 0.0000 9999 11020 0 0 0
2019/10/23 19:29:01 BASE 13.89 3 16.05 1 0.1 60 -6.9 286 0 1000.9 NA 0.0000 9999 11060 0 0 0
2019/10/23 19:30:00 BASE 13.63 5 16.05 1 0.1 60 -6.9 293 0 1000.9 NA 0.0000 9999 11060 0 0 0
2019/10/23 19:31:00 BASE 13.99 7 16.05 1 0.1 60 -6.9 358 0 1000.9 NA 0.0000 9999 11020 0 0 0
2019/10/23 19:32:01 BASE 14.61 7 16.05 1 0.1 60 -6.9 459 0 1000.9 NA 0.0000 9999 11090 0 0 0
2019/10/23 19:33:00 BASE 14.45 6 16.05 1 0.1 60 -6.8 566 0 1000.9 NA 0.0000 9999 11020 0 0 0
2019/10/23 19:34:01 BASE 13.88 8 16.05 1 0.1 60 -6.7 551 0 1000.9 NA 0.0000 9999 11060 0 0 0
2019/10/23 19:35:00 BASE 14.51 11 16.36 13 0.2 60 -6.7 494 0 1000.8 NA 0.0000 9999 10960 0 0 0
2019/10/23 19:36:01 BASE 14.80 10 16.36 13 0.2 60 -6.7 517 0 1000.9 NA 0.0000 9999 10930 0 0 0
2019/10/23 19:37:01 BASE 13.96 9 17.03 7 0.2 60 -6.6 458 0 1000.9 NA 0.0000 9999 10930 0 0 0
2019/10/23 19:38:01 BASE 14.86 7 17.29 6 0.2 60 -6.6 438 0 1000.9 NA 0.0000 9999 11160 0 0 0
2019/10/23 19:39:00 BASE 15.79 7 17.29 6 0.2 61 -6.5 475 0 1001.0 NA 0.0000 9999 0 0 0 0
2019/10/23 19:40:00 BASE 15.07 8 17.29 6 0.2 61 -6.4 472 0 1001.0 NA 0.0000 9999 11290 0 0 0
2019/10/23 19:41:00 BASE 15.19 11 17.29 14 0.3 61 -6.4 460 0 1001.0 NA 0.0000 9999 0 0 0 0
2019/10/23 19:42:00 BASE 15.99 14 18.16 15 0.3 61 -6.4 458 0 1000.9 NA 0.0000 9999 11350 0 0 0
2019/10/23 19:43:00 BASE 16.14 14 18.16 15 0.3 61 -6.4 449 0 1000.9 NA 0.0000 9999 0 0 0 0
2019/10/23 19:44:00 BASE 15.73 14 18.16 15 0.2 61 -6.5 452 0 1000.9 NA 0.0000 9999 21200 0 0 0
2019/10/23 19:45:00 BASE 15.04 14 18.16 15 0.2 60 -6.6 410 0 1000.9 NA 0.0000 9999 0 0 0 0
2019/10/23 19:46:01 BASE 15.21 15 18.16 15 0.2 60 -6.6 387 0 1000.9 NA 0.0000 9999 0 0 0 0
2019/10/23 19:47:01 BASE 15.41 15 18.16 15 0.1 60 -6.7 363 0 1000.9 NA 0.0000 9999 0 0 0 0
2019/10/23 19:48:00 BASE 15.28 16 18.16 15 0.1 60 -6.7 335 0 1000.9 NA 0.0000 9999 0 0 0 0
2019/10/23 19:49:00 BASE 15.29 17 18.16 15 0.0 61 -6.7 344 0 1000.9 NA 0.0000 9999 0 0 0 0
2019/10/23 19:50:00 BASE 15.24 18 18.16 15 -0.0 61 -6.6 422 0 1000.8 NA 0.0000 9999 0 0 0 0
2019/10/23 19:51:00 BASE 15.95 19 18.16 15 -0.1 61 -6.6 297 0 1000.8 NA 0.0000 9999 0 0 0 0
2019/10/23 19:52:00 BASE 16.52 18 17.80 17 -0.1 62 -6.5 298 0 1000.8 NA 0.0000 9999 0 0 0 0
2019/10/23 19:53:00 BASE 16.51 17 17.80 17 -0.1 62 -6.5 290 0 1000.8 NA 0.0000 9999 0 0 0 0
2019/10/23 19:54:00 BASE 16.29 18 17.95 17 -0.1 62 -6.5 308 0 1000.8 NA 0.0000 9999 0 0 0 0
2019/10/23 19:55:00 BASE 16.35 18 18.42 16 -0.1 62 -6.5 320 0 1000.8 NA 0.0000 9999 0 0 0 0
2019/10/23 19:56:00 BASE 16.17 18 18.42 16 -0.2 62 -6.5 284 0 1000.8 NA 0.0000 9999 0 0 0 0
2019/10/23 19:57:00 BASE 16.57 19 19.50 20 -0.2 62 -6.5 364 0 1000.8 NA 0.0000 9999 0 0 0 0
2019/10/23 19:58:00 BASE 17.94 19 20.17 17 -0.1 62 -6.5 302 0 1000.7 NA 0.0000 9999 0 0 0 0
2019/10/23 19:59:00 BASE 18.17 17 20.17 17 -0.1 62 -6.5 276 0 1000.7 NA 0.0000 9999 11710 0 0 0
2019/10/23 20:00:00 BASE 17.52 17 20.17 17 -0.1 62 -6.6 279 0 1000.7 NA 0.0000 9999 11710 0 0 0
2019/10/23 20:01:00 BASE 17.77 18 20.17 17 -0.1 61 -6.6 283 0 1000.7 NA 0.0000 9999 0 0 0 0
2019/10/23 20:02:00 BASE 18.21 18 20.17 17 -0.1 61 -6.7 304 0 1000.7 NA 0.0000 9999 11710 0 0 0
2019/10/23 20:03:00 BASE 17.97 18 20.17 17 -0.1 61 -6.8 280 0 1000.8 NA 0.0000 9999 11750 0 0 0
2019/10/23 20:04:00 BASE 18.43 16 20.17 17 -0.1 60 -6.9 281 0 1000.7 NA 0.0000 9999 11710 0 0 0
2019/10/23 20:05:00 BASE 17.98 17 20.17 17 -0.1 60 -6.9 268 0 1000.8 NA 0.0000 9999 0 0 0 0
2019/10/23 20:06:00 BASE 16.72 18 20.17 17 -0.1 60 -7.0 275 0 1000.8 NA 0.0000 9999 11710 0 0 0
2019/10/23 20:07:00 BASE 16.49 18 20.17 17 -0.1 60 -6.9 265 0 1000.8 NA 0.0000 9999 11680 0 0 0
2019/10/23 20:08:00 BASE 17.16 19 19.81 17 -0.2 60 -6.9 241 0 1000.8 NA 0.0000 9999 11610 0 0 0
2019/10/23 20:09:00 BASE 18.63 20 20.37 15 -0.2 61 -6.9 226 0 1000.7 NA 0.0000 9999 11580 0 0 0
2019/10/23 20:10:00 BASE 18.73 20 20.37 15 -0.2 61 -6.9 220 0 1000.8 NA 0.0000 9999 11610 0 0 0
2019/10/23 20:11:00 BASE 18.17 20 20.37 15 -0.2 61 -6.9 218 0 1000.8 NA 0.0000 9999 11650 0 0 0
2019/10/23 20:12:00 BASE 18.46 22 20.37 15 -0.2 61 -6.9 217 0 1000.8 NA 0.0000 9999 11680 0 0 0
2019/10/23 20:13:00 BASE 18.72 22 20.83 22 -0.2 60 -6.9 220 0 1000.8 NA 0.0000 9999 0 0 0 0
2019/10/23 20:14:00 BASE 18.81 22 20.83 22 -0.2 60 -7.0 230 0 1000.8 NA 0.0000 9999 11810 0 0 0
2019/10/23 20:15:00 BASE 17.36 22 20.83 22 -0.2 60 -7.0 235 0 1000.9 NA 0.0000 9999 11650 0 0 0
2019/10/23 20:16:00 BASE 16.55 21 20.83 22 -0.2 60 -7.0 236 0 1000.8 NA 0.0000 9999 11710 0 0 0
2019/10/23 20:17:00 BASE 17.03 21 20.83 22 -0.2 60 -7.0 238 0 1000.8 NA 0.0000 9999 11680 0 0 0
2019/10/23 20:18:00 BASE 17.24 21 20.83 22 -0.2 61 -6.9 254 0 1000.8 NA 0.0000 9999 11650 0 0 0
2019/10/23 20:19:00 BASE 17.36 22 20.83 22 -0.2 61 -6.9 279 0 1000.8 NA 0.0000 9999 11650 0 0 0
2019/10/23 20:20:00 BASE 17.77 22 20.83 22 -0.3 61 -6.8 291 0 1000.8 NA 0.0000 9999 11610 0 0 0
2019/10/23 20:21:00 BASE 17.79 21 20.83 22 -0.3 62 -6.8 328 0 1000.8 NA 0.0000 9999 11580 0 0 0
2019/10/23 20:22:00 BASE 17.34 20 20.83 22 -0.3 62 -6.7 308 0 1000.8 NA 0.0000 9999 11650 0 0 0
2019/10/23 20:23:00 BASE 17.91 21 20.58 20 -0.3 62 -6.7 289 0 1000.8 NA 0.0000 9999 11610 0 0 0
2019/10/23 20:24:00 BASE 18.19 22 19.81 21 -0.3 62 -6.7 302 0 1000.9 NA 0.0000 9999 11650 0 0 0
2019/10/23 20:25:00 BASE 17.51 21 19.81 21 -0.3 62 -6.7 282 0 1000.8 NA 0.0000 9999 11580 0 0 0
2019/10/23 20:26:00 BASE 17.24 22 19.81 21 -0.3 62 -6.6 272 0 1000.9 NA 0.0000 9999 11580 0 0 0
2019/10/23 20:27:00 BASE 17.65 22 19.81 21 -0.3 62 -6.6 259 0 1000.9 NA 0.0000 9999 11610 0 0 0
2019/10/23 20:28:00 BASE 17.50 23 19.81 21 -0.3 62 -6.6 251 0 1000.9 NA 0.0000 9999 11520 0 0 0
2019/10/23 20:29:00 BASE 17.72 24 19.81 21 -0.3 62 -6.7 266 0 1000.9 NA 0.0000 9999 11610 0 0 0
2019/10/23 20:30:00 BASE 17.85 23 19.81 21 -0.3 62 -6.8 296 0 1000.9 NA 0.0000 9999 11580 0 0 0
2019/10/23 20:31:00 BASE 16.84 22 19.81 21 -0.3 61 -6.9 327 0 1000.9 NA 0.0000 9999 11650 0 0 0
2019/10/23 20:32:00 BASE 16.41 22 19.81 21 -0.2 61 -6.9 322 0 1000.9 NA 0.0000 9999 11610 0 0 0
2019/10/23 20:33:00 BASE 16.71 24 19.70 19 -0.2 60 -7.0 304 0 1000.9 NA 0.0000 9999 11550 0 0 0
2019/10/23 20:34:00 BASE 16.74 24 19.70 19 -0.2 60 -7.0 270 0 1000.9 NA 0.0000 9999 11680 0 0 0
2019/10/23 20:35:00 BASE 16.66 24 19.70 19 -0.2 60 -7.1 271 0 1000.9 NA 0.0000 9999 11550 0 0 0
2019/10/23 20:36:00 BASE 16.98 24 19.81 21 -0.2 60 -7.0 288 0 1000.9 NA 0.0000 9999 11580 0 0 0
2019/10/23 20:37:00 BASE 16.73 25 19.81 21 -0.3 60 -7.0 266 0 1000.9 NA 0.0000 9999 11550 0 0 0
2019/10/23 20:38:00 BASE 16.68 24 19.86 20 -0.3 61 -6.9 262 0 1000.9 NA 0.0000 9999 11480 0 0 0
2019/10/23 20:39:00 BASE 17.01 25 19.86 20 -0.3 61 -6.9 254 0 1000.9 NA 0.0000 9999 11480 0 0 0
2019/10/23 20:40:00 BASE 17.08 25 19.86 20 -0.3 61 -6.9 247 0 1000.9 NA 0.0000 9999 11390 0 0 0
2019/10/23 20:41:00 BASE 17.16 25 19.86 20 -0.3 61 -6.9 243 0 1000.9 NA 0.0000 9999 11550 0 0 0
2019/10/23 20:42:00 BASE 17.52 24 20.78 22 -0.3 61 -6.9 238 0 1000.0 NA 0.0000 9999 11480 0 0 0
2019/10/23 20:43:00 BASE 17.22 25 20.78 22 -0.3 61 -6.9 242 0 1000.9 NA 0.0000 9999 11520 0 0 0
2019/10/23 20:44:00 BASE 16.81 26 20.78 22 -0.3 61 -6.9 239 0 1000.9 NA 0.0000 9999 11550 0 0 0
2019/10/23 20:45:00 BASE 16.84 25 20.78 22 -0.3 61 -6.9 235 0 1001.0 NA 0.0000 9999 11420 0 0 0
2019/10/23 20:46:00 BASE 16.56 25 20.78 22 -0.3 61 -6.9 230 0 1001.0 NA 0.0000 9999 11550 0 0 0
2019/10/23 20:47:00 BASE 16.78 25 20.78 22 -0.3 61 -6.9 244 0 1001.0 NA 0.0000 9999 11520 0 0 0
2019/10/23 20:48:00 BASE 17.14 26 20.78 22 -0.3 61 -6.9 237 0 1001.0 NA 0.0000 9999 11550 0 0 0
2019/10/23 20:49:01 BASE 16.99 25 20.78 22 -0.3 61 -6.9 222 0 1001.0 NA 0.0000 9999 11520 0 0 0
2019/10/23 20:50:01 BASE 16.40 26 20.78 22 -0.3 61 -6.9 218 0 1001.0 NA 0.0000 9999 11650 0 0 0
2019/10/23 20:51:01 BASE 16.89 28 20.78 22 -0.3 61 -6.9 226 0 1001.1 NA 0.0000 9999 11610 0 0 0
2019/10/23 20:52:01 BASE 17.11 27 19.70 25 -0.3 61 -7.0 224 0 1001.0 NA 0.0000 9999 11580 0 0 0
2019/10/23 20:53:01 BASE 16.44 25 19.65 27 -0.3 61 -7.0 235 0 1001.1 NA 0.0000 9999 11480 0 0 0
2019/10/23 20:54:01 BASE 16.31 25 19.65 27 -0.3 61 -6.9 223 0 1001.1 NA 0.0000 9999 11520 0 0 0
2019/10/23 20:55:01 BASE 15.88 25 19.65 27 -0.3 61 -6.9 227 0 1001.1 NA 0.0000 9999 11520 0 0 0
2019/10/23 20:56:01 BASE 15.57 25 19.65 27 -0.4 61 -6.9 237 0 1001.1 NA 0.0000 9999 11480 0 0 0
2019/10/23 20:57:01 BASE 15.55 25 19.65 27 -0.4 62 -6.8 245 0 1001.1 NA 0.0000 9999 11520 0 0 0
2019/10/23 20:58:01 BASE 15.79 26 19.65 27 -0.4 62 -6.8 225 0 1001.1 NA 0.0000 9999 11480 0 0 0
2019/10/23 20:59:01 BASE 16.27 26 19.65 27 -0.4 62 -6.8 219 0 1001.1 NA 0.0000 9999 11550 0 0 0
2019/10/23 21:00:01 BASE 16.21 24 19.65 27 -0.4 62 -6.7 215 0 1001.1 NA 0.0000 9999 11520 0 0 0
2019/10/23 21:01:01 BASE 16.33 24 19.65 27 -0.4 62 -6.7 216 0 1001.1 NA 0.0000 9999 11550 0 0 0
2019/10/23 21:02:01 BASE 15.93 24 18.88 27 -0.4 62 -6.7 223 0 1001.1 NA 0.0000 9999 11580 0 0 0
2019/10/23 21:03:01 BASE 15.34 24 18.88 27 -0.4 62 -6.7 220 0 1001.1 NA 0.0000 9999 11480 0 0 0
2019/10/23 21:04:01 BASE 15.78 23 18.88 27 -0.4 62 -6.7 218 0 1001.1 NA 0.0000 9999 11550 0 0 0
2019/10/23 21:05:01 BASE 16.13 23 18.88 27 -0.4 63 -6.6 217 0 1001.1 NA 0.0000 9999 11520 0 0 0
2019/10/23 21:06:01 BASE 16.85 26 19.91 21 -0.4 63 -6.6 202 0 1001.1 NA 0.0000 9999 11520 0 0 0
2019/10/23 21:07:01 BASE 17.57 27 20.06 21 -0.4 62 -6.7 198 0 1001.1 NA 0.0000 9999 11610 0 0 0
2019/10/23 21:08:01 BASE 16.42 25 20.06 21 -0.3 62 -6.7 196 0 1001.2 NA 0.0000 9999 11480 0 0 0
2019/10/23 21:09:01 BASE 16.05 27 20.06 21 -0.3 62 -6.8 195 0 1001.2 NA 0.0000 9999 11520 0 0 0
2019/10/23 21:10:01 BASE 16.39 28 20.06 21 -0.3 61 -6.8 193 0 1001.2 NA 0.0000 9999 11520 0 0 0
2019/10/23 21:11:01 BASE 15.92 27 20.06 21 -0.3 61 -6.8 192 0 1001.2 NA 0.0000 9999 11550 0 0 0
2019/10/23 21:12:01 BASE 15.78 27 20.06 21 -0.3 62 -6.8 188 0 1001.2 NA 0.0000 9999 11550 0 0 0
2019/10/23 21:13:01 BASE 16.14 27 20.06 21 -0.3 62 -6.7 184 0 1001.2 NA 0.0000 9999 11580 0 0 0
2019/10/23 21:14:01 BASE 16.71 28 20.06 21 -0.3 62 -6.7 178 0 1001.1 NA 0.0000 9999 11580 0 0 0
2019/10/23 21:15:01 BASE 16.18 28 20.06 21 -0.3 62 -6.6 174 0 1001.1 NA 0.0000 9999 11580 0 0 0
2019/10/23 21:16:01 BASE 15.76 27 20.06 21 -0.3 62 -6.6 170 0 1001.2 NA 0.0000 9999 11520 0 0 0
2019/10/23 21:17:01 BASE 15.93 28 19.24 25 -0.3 62 -6.7 164 0 1001.1 NA 0.0000 9999 11520 0 0 0
2019/10/23 21:18:01 BASE 15.87 30 19.24 25 -0.3 62 -6.8 161 0 1001.1 NA 0.0000 9999 11520 0 0 0
2019/10/23 21:19:01 BASE 16.34 31 19.24 25 -0.3 62 -6.8 159 0 1001.1 NA 0.0000 9999 11520 0 0 0
2019/10/23 21:20:01 BASE 16.60 29 19.24 25 -0.4 61 -6.9 157 0 1001.1 NA 0.0000 9999 11610 0 0 0
2019/10/23 21:21:01 BASE 16.60 29 19.24 25 -0.4 61 -6.9 154 0 1001.1 NA 0.0000 9999 11650 0 0 0
2019/10/23 21:22:01 BASE 16.08 29 19.24 25 -0.4 61 -7.0 152 0 1001.2 NA 0.0000 9999 11680 0 0 0
2019/10/23 21:23:01 BASE 15.18 28 19.24 25 -0.4 61 -6.9 148 0 1001.2 NA 0.0000 9999 11610 0 0 0
2019/10/23 21:24:01 BASE 15.21 27 18.78 28 -0.5 62 -6.9 146 0 1001.1 NA 0.0000 9999 11680 0 0 0
2019/10/23 21:25:01 BASE 15.96 27 18.78 28 -0.5 62 -6.9 145 0 1001.2 NA 0.0000 9999 11650 0 0 0
2019/10/23 21:26:01 BASE 15.94 29 18.78 28 -0.5 62 -6.9 143 0 1001.2 NA 0.0000 9999 11680 0 0 0
2019/10/23 21:27:01 BASE 14.93 29 18.78 28 -0.5 62 -6.9 141 0 1001.2 NA 0.0000 9999 11780 0 0 0
2019/10/23 21:28:01 BASE 15.05 27 18.78 28 -0.5 62 -6.9 139 0 1001.2 NA 0.0000 9999 11750 0 0 0
2019/10/23 21:29:01 BASE 15.39 28 18.16 32 -0.5 62 -6.9 138 0 1001.2 NA 0.0000 9999 11710 0 0 0
2019/10/23 21:30:01 BASE 15.02 28 18.16 32 -0.5 62 -6.9 138 0 1001.2 NA 0.0000 9999 11780 0 0 0
2019/10/23 21:31:00 BASE 15.48 27 18.21 24 -0.5 62 -6.9 139 0 1001.1 NA 0.0000 9999 11750 0 0 0
2019/10/23 21:32:01 BASE 15.94 28 18.21 24 -0.5 62 -6.9 142 0 1001.2 NA 0.0000 9999 11710 0 0 0
2019/10/23 21:33:00 BASE 15.17 28 18.21 24 -0.4 61 -7.0 153 0 1001.2 NA 0.0000 9999 11680 0 0 0
2019/10/23 21:34:01 BASE 14.88 28 18.21 24 -0.4 61 -7.0 161 0 1001.2 NA 0.0000 9999 11780 0 0 0
2019/10/23 21:35:00 BASE 15.02 28 18.21 24 -0.4 61 -7.1 157 0 1001.2 NA 0.0000 9999 11750 0 0 0
2019/10/23 21:36:01 BASE 15.44 26 18.21 24 -0.3 60 -7.1 150 0 1001.1 NA 0.0000 9999 11710 0 0 0
2019/10/23 21:37:00 BASE 15.66 26 18.21 24 -0.3 60 -7.1 153 0 1001.2 NA 0.0000 9999 11710 0 0 0
2019/10/23 21:38:01 BASE 15.47 27 18.21 24 -0.3 60 -7.1 152 0 1001.2 NA 0.0000 9999 11780 0 0 0
2019/10/23 21:39:01 BASE 15.25 27 18.21 24 -0.3 60 -7.1 159 0 1001.2 NA 0.0000 9999 11840 0 0 0
2019/10/23 21:40:00 BASE 15.34 27 18.21 24 -0.3 60 -7.1 166 0 1001.2 NA 0.0000 9999 11780 0 0 0
2019/10/23 21:41:01 BASE 15.52 28 17.85 24 -0.3 60 -7.1 175 0 1001.2 NA 0.0000 9999 11780 0 0 0
2019/10/23 21:42:01 BASE 15.20 27 17.85 24 -0.3 60 -7.1 190 0 1001.2 NA 0.0000 9999 11780 0 0 0
2019/10/23 21:43:00 BASE 15.12 28 17.85 24 -0.3 60 -7.1 219 0 1001.2 NA 0.0000 9999 11780 0 0 0
2019/10/23 21:44:01 BASE 15.05 30 17.85 24 -0.3 60 -7.1 213 0 1001.2 NA 0.0000 9999 11780 0 0 0
2019/10/23 21:45:00 BASE 15.26 27 17.70 28 -0.3 60 -7.1 220 0 1001.2 NA 0.0000 9999 11750 0 0 0
2019/10/23 21:46:01 BASE 15.23 27 17.70 28 -0.3 60 -7.1 205 0 1001.1 NA 0.0000 9999 11780 0 0 0
2019/10/23 21:47:00 BASE 15.22 28 18.11 27 -0.3 60 -7.0 244 0 1001.2 NA 0.0000 9999 11810 0 0 0
2019/10/23 21:48:01 BASE 15.57 29 18.11 27 -0.2 60 -7.0 246 0 1001.1 NA 0.0000 9999 11810 0 0 0
2019/10/23 21:49:00 BASE 15.88 29 18.11 27 -0.2 60 -7.0 240 0 1001.1 NA 0.0000 9999 11810 0 0 0
2019/10/23 21:50:00 BASE 15.89 28 18.11 27 -0.2 60 -6.9 234 0 1001.2 NA 0.0000 9999 0 0 0 0
2019/10/23 21:51:01 BASE 15.54 27 18.11 27 -0.2 60 -6.9 226 0 1001.2 NA 0.0000 9999 11840 0 0 0
2019/10/23 21:52:00 BASE 15.97 28 18.11 27 -0.2 60 -6.9 222 0 1001.2 NA 0.0000 9999 11880 0 0 0
2019/10/23 21:53:00 BASE 16.24 29 18.11 27 -0.2 60 -6.9 216 0 1001.2 NA 0.0000 9999 11810 0 0 0
2019/10/23 21:54:01 BASE 15.60 28 18.11 27 -0.1 60 -6.9 210 0 1001.2 NA 0.0000 9999 11910 0 0 0
2019/10/23 21:55:00 BASE 15.23 27 18.11 27 -0.1 60 -6.9 203 0 1001.2 NA 0.0000 9999 11840 0 0 0
2019/10/23 21:56:01 BASE 15.38 28 18.11 27 -0.1 60 -6.9 199 0 1001.2 NA 0.0000 9999 11840 0 0 0
2019/10/23 21:57:00 BASE 15.49 28 17.44 24 -0.1 60 -6.9 195 0 1001.2 NA 0.0000 9999 11840 0 0 0
2019/10/23 21:58:01 BASE 14.99 27 17.44 24 -0.1 60 -6.9 191 0 1001.2 NA 0.0000 9999 11840 0 0 0
2019/10/23 21:59:00 BASE 15.12 27 17.44 24 -0.1 60 -6.9 188 0 1001.2 NA 0.0000 9999 0 0 0 0
2019/10/23 22:00:00 BASE 15.86 28 17.44 24 -0.1 60 -6.9 184 0 1001.2 NA 0.0000 9999 0 0 0 0
2019/10/23 22:01:00 BASE 16.09 27 17.49 29 -0.1 61 -6.8 181 0 1001.2 NA 0.0000 9999 11880 0 0 0
2019/10/23 22:02:00 BASE 15.53 26 17.49 29 -0.1 61 -6.8 178 0 1001.2 NA 0.0000 9999 0 0 0 0
2019/10/23 22:03:00 BASE 14.90 27 17.49 29 -0.1 61 -6.8 175 0 1001.2 NA 0.0000 9999 11780 0 0 0
2019/10/23 22:04:00 BASE 15.56 29 17.65 28 -0.1 61 -6.8 173 0 1001.1 NA 0.0000 9999 0 0 0 0
2019/10/23 22:05:01 BASE 16.21 28 17.65 28 -0.1 61 -6.8 170 0 1001.2 NA 0.0000 9999 0 0 0 0
2019/10/23 22:06:01 BASE 15.95 27 17.85 24 -0.1 61 -6.8 168 0 1001.1 NA 0.0000 9999 0 0 0 0
2019/10/23 22:11:29 BASE M M M M -0.1 61 -6.7 162 0 M NA 0.0000 M 0 0 0 0
2019/10/23 22:11:33 BASE M M M M -0.1 61 -6.7 162 0 M NA 0.0000 M 0 0 0 0
2019/10/23 22:11:38 BASE M M M M -0.1 61 -6.7 M M M NA 0.0000 M M M M M
2019/10/23 22:12:01 BASE M M M M -0.1 61 -6.7 155 0 M NA 0.0000 9999 0 0 0 0
2019/10/23 22:13:00 BASE 15.60 24 M M -0.1 61 -6.7 152 0 1001.2 NA 0.0000 9999 0 0 0 0
2019/10/23 22:14:01 BASE 15.44 24 M M -0.1 61 -6.7 150 0 1001.2 NA 0.0000 9999 0 0 0 0
2019/10/23 22:15:00 BASE 15.06 25 M M -0.1 61 -6.7 148 0 1001.2 NA 0.0000 9999 0 0 0 0
2019/10/23 22:16:00 BASE 15.36 26 M M -0.2 62 -6.7 147 0 1001.2 NA 0.0000 9999 0 0 0 0
2019/10/23 22:17:00 BASE 15.70 26 M M -0.2 62 -6.7 145 0 1001.2 NA 0.0000 9999 0 0 0 0
2019/10/23 22:18:00 BASE 15.94 27 M M -0.2 62 -6.7 143 0 1001.2 NA 0.0000 9999 0 0 0 0
2019/10/23 22:19:00 BASE 15.72 28 17.75 30 -0.2 61 -6.8 141 0 1001.2 NA 0.0000 9999 0 0 0 0
2019/10/23 22:20:00 BASE 15.18 28 17.75 30 -0.2 61 -6.8 139 0 1000.5 NA 0.0000 9999 0 0 0 0
2019/10/23 22:21:00 BASE 14.91 29 17.75 30 -0.1 60 -6.9 137 0 1001.3 NA 0.0000 9999 0 0 0 0
2019/10/23 22:22:00 BASE 14.77 29 17.75 30 -0.1 60 -6.9 135 0 1001.3 NA 0.0000 9999 0 0 0 0
2019/10/23 22:23:00 BASE 14.61 29 17.44 28 -0.1 60 -7.0 133 0 1001.3 NA 0.0000 9999 0 0 0 0
2019/10/23 22:24:01 BASE 14.99 29 17.44 28 -0.1 60 -7.0 130 0 1001.3 NA 0.0000 9999 0 0 0 0
2019/10/23 22:25:00 BASE 15.50 28 17.44 28 -0.1 60 -7.0 128 0 1001.3 NA 0.0000 9999 0 0 0 0
2019/10/23 22:26:00 BASE 15.30 28 17.44 28 -0.2 60 -7.0 126 0 1001.3 NA 0.0000 9999 0 0 0 0
2019/10/23 22:27:00 BASE 14.68 27 17.39 28 -0.2 60 -7.0 123 0 1001.3 NA 0.0000 9999 0 0 0 0
2019/10/23 22:28:00 BASE 14.34 28 17.39 28 -0.2 61 -6.9 121 0 1001.3 NA 0.0000 9999 0 0 0 0
2019/10/23 22:29:00 BASE 14.55 29 17.39 28 -0.2 61 -6.9 118 0 1001.3 NA 0.0000 9999 0 0 0 0
2019/10/23 22:30:00 BASE 14.85 29 17.39 28 -0.2 61 -6.9 116 0 1001.3 NA 0.0000 9999 0 0 0 0
2019/10/23 22:31:00 BASE 14.86 28 17.39 28 -0.3 61 -6.8 114 0 1001.3 NA 0.0000 9999 0 0 0 0
2019/10/23 22:32:00 BASE 14.25 27 17.39 28 -0.2 61 -6.8 112 0 1001.3 NA 0.0000 9999 0 0 0 0
2019/10/23 22:33:00 BASE 14.43 27 17.39 28 -0.2 61 -6.9 109 0 1001.3 NA 0.0000 9999 0 0 0 0
2019/10/23 22:34:00 BASE 15.27 28 17.39 28 -0.2 61 -6.9 107 0 1001.3 NA 0.0000 9999 0 0 0 0
2019/10/23 22:35:00 BASE 15.28 27 16.77 26 -0.2 60 -6.9 105 0 1001.3 NA 0.0000 9999 0 0 0 0
2019/10/23 22:36:00 BASE 15.19 27 16.87 29 -0.2 60 -6.9 102 0 1001.3 NA 0.0000 9999 0 0 0 0
2019/10/23 22:37:00 BASE 15.23 29 16.87 29 -0.1 60 -7.0 100 0 1001.3 NA 0.0000 9999 0 0 0 0
2019/10/23 22:38:00 BASE 15.34 28 16.87 29 -0.1 60 -7.1 98 0 1001.3 NA 0.0000 9999 0 0 0 0
2019/10/23 22:39:00 BASE 15.27 27 16.87 29 -0.1 59 -7.1 95 0 1001.3 NA 0.0000 9999 0 0 0 0
2019/10/23 22:40:00 BASE 14.63 27 16.87 29 -0.1 59 -7.1 93 0 1001.4 NA 0.0000 9999 0 0 0 0
2019/10/23 22:41:00 BASE 14.28 26 16.87 29 -0.2 60 -7.1 90 0 1001.4 NA 0.0000 9999 0 0 0 0
2019/10/23 22:42:00 BASE 14.47 27 16.87 29 -0.2 60 -7.1 88 0 1001.4 NA 0.0000 9999 0 0 0 0
2019/10/23 22:43:00 BASE 14.72 27 16.87 29 -0.2 60 -7.0 86 0 1001.4 NA 0.0000 9999 0 0 0 0
2019/10/23 22:44:00 BASE 14.45 28 16.87 29 -0.3 61 -7.0 84 0 1001.4 NA 0.0000 9999 0 0 0 0
2019/10/23 22:45:00 BASE 13.88 31 16.87 29 -0.3 61 -7.0 82 0 1001.4 NA 0.0000 9999 0 0 0 0
2019/10/23 22:46:00 BASE 13.83 29 16.41 28 -0.3 61 -7.0 80 0 1001.4 NA 0.0000 9999 0 0 0 0
2019/10/23 22:47:00 BASE 13.94 29 16.05 28 -0.3 61 -7.0 77 0 1001.4 NA 0.0000 9999 0 0 0 0
2019/10/23 22:48:00 BASE 13.89 31 15.84 26 -0.4 61 -7.1 75 0 1001.4 NA 0.0000 9999 0 0 0 0
2019/10/23 22:49:00 BASE 13.52 30 15.74 24 -0.4 61 -7.1 73 0 1001.4 NA 0.0000 9999 0 0 0 0
2019/10/23 22:50:00 BASE 12.79 30 15.64 28 -0.5 61 -7.2 72 0 1001.4 NA 0.0000 9999 0 0 0 0
2019/10/23 22:51:00 BASE 11.95 31 15.64 28 -0.5 60 -7.2 70 0 1001.5 NA 0.0000 9999 0 0 0 0
2019/10/23 22:52:00 BASE 12.27 32 15.64 28 -0.5 61 -7.2 67 0 1001.4 NA 0.0000 9999 0 0 0 0
2019/10/23 22:53:00 BASE 13.13 32 15.48 27 -0.5 61 -7.2 65 0 1001.4 NA 0.0000 9999 0 0 0 0
2019/10/23 22:54:00 BASE 12.62 33 15.48 27 -0.6 61 -7.2 64 0 1001.4 NA 0.0000 9999 0 0 0 0
2019/10/23 22:55:00 BASE 12.39 34 15.48 27 -0.6 61 -7.2 62 0 1001.4 NA 0.0000 9999 0 0 0 0
2019/10/23 22:56:00 BASE 12.65 35 15.23 27 -0.7 62 -7.2 60 0 1001.4 NA 0.0000 9999 0 0 0 0
2019/10/23 22:57:00 BASE 12.43 34 14.71 26 -0.7 62 -7.2 58 0 1001.5 NA 0.0000 9999 0 0 0 0
2019/10/23 22:58:00 BASE 12.21 32 14.46 31 -0.8 62 -7.2 56 0 1001.5 NA 0.0000 9999 0 0 0 0
2019/10/23 22:59:00 BASE 12.04 33 14.46 31 -0.8 62 -7.2 55 0 1001.5 NA 0.0000 9999 0 0 0 0
2019/10/23 23:00:00 BASE 11.68 34 14.46 31 -0.8 62 -7.2 53 0 1001.5 NA 0.0000 9999 0 0 0 0
2019/10/23 23:01:00 BASE 10.85 34 14.46 31 -0.9 62 -7.2 51 0 1001.5 NA 0.0000 9999 0 0 0 0
2019/10/23 23:02:00 BASE 10.49 34 14.25 35 -0.9 62 -7.2 50 0 1001.5 NA 0.0000 9999 0 0 0 0
2019/10/23 23:03:00 BASE 10.74 37 14.25 35 -0.9 63 -7.2 48 0 1001.5 NA 0.0000 9999 0 0 0 0
2019/10/23 23:04:00 BASE 11.05 38 14.25 35 -0.9 63 -7.2 47 0 1001.5 NA 0.0000 9999 0 0 0 0
2019/10/23 23:05:00 BASE 10.49 38 14.25 35 -0.9 63 -7.2 45 0 1001.6 NA 0.0000 9999 0 0 0 0
2019/10/23 23:06:00 BASE 10.02 37 13.84 30 -0.9 63 -7.1 44 0 1001.6 NA 0.0000 9999 0 0 0 0
2019/10/23 23:07:00 BASE 9.96 36 13.48 35 -0.9 63 -7.1 42 0 1001.6 NA 0.0000 9999 0 0 0 0
2019/10/23 23:08:00 BASE 9.88 37 12.81 32 -0.9 63 -7.1 41 0 1001.6 NA 0.0000 9999 0 0 0 0
2019/10/23 23:09:00 BASE 10.07 39 12.14 25 -0.9 63 -7.1 40 0 1001.6 NA 0.0000 9999 0 0 0 0
2019/10/23 23:10:00 BASE 10.16 41 12.04 34 -0.9 63 -7.1 38 0 1001.6 NA 0.0000 9999 0 0 0 0
2019/10/23 23:11:00 BASE 9.73 42 12.04 34 -1.0 63 -7.1 37 0 1001.6 NA 0.0000 9999 0 0 0 0
2019/10/23 23:12:00 BASE 9.07 42 12.04 34 -1.0 63 -7.1 35 0 1001.6 NA 0.0000 9999 0 0 0 0
2019/10/23 23:13:00 BASE 8.81 44 11.99 37 -1.1 64 -7.1 34 0 1001.7 NA 0.0000 9999 0 0 0 0
2019/10/23 23:14:00 BASE 8.53 46 11.57 41 -1.1 64 -7.1 33 0 1001.7 NA 0.0000 9999 0 0 0 0
2019/10/23 23:15:00 BASE 8.39 43 11.57 41 -1.1 64 -7.1 32 0 1001.7 NA 0.0000 9999 0 0 0 0
2019/10/23 23:16:00 BASE 8.13 44 11.57 41 -1.1 64 -7.1 30 0 1001.7 NA 0.0000 9999 0 0 0 0
2019/10/23 23:17:00 BASE 7.62 47 11.57 41 -1.1 64 -7.1 29 0 1001.7 NA 0.0000 9999 0 0 0 0
2019/10/23 23:18:00 BASE 5.56 53 11.57 41 -1.2 64 -7.2 28 0 1001.7 NA 0.0000 9999 0 0 0 0
2019/10/23 23:19:00 BASE 2.64 71 11.57 41 -1.2 63 -7.3 27 0 1001.8 NA 0.0000 9999 0 0 0 0
2019/10/23 23:20:00 BASE 1.59 104 9.98 38 -1.3 63 -7.4 26 0 1001.8 NA 0.0000 9999 0 0 0 0
2019/10/23 23:21:00 BASE 3.46 113 9.83 38 -1.5 63 -7.5 25 0 1001.8 NA 0.0000 9999 0 0 0 0
2019/10/23 23:22:00 BASE 5.84 110 9.83 38 -1.6 64 -7.6 24 0 1001.8 NA 0.0000 9999 0 0 0 0
2019/10/23 23:23:00 BASE 6.35 107 9.83 38 -1.7 64 -7.6 23 0 1001.8 NA 0.0000 9999 0 0 0 0
2019/10/23 23:24:00 BASE 5.99 105 9.83 38 -1.7 64 -7.6 22 0 1001.8 NA 0.0000 9999 0 0 0 0
2019/10/23 23:25:00 BASE 5.33 109 8.75 46 -1.7 64 -7.6 21 0 1001.8 NA 0.0000 9999 0 0 0 0
2019/10/23 23:26:00 BASE 5.68 115 8.75 46 -1.6 64 -7.6 20 0 1001.8 NA 0.0000 9999 0 0 0 0
2019/10/23 23:27:00 BASE 6.69 120 7.41 103 -1.6 63 -7.6 19 0 1001.8 NA 0.0000 9999 0 0 0 0
2019/10/23 23:28:00 BASE 7.58 123 9.62 124 -1.5 63 -7.6 18 0 1001.7 NA 0.0000 9999 0 0 0 0
2019/10/23 23:29:00 BASE 7.88 124 9.62 124 -1.5 63 -7.7 17 0 1001.7 NA 0.0000 9999 0 0 0 0
2019/10/23 23:30:00 BASE 7.92 122 9.62 124 -1.4 62 -7.7 16 0 1001.7 NA 0.0000 9999 0 0 0 0
2019/10/23 23:31:00 BASE 8.17 119 9.62 124 -1.3 61 -7.8 16 0 1001.7 NA 0.0000 9999 0 0 0 0
2019/10/23 23:32:00 BASE 8.31 117 9.62 124 -1.1 60 -7.9 15 0 1001.8 NA 0.0000 9999 0 0 0 0
2019/10/23 23:33:00 BASE 8.08 116 9.62 124 -1.0 59 -8.1 14 0 1001.8 NA 0.0000 9999 0 0 0 0
2019/10/23 23:34:00 BASE 7.22 114 9.62 124 -1.0 58 -8.3 14 0 1001.8 NA 0.0000 9999 0 0 0 0
2019/10/23 23:35:00 BASE 6.46 108 9.62 124 -1.0 57 -8.5 13 0 1001.9 NA 0.0000 9999 0 0 0 0
2019/10/23 23:36:00 BASE 7.73 93 11.21 77 -1.2 57 -8.6 12 0 1001.9 NA 0.0000 9999 0 0 0 0
2019/10/23 23:37:00 BASE 8.61 82 11.21 77 -1.3 57 -8.6 12 0 1002.0 NA 0.0000 9999 0 0 0 0
2019/10/23 23:38:01 BASE 7.99 83 11.21 77 -1.4 58 -8.6 11 0 1002.0 NA 0.0000 9999 0 0 0 0
2019/10/23 23:39:01 BASE 8.00 87 11.21 77 -1.5 58 -8.7 10 0 1002.0 NA 0.0000 9999 0 0 0 0
2019/10/23 23:40:01 BASE 8.38 89 11.21 77 -1.6 59 -8.7 10 0 1002.0 NA 0.0000 9999 0 0 0 0
2019/10/23 23:41:01 BASE 8.52 93 11.21 77 -1.7 59 -8.7 9 0 1002.0 NA 0.0000 9999 0 0 0 0
2019/10/23 23:42:01 BASE 8.00 104 11.21 77 -1.8 59 -8.7 9 0 1002.0 NA 0.0000 9999 0 0 0 0
2019/10/23 23:43:00 BASE 7.74 115 11.21 77 -1.9 60 -8.7 9 0 1002.0 NA 0.0000 9999 0 0 0 0
2019/10/23 23:44:01 BASE 7.54 123 11.21 77 -1.8 60 -8.6 8 0 1002.0 NA 0.0000 9999 0 0 0 0
2019/10/23 23:45:00 BASE 7.48 129 11.21 77 -1.7 60 -8.5 8 0 1002.1 NA 0.0000 9999 0 0 0 0
2019/10/23 23:46:00 BASE 7.41 131 9.41 78 -1.7 60 -8.5 8 0 1002.1 NA 0.0000 9999 0 0 0 0
2019/10/23 23:47:00 BASE 6.86 135 9.41 78 -1.6 59 -8.5 7 0 1002.1 NA 0.0000 9999 0 0 0 0
2019/10/23 23:48:00 BASE 6.25 138 9.41 78 -1.6 59 -8.5 7 0 1002.2 NA 0.0000 9999 0 0 0 0
2019/10/23 23:49:01 BASE 5.86 139 9.41 78 -1.7 60 -8.5 7 0 1002.2 NA 0.0000 9999 0 0 0 0
2019/10/23 23:50:00 BASE 4.98 143 9.05 101 -1.8 61 -8.4 6 0 1002.2 NA 0.0000 9999 0 0 0 0
2019/10/23 23:51:00 BASE 3.89 149 9.05 101 -1.8 61 -8.3 6 0 1002.2 NA 0.0000 9999 0 0 0 0
2019/10/23 23:52:00 BASE 3.57 149 8.44 127 -1.9 62 -8.1 6 0 1002.2 NA 0.0000 9999 0 0 0 0
2019/10/23 23:53:00 BASE 3.49 143 8.44 127 -1.9 63 -7.9 5 0 1002.2 NA 0.0000 9999 0 0 0 0
2019/10/23 23:54:01 BASE 3.71 139 8.18 133 -1.9 64 -7.8 5 0 1002.2 NA 0.0000 9999 0 0 0 0
2019/10/23 23:55:01 BASE 4.07 136 8.18 133 -2.0 65 -7.7 5 0 1002.2 NA 0.0000 9999 0 0 0 0
2019/10/23 23:56:00 BASE 4.12 128 7.10 140 -2.1 66 -7.6 5 0 1002.2 NA 0.0000 9999 0 0 0 0
2019/10/23 23:57:00 BASE 4.46 120 6.84 140 -2.1 67 -7.5 4 0 1002.2 NA 0.0000 9999 0 0 0 0
2019/10/23 23:58:01 BASE 5.55 113 7.15 104 -2.1 67 -7.4 4 0 1002.2 NA 0.0000 9999 0 0 0 0
2019/10/23 23:59:00 BASE 6.33 113 7.15 104 -2.0 67 -7.4 4 0 1002.2 NA 0.0000 9999 0 0 0 0